<?xml version="1.0" encoding="UTF-8" standalone="no" ?>
<gpx xmlns="http://www.topografix.com/GPX/1/1" xmlns:xsi="http://www.w3.org/2001/XMLSchema-instance" xsi:schemaLocation="http://www.topografix.com/GPX/1/1 http://www.topografix.com/GPX/1/1/gpx.xsd" version="1.1" creator="VisuGPX - https://www.visugpx.com">
  <metadata>
    <name>Ailly sur somme</name>
    <desc><![CDATA[randonnée en ligne en suivant le GR123]]></desc>
  </metadata>
  <trk>
    <name><![CDATA[Piste0001AAAAAAA]]></name>
    <trkseg>
      <trkpt lat="49.92432" lon="2.19087">
        <ele>70</ele>
        <time>2011-06-22T06:23:24.000Z</time>
      </trkpt>
      <trkpt lat="49.9243" lon="2.1908">
        <ele>72</ele>
        <time>2011-06-22T06:24:09.000Z</time>
      </trkpt>
      <trkpt lat="49.92427" lon="2.19075">
        <ele>72</ele>
        <time>2011-06-22T06:24:16.000Z</time>
      </trkpt>
      <trkpt lat="49.92425" lon="2.19067">
        <ele>71</ele>
        <time>2011-06-22T06:24:22.000Z</time>
      </trkpt>
      <trkpt lat="49.92435" lon="2.19028">
        <ele>73</ele>
        <time>2011-06-22T06:24:59.000Z</time>
      </trkpt>
      <trkpt lat="49.92444" lon="2.19004">
        <ele>70</ele>
        <time>2011-06-22T06:25:15.000Z</time>
      </trkpt>
      <trkpt lat="49.92457" lon="2.18971">
        <ele>65</ele>
        <time>2011-06-22T06:25:39.000Z</time>
      </trkpt>
      <trkpt lat="49.9246" lon="2.18962">
        <ele>64</ele>
        <time>2011-06-22T06:25:45.000Z</time>
      </trkpt>
      <trkpt lat="49.92461" lon="2.18953">
        <ele>67</ele>
        <time>2011-06-22T06:25:53.000Z</time>
      </trkpt>
      <trkpt lat="49.92462" lon="2.18946">
        <ele>68</ele>
        <time>2011-06-22T06:25:57.000Z</time>
      </trkpt>
      <trkpt lat="49.92479" lon="2.1888">
        <ele>72</ele>
        <time>2011-06-22T06:26:34.000Z</time>
      </trkpt>
      <trkpt lat="49.9248" lon="2.18878">
        <ele>72</ele>
        <time>2011-06-22T06:26:35.000Z</time>
      </trkpt>
      <trkpt lat="49.92481" lon="2.1887">
        <ele>72</ele>
        <time>2011-06-22T06:26:39.000Z</time>
      </trkpt>
      <trkpt lat="49.92484" lon="2.18859">
        <ele>71</ele>
        <time>2011-06-22T06:26:46.000Z</time>
      </trkpt>
      <trkpt lat="49.92487" lon="2.18851">
        <ele>69</ele>
        <time>2011-06-22T06:26:51.000Z</time>
      </trkpt>
      <trkpt lat="49.92491" lon="2.18845">
        <ele>67</ele>
        <time>2011-06-22T06:26:56.000Z</time>
      </trkpt>
      <trkpt lat="49.92493" lon="2.18826">
        <ele>66</ele>
        <time>2011-06-22T06:27:06.000Z</time>
      </trkpt>
      <trkpt lat="49.92494" lon="2.18815">
        <ele>65</ele>
        <time>2011-06-22T06:27:12.000Z</time>
      </trkpt>
      <trkpt lat="49.92506" lon="2.18747">
        <ele>60</ele>
        <time>2011-06-22T06:27:46.000Z</time>
      </trkpt>
      <trkpt lat="49.92506" lon="2.18745">
        <ele>60</ele>
        <time>2011-06-22T06:27:47.000Z</time>
      </trkpt>
      <trkpt lat="49.92508" lon="2.18722">
        <ele>60</ele>
        <time>2011-06-22T06:27:59.000Z</time>
      </trkpt>
      <trkpt lat="49.92512" lon="2.187">
        <ele>61</ele>
        <time>2011-06-22T06:28:11.000Z</time>
      </trkpt>
      <trkpt lat="49.92519" lon="2.18638">
        <ele>62</ele>
        <time>2011-06-22T06:28:42.000Z</time>
      </trkpt>
      <trkpt lat="49.92518" lon="2.18627">
        <ele>61</ele>
        <time>2011-06-22T06:28:48.000Z</time>
      </trkpt>
      <trkpt lat="49.92521" lon="2.18587">
        <ele>60</ele>
        <time>2011-06-22T06:29:10.000Z</time>
      </trkpt>
      <trkpt lat="49.92525" lon="2.18571">
        <ele>58</ele>
        <time>2011-06-22T06:29:20.000Z</time>
      </trkpt>
      <trkpt lat="49.92531" lon="2.18501">
        <ele>57</ele>
        <time>2011-06-22T06:29:56.000Z</time>
      </trkpt>
      <trkpt lat="49.92531" lon="2.18499">
        <ele>57</ele>
        <time>2011-06-22T06:29:57.000Z</time>
      </trkpt>
      <trkpt lat="49.92535" lon="2.18428">
        <ele>60</ele>
        <time>2011-06-22T06:30:31.000Z</time>
      </trkpt>
      <trkpt lat="49.92535" lon="2.18426">
        <ele>60</ele>
        <time>2011-06-22T06:30:32.000Z</time>
      </trkpt>
      <trkpt lat="49.92544" lon="2.18356">
        <ele>61</ele>
        <time>2011-06-22T06:31:10.000Z</time>
      </trkpt>
      <trkpt lat="49.92545" lon="2.18355">
        <ele>61</ele>
        <time>2011-06-22T06:31:11.000Z</time>
      </trkpt>
      <trkpt lat="49.92553" lon="2.18285">
        <ele>63</ele>
        <time>2011-06-22T06:31:48.000Z</time>
      </trkpt>
      <trkpt lat="49.92553" lon="2.18283">
        <ele>63</ele>
        <time>2011-06-22T06:31:49.000Z</time>
      </trkpt>
      <trkpt lat="49.92561" lon="2.18213">
        <ele>62</ele>
        <time>2011-06-22T06:32:29.000Z</time>
      </trkpt>
      <trkpt lat="49.92561" lon="2.18211">
        <ele>62</ele>
        <time>2011-06-22T06:32:30.000Z</time>
      </trkpt>
      <trkpt lat="49.92569" lon="2.1814">
        <ele>62</ele>
        <time>2011-06-22T06:33:07.000Z</time>
      </trkpt>
      <trkpt lat="49.9257" lon="2.18138">
        <ele>62</ele>
        <time>2011-06-22T06:33:08.000Z</time>
      </trkpt>
      <trkpt lat="49.92575" lon="2.18068">
        <ele>61</ele>
        <time>2011-06-22T06:33:47.000Z</time>
      </trkpt>
      <trkpt lat="49.92575" lon="2.18066">
        <ele>61</ele>
        <time>2011-06-22T06:33:48.000Z</time>
      </trkpt>
      <trkpt lat="49.92576" lon="2.18014">
        <ele>63</ele>
        <time>2011-06-22T06:34:14.000Z</time>
      </trkpt>
      <trkpt lat="49.92572" lon="2.17949">
        <ele>63</ele>
        <time>2011-06-22T06:34:57.000Z</time>
      </trkpt>
      <trkpt lat="49.92572" lon="2.17897">
        <ele>63</ele>
        <time>2011-06-22T06:35:27.000Z</time>
      </trkpt>
      <trkpt lat="49.92573" lon="2.17889">
        <ele>62</ele>
        <time>2011-06-22T06:35:31.000Z</time>
      </trkpt>
      <trkpt lat="49.92575" lon="2.17875">
        <ele>62</ele>
        <time>2011-06-22T06:35:40.000Z</time>
      </trkpt>
      <trkpt lat="49.92574" lon="2.17862">
        <ele>58</ele>
        <time>2011-06-22T06:36:07.000Z</time>
      </trkpt>
      <trkpt lat="49.92575" lon="2.17799">
        <ele>60</ele>
        <time>2011-06-22T06:37:00.000Z</time>
      </trkpt>
      <trkpt lat="49.92574" lon="2.17756">
        <ele>66</ele>
        <time>2011-06-22T06:37:58.000Z</time>
      </trkpt>
      <trkpt lat="49.92573" lon="2.17747">
        <ele>66</ele>
        <time>2011-06-22T06:38:04.000Z</time>
      </trkpt>
      <trkpt lat="49.92571" lon="2.17722">
        <ele>67</ele>
        <time>2011-06-22T06:38:17.000Z</time>
      </trkpt>
      <trkpt lat="49.92566" lon="2.17653">
        <ele>71</ele>
        <time>2011-06-22T06:38:52.000Z</time>
      </trkpt>
      <trkpt lat="49.92566" lon="2.17651">
        <ele>71</ele>
        <time>2011-06-22T06:38:53.000Z</time>
      </trkpt>
      <trkpt lat="49.92566" lon="2.17643">
        <ele>70</ele>
        <time>2011-06-22T06:38:58.000Z</time>
      </trkpt>
      <trkpt lat="49.92573" lon="2.17589">
        <ele>65</ele>
        <time>2011-06-22T06:40:06.000Z</time>
      </trkpt>
      <trkpt lat="49.92574" lon="2.17581">
        <ele>66</ele>
        <time>2011-06-22T06:40:31.000Z</time>
      </trkpt>
      <trkpt lat="49.92576" lon="2.17567">
        <ele>64</ele>
        <time>2011-06-22T06:40:39.000Z</time>
      </trkpt>
      <trkpt lat="49.92577" lon="2.17559">
        <ele>65</ele>
        <time>2011-06-22T06:40:44.000Z</time>
      </trkpt>
      <trkpt lat="49.92578" lon="2.17551">
        <ele>63</ele>
        <time>2011-06-22T06:41:01.000Z</time>
      </trkpt>
      <trkpt lat="49.9258" lon="2.17542">
        <ele>64</ele>
        <time>2011-06-22T06:41:07.000Z</time>
      </trkpt>
      <trkpt lat="49.92589" lon="2.17506">
        <ele>62</ele>
        <time>2011-06-22T06:41:29.000Z</time>
      </trkpt>
      <trkpt lat="49.92594" lon="2.17486">
        <ele>60</ele>
        <time>2011-06-22T06:41:41.000Z</time>
      </trkpt>
      <trkpt lat="49.92602" lon="2.17464">
        <ele>59</ele>
        <time>2011-06-22T06:41:53.000Z</time>
      </trkpt>
      <trkpt lat="49.92606" lon="2.17449">
        <ele>59</ele>
        <time>2011-06-22T06:42:01.000Z</time>
      </trkpt>
      <trkpt lat="49.92623" lon="2.17402">
        <ele>68</ele>
        <time>2011-06-22T06:42:52.000Z</time>
      </trkpt>
      <trkpt lat="49.9263" lon="2.17381">
        <ele>66</ele>
        <time>2011-06-22T06:43:06.000Z</time>
      </trkpt>
      <trkpt lat="49.92631" lon="2.17374">
        <ele>64</ele>
        <time>2011-06-22T06:43:10.000Z</time>
      </trkpt>
      <trkpt lat="49.92633" lon="2.17365">
        <ele>60</ele>
        <time>2011-06-22T06:43:16.000Z</time>
      </trkpt>
      <trkpt lat="49.92635" lon="2.17355">
        <ele>57</ele>
        <time>2011-06-22T06:43:22.000Z</time>
      </trkpt>
      <trkpt lat="49.92635" lon="2.17341">
        <ele>51</ele>
        <time>2011-06-22T06:43:31.000Z</time>
      </trkpt>
      <trkpt lat="49.9264" lon="2.17326">
        <ele>48</ele>
        <time>2011-06-22T06:43:42.000Z</time>
      </trkpt>
      <trkpt lat="49.92655" lon="2.17278">
        <ele>46</ele>
        <time>2011-06-22T06:44:10.000Z</time>
      </trkpt>
      <trkpt lat="49.92659" lon="2.17262">
        <ele>46</ele>
        <time>2011-06-22T06:44:19.000Z</time>
      </trkpt>
      <trkpt lat="49.92664" lon="2.17232">
        <ele>45</ele>
        <time>2011-06-22T06:44:37.000Z</time>
      </trkpt>
      <trkpt lat="49.92665" lon="2.17207">
        <ele>43</ele>
        <time>2011-06-22T06:44:51.000Z</time>
      </trkpt>
      <trkpt lat="49.92664" lon="2.17199">
        <ele>43</ele>
        <time>2011-06-22T06:44:55.000Z</time>
      </trkpt>
      <trkpt lat="49.92664" lon="2.17182">
        <ele>43</ele>
        <time>2011-06-22T06:45:04.000Z</time>
      </trkpt>
      <trkpt lat="49.92659" lon="2.17155">
        <ele>43</ele>
        <time>2011-06-22T06:45:19.000Z</time>
      </trkpt>
      <trkpt lat="49.92654" lon="2.1714">
        <ele>43</ele>
        <time>2011-06-22T06:45:28.000Z</time>
      </trkpt>
      <trkpt lat="49.92645" lon="2.17108">
        <ele>45</ele>
        <time>2011-06-22T06:45:47.000Z</time>
      </trkpt>
      <trkpt lat="49.92636" lon="2.17092">
        <ele>43</ele>
        <time>2011-06-22T06:45:58.000Z</time>
      </trkpt>
      <trkpt lat="49.92624" lon="2.17073">
        <ele>38</ele>
        <time>2011-06-22T06:46:12.000Z</time>
      </trkpt>
      <trkpt lat="49.92616" lon="2.17062">
        <ele>35</ele>
        <time>2011-06-22T06:46:21.000Z</time>
      </trkpt>
      <trkpt lat="49.92609" lon="2.17054">
        <ele>32</ele>
        <time>2011-06-22T06:46:30.000Z</time>
      </trkpt>
      <trkpt lat="49.92578" lon="2.17031">
        <ele>32</ele>
        <time>2011-06-22T06:47:09.000Z</time>
      </trkpt>
      <trkpt lat="49.92572" lon="2.1703">
        <ele>34</ele>
        <time>2011-06-22T06:47:14.000Z</time>
      </trkpt>
      <trkpt lat="49.92565" lon="2.17025">
        <ele>35</ele>
        <time>2011-06-22T06:47:20.000Z</time>
      </trkpt>
      <trkpt lat="49.9255" lon="2.17015">
        <ele>40</ele>
        <time>2011-06-22T06:47:33.000Z</time>
      </trkpt>
      <trkpt lat="49.92545" lon="2.17009">
        <ele>40</ele>
        <time>2011-06-22T06:47:45.000Z</time>
      </trkpt>
      <trkpt lat="49.92543" lon="2.16993">
        <ele>34</ele>
        <time>2011-06-22T06:48:11.000Z</time>
      </trkpt>
      <trkpt lat="49.92539" lon="2.16984">
        <ele>39</ele>
        <time>2011-06-22T06:48:42.000Z</time>
      </trkpt>
      <trkpt lat="49.92535" lon="2.16968">
        <ele>33</ele>
        <time>2011-06-22T06:49:16.000Z</time>
      </trkpt>
      <trkpt lat="49.92533" lon="2.16957">
        <ele>32</ele>
        <time>2011-06-22T06:49:25.000Z</time>
      </trkpt>
      <trkpt lat="49.92524" lon="2.16927">
        <ele>28</ele>
        <time>2011-06-22T06:49:55.000Z</time>
      </trkpt>
      <trkpt lat="49.92522" lon="2.1692">
        <ele>24</ele>
        <time>2011-06-22T06:50:27.000Z</time>
      </trkpt>
      <trkpt lat="49.92519" lon="2.16904">
        <ele>25</ele>
        <time>2011-06-22T06:50:38.000Z</time>
      </trkpt>
      <trkpt lat="49.92513" lon="2.16881">
        <ele>29</ele>
        <time>2011-06-22T06:50:51.000Z</time>
      </trkpt>
      <trkpt lat="49.92494" lon="2.16816">
        <ele>29</ele>
        <time>2011-06-22T06:51:30.000Z</time>
      </trkpt>
      <trkpt lat="49.92494" lon="2.16815">
        <ele>29</ele>
        <time>2011-06-22T06:51:31.000Z</time>
      </trkpt>
      <trkpt lat="49.9249" lon="2.16807">
        <ele>27</ele>
        <time>2011-06-22T06:51:37.000Z</time>
      </trkpt>
      <trkpt lat="49.92486" lon="2.16782">
        <ele>24</ele>
        <time>2011-06-22T06:51:52.000Z</time>
      </trkpt>
      <trkpt lat="49.92486" lon="2.1676">
        <ele>21</ele>
        <time>2011-06-22T06:52:11.000Z</time>
      </trkpt>
      <trkpt lat="49.92482" lon="2.16746">
        <ele>22</ele>
        <time>2011-06-22T06:52:22.000Z</time>
      </trkpt>
      <trkpt lat="49.9248" lon="2.16732">
        <ele>24</ele>
        <time>2011-06-22T06:52:31.000Z</time>
      </trkpt>
      <trkpt lat="49.92478" lon="2.16724">
        <ele>25</ele>
        <time>2011-06-22T06:52:36.000Z</time>
      </trkpt>
      <trkpt lat="49.92477" lon="2.16674">
        <ele>26</ele>
        <time>2011-06-22T06:53:09.000Z</time>
      </trkpt>
      <trkpt lat="49.9248" lon="2.16653">
        <ele>29</ele>
        <time>2011-06-22T06:53:27.000Z</time>
      </trkpt>
      <trkpt lat="49.92481" lon="2.16638">
        <ele>34</ele>
        <time>2011-06-22T06:53:38.000Z</time>
      </trkpt>
      <trkpt lat="49.92487" lon="2.16624">
        <ele>34</ele>
        <time>2011-06-22T06:53:48.000Z</time>
      </trkpt>
      <trkpt lat="49.9249" lon="2.16617">
        <ele>34</ele>
        <time>2011-06-22T06:53:54.000Z</time>
      </trkpt>
      <trkpt lat="49.92493" lon="2.16608">
        <ele>34</ele>
        <time>2011-06-22T06:54:00.000Z</time>
      </trkpt>
      <trkpt lat="49.92496" lon="2.16592">
        <ele>37</ele>
        <time>2011-06-22T06:54:10.000Z</time>
      </trkpt>
      <trkpt lat="49.925" lon="2.16573">
        <ele>40</ele>
        <time>2011-06-22T06:54:22.000Z</time>
      </trkpt>
      <trkpt lat="49.92501" lon="2.16565">
        <ele>40</ele>
        <time>2011-06-22T06:54:28.000Z</time>
      </trkpt>
      <trkpt lat="49.92504" lon="2.16555">
        <ele>37</ele>
        <time>2011-06-22T06:54:38.000Z</time>
      </trkpt>
      <trkpt lat="49.92507" lon="2.16548">
        <ele>35</ele>
        <time>2011-06-22T06:54:44.000Z</time>
      </trkpt>
      <trkpt lat="49.92515" lon="2.16532">
        <ele>35</ele>
        <time>2011-06-22T06:54:59.000Z</time>
      </trkpt>
      <trkpt lat="49.92527" lon="2.16481">
        <ele>44</ele>
        <time>2011-06-22T06:55:35.000Z</time>
      </trkpt>
      <trkpt lat="49.92531" lon="2.16473">
        <ele>45</ele>
        <time>2011-06-22T06:55:41.000Z</time>
      </trkpt>
      <trkpt lat="49.92534" lon="2.16466">
        <ele>46</ele>
        <time>2011-06-22T06:55:47.000Z</time>
      </trkpt>
      <trkpt lat="49.92542" lon="2.16453">
        <ele>48</ele>
        <time>2011-06-22T06:55:59.000Z</time>
      </trkpt>
      <trkpt lat="49.92559" lon="2.16425">
        <ele>50</ele>
        <time>2011-06-22T06:56:32.000Z</time>
      </trkpt>
      <trkpt lat="49.92561" lon="2.16419">
        <ele>50</ele>
        <time>2011-06-22T06:56:37.000Z</time>
      </trkpt>
      <trkpt lat="49.92585" lon="2.16366">
        <ele>53</ele>
        <time>2011-06-22T06:57:25.000Z</time>
      </trkpt>
      <trkpt lat="49.92598" lon="2.16326">
        <ele>54</ele>
        <time>2011-06-22T06:57:54.000Z</time>
      </trkpt>
      <trkpt lat="49.92615" lon="2.16268">
        <ele>58</ele>
        <time>2011-06-22T06:58:35.000Z</time>
      </trkpt>
      <trkpt lat="49.92617" lon="2.16261">
        <ele>58</ele>
        <time>2011-06-22T06:58:40.000Z</time>
      </trkpt>
      <trkpt lat="49.92618" lon="2.16253">
        <ele>57</ele>
        <time>2011-06-22T06:58:46.000Z</time>
      </trkpt>
      <trkpt lat="49.92625" lon="2.16229">
        <ele>59</ele>
        <time>2011-06-22T06:59:04.000Z</time>
      </trkpt>
      <trkpt lat="49.92628" lon="2.16221">
        <ele>59</ele>
        <time>2011-06-22T06:59:10.000Z</time>
      </trkpt>
      <trkpt lat="49.9263" lon="2.16212">
        <ele>59</ele>
        <time>2011-06-22T06:59:16.000Z</time>
      </trkpt>
      <trkpt lat="49.92632" lon="2.16205">
        <ele>61</ele>
        <time>2011-06-22T06:59:25.000Z</time>
      </trkpt>
      <trkpt lat="49.92635" lon="2.16194">
        <ele>67</ele>
        <time>2011-06-22T07:00:04.000Z</time>
      </trkpt>
      <trkpt lat="49.92638" lon="2.16183">
        <ele>68</ele>
        <time>2011-06-22T07:00:13.000Z</time>
      </trkpt>
      <trkpt lat="49.9264" lon="2.16171">
        <ele>67</ele>
        <time>2011-06-22T07:00:38.000Z</time>
      </trkpt>
      <trkpt lat="49.92641" lon="2.16162">
        <ele>68</ele>
        <time>2011-06-22T07:00:43.000Z</time>
      </trkpt>
      <trkpt lat="49.92645" lon="2.161">
        <ele>70</ele>
        <time>2011-06-22T07:01:17.000Z</time>
      </trkpt>
      <trkpt lat="49.92644" lon="2.16065">
        <ele>73</ele>
        <time>2011-06-22T07:02:04.000Z</time>
      </trkpt>
      <trkpt lat="49.92641" lon="2.16059">
        <ele>71</ele>
        <time>2011-06-22T07:02:26.000Z</time>
      </trkpt>
      <trkpt lat="49.9264" lon="2.16038">
        <ele>72</ele>
        <time>2011-06-22T07:02:39.000Z</time>
      </trkpt>
      <trkpt lat="49.92642" lon="2.16032">
        <ele>74</ele>
        <time>2011-06-22T07:03:06.000Z</time>
      </trkpt>
      <trkpt lat="49.9264" lon="2.16023">
        <ele>71</ele>
        <time>2011-06-22T07:03:13.000Z</time>
      </trkpt>
      <trkpt lat="49.92638" lon="2.16018">
        <ele>68</ele>
        <time>2011-06-22T07:03:32.000Z</time>
      </trkpt>
      <trkpt lat="49.92635" lon="2.15968">
        <ele>74</ele>
        <time>2011-06-22T07:04:12.000Z</time>
      </trkpt>
      <trkpt lat="49.92633" lon="2.15955">
        <ele>75</ele>
        <time>2011-06-22T07:04:24.000Z</time>
      </trkpt>
      <trkpt lat="49.92631" lon="2.15932">
        <ele>75</ele>
        <time>2011-06-22T07:04:40.000Z</time>
      </trkpt>
      <trkpt lat="49.92631" lon="2.15899">
        <ele>75</ele>
        <time>2011-06-22T07:05:26.000Z</time>
      </trkpt>
      <trkpt lat="49.92629" lon="2.15882">
        <ele>73</ele>
        <time>2011-06-22T07:05:38.000Z</time>
      </trkpt>
      <trkpt lat="49.92628" lon="2.15874">
        <ele>71</ele>
        <time>2011-06-22T07:05:56.000Z</time>
      </trkpt>
      <trkpt lat="49.92628" lon="2.15862">
        <ele>75</ele>
        <time>2011-06-22T07:06:29.000Z</time>
      </trkpt>
      <trkpt lat="49.92633" lon="2.15792">
        <ele>82</ele>
        <time>2011-06-22T07:07:09.000Z</time>
      </trkpt>
      <trkpt lat="49.92633" lon="2.1579">
        <ele>82</ele>
        <time>2011-06-22T07:07:10.000Z</time>
      </trkpt>
      <trkpt lat="49.92636" lon="2.1576">
        <ele>80</ele>
        <time>2011-06-22T07:07:27.000Z</time>
      </trkpt>
      <trkpt lat="49.92637" lon="2.15763">
        <ele>79</ele>
        <time>2011-06-22T07:08:04.000Z</time>
      </trkpt>
      <trkpt lat="49.92633" lon="2.15762">
        <ele>73</ele>
        <time>2011-06-22T07:08:52.000Z</time>
      </trkpt>
      <trkpt lat="49.92635" lon="2.15757">
        <ele>74</ele>
        <time>2011-06-22T07:09:17.000Z</time>
      </trkpt>
      <trkpt lat="49.92637" lon="2.15741">
        <ele>77</ele>
        <time>2011-06-22T07:10:14.000Z</time>
      </trkpt>
      <trkpt lat="49.92644" lon="2.15672">
        <ele>83</ele>
        <time>2011-06-22T07:10:56.000Z</time>
      </trkpt>
      <trkpt lat="49.92645" lon="2.1567">
        <ele>83</ele>
        <time>2011-06-22T07:10:57.000Z</time>
      </trkpt>
      <trkpt lat="49.92648" lon="2.1565">
        <ele>84</ele>
        <time>2011-06-22T07:11:10.000Z</time>
      </trkpt>
      <trkpt lat="49.92657" lon="2.1561">
        <ele>71</ele>
        <time>2011-06-22T07:11:39.000Z</time>
      </trkpt>
      <trkpt lat="49.92653" lon="2.1554">
        <ele>85</ele>
        <time>2011-06-22T07:12:13.000Z</time>
      </trkpt>
      <trkpt lat="49.92653" lon="2.15538">
        <ele>86</ele>
        <time>2011-06-22T07:12:14.000Z</time>
      </trkpt>
      <trkpt lat="49.9265" lon="2.15475">
        <ele>90</ele>
        <time>2011-06-22T07:12:49.000Z</time>
      </trkpt>
      <trkpt lat="49.9265" lon="2.15462">
        <ele>89</ele>
        <time>2011-06-22T07:12:56.000Z</time>
      </trkpt>
      <trkpt lat="49.92649" lon="2.15447">
        <ele>88</ele>
        <time>2011-06-22T07:13:14.000Z</time>
      </trkpt>
      <trkpt lat="49.92645" lon="2.15377">
        <ele>87</ele>
        <time>2011-06-22T07:13:55.000Z</time>
      </trkpt>
      <trkpt lat="49.92645" lon="2.15375">
        <ele>87</ele>
        <time>2011-06-22T07:13:56.000Z</time>
      </trkpt>
      <trkpt lat="49.92642" lon="2.15304">
        <ele>84</ele>
        <time>2011-06-22T07:14:39.000Z</time>
      </trkpt>
      <trkpt lat="49.92642" lon="2.15302">
        <ele>84</ele>
        <time>2011-06-22T07:14:40.000Z</time>
      </trkpt>
      <trkpt lat="49.92636" lon="2.15231">
        <ele>89</ele>
        <time>2011-06-22T07:15:19.000Z</time>
      </trkpt>
      <trkpt lat="49.92636" lon="2.1523">
        <ele>89</ele>
        <time>2011-06-22T07:15:20.000Z</time>
      </trkpt>
      <trkpt lat="49.9263" lon="2.15196">
        <ele>90</ele>
        <time>2011-06-22T07:15:55.000Z</time>
      </trkpt>
      <trkpt lat="49.92622" lon="2.15142">
        <ele>90</ele>
        <time>2011-06-22T07:16:24.000Z</time>
      </trkpt>
      <trkpt lat="49.92612" lon="2.15072">
        <ele>91</ele>
        <time>2011-06-22T07:17:02.000Z</time>
      </trkpt>
      <trkpt lat="49.92611" lon="2.1507">
        <ele>91</ele>
        <time>2011-06-22T07:17:03.000Z</time>
      </trkpt>
      <trkpt lat="49.92609" lon="2.15049">
        <ele>92</ele>
        <time>2011-06-22T07:17:15.000Z</time>
      </trkpt>
      <trkpt lat="49.92607" lon="2.15037">
        <ele>92</ele>
        <time>2011-06-22T07:17:22.000Z</time>
      </trkpt>
      <trkpt lat="49.92596" lon="2.14971">
        <ele>88</ele>
        <time>2011-06-22T07:17:59.000Z</time>
      </trkpt>
      <trkpt lat="49.92589" lon="2.14936">
        <ele>78</ele>
        <time>2011-06-22T07:18:35.000Z</time>
      </trkpt>
      <trkpt lat="49.92589" lon="2.14929">
        <ele>84</ele>
        <time>2011-06-22T07:18:54.000Z</time>
      </trkpt>
      <trkpt lat="49.92589" lon="2.14921">
        <ele>86</ele>
        <time>2011-06-22T07:19:05.000Z</time>
      </trkpt>
      <trkpt lat="49.92588" lon="2.14914">
        <ele>87</ele>
        <time>2011-06-22T07:19:18.000Z</time>
      </trkpt>
      <trkpt lat="49.92585" lon="2.14887">
        <ele>98</ele>
        <time>2011-06-22T07:19:38.000Z</time>
      </trkpt>
      <trkpt lat="49.92582" lon="2.14873">
        <ele>94</ele>
        <time>2011-06-22T07:19:48.000Z</time>
      </trkpt>
      <trkpt lat="49.92576" lon="2.14833">
        <ele>92</ele>
        <time>2011-06-22T07:20:18.000Z</time>
      </trkpt>
      <trkpt lat="49.92574" lon="2.14806">
        <ele>91</ele>
        <time>2011-06-22T07:20:35.000Z</time>
      </trkpt>
      <trkpt lat="49.92571" lon="2.14799">
        <ele>91</ele>
        <time>2011-06-22T07:20:39.000Z</time>
      </trkpt>
      <trkpt lat="49.92568" lon="2.14793">
        <ele>94</ele>
        <time>2011-06-22T07:20:46.000Z</time>
      </trkpt>
      <trkpt lat="49.92566" lon="2.14786">
        <ele>94</ele>
        <time>2011-06-22T07:20:53.000Z</time>
      </trkpt>
      <trkpt lat="49.92564" lon="2.14763">
        <ele>86</ele>
        <time>2011-06-22T07:21:08.000Z</time>
      </trkpt>
      <trkpt lat="49.92565" lon="2.14753">
        <ele>82</ele>
        <time>2011-06-22T07:21:14.000Z</time>
      </trkpt>
      <trkpt lat="49.92566" lon="2.14743">
        <ele>80</ele>
        <time>2011-06-22T07:21:20.000Z</time>
      </trkpt>
      <trkpt lat="49.92566" lon="2.14735">
        <ele>77</ele>
        <time>2011-06-22T07:21:29.000Z</time>
      </trkpt>
      <trkpt lat="49.92566" lon="2.14726">
        <ele>77</ele>
        <time>2011-06-22T07:21:33.000Z</time>
      </trkpt>
      <trkpt lat="49.92566" lon="2.14705">
        <ele>76</ele>
        <time>2011-06-22T07:21:45.000Z</time>
      </trkpt>
      <trkpt lat="49.92568" lon="2.14669">
        <ele>74</ele>
        <time>2011-06-22T07:22:04.000Z</time>
      </trkpt>
      <trkpt lat="49.92566" lon="2.14598">
        <ele>65</ele>
        <time>2011-06-22T07:22:41.000Z</time>
      </trkpt>
      <trkpt lat="49.92565" lon="2.14597">
        <ele>65</ele>
        <time>2011-06-22T07:22:42.000Z</time>
      </trkpt>
      <trkpt lat="49.92564" lon="2.14581">
        <ele>64</ele>
        <time>2011-06-22T07:22:51.000Z</time>
      </trkpt>
      <trkpt lat="49.92558" lon="2.14512">
        <ele>74</ele>
        <time>2011-06-22T07:23:29.000Z</time>
      </trkpt>
      <trkpt lat="49.92557" lon="2.1451">
        <ele>74</ele>
        <time>2011-06-22T07:23:30.000Z</time>
      </trkpt>
      <trkpt lat="49.92551" lon="2.14471">
        <ele>74</ele>
        <time>2011-06-22T07:23:52.000Z</time>
      </trkpt>
      <trkpt lat="49.92545" lon="2.1444">
        <ele>74</ele>
        <time>2011-06-22T07:24:10.000Z</time>
      </trkpt>
      <trkpt lat="49.92543" lon="2.14431">
        <ele>72</ele>
        <time>2011-06-22T07:24:16.000Z</time>
      </trkpt>
      <trkpt lat="49.92541" lon="2.14419">
        <ele>71</ele>
        <time>2011-06-22T07:24:24.000Z</time>
      </trkpt>
      <trkpt lat="49.92537" lon="2.14401">
        <ele>71</ele>
        <time>2011-06-22T07:24:34.000Z</time>
      </trkpt>
      <trkpt lat="49.92534" lon="2.14393">
        <ele>70</ele>
        <time>2011-06-22T07:24:38.000Z</time>
      </trkpt>
      <trkpt lat="49.92528" lon="2.14374">
        <ele>68</ele>
        <time>2011-06-22T07:24:50.000Z</time>
      </trkpt>
      <trkpt lat="49.92525" lon="2.14365">
        <ele>68</ele>
        <time>2011-06-22T07:24:56.000Z</time>
      </trkpt>
      <trkpt lat="49.92519" lon="2.14348">
        <ele>70</ele>
        <time>2011-06-22T07:25:10.000Z</time>
      </trkpt>
      <trkpt lat="49.92517" lon="2.14338">
        <ele>70</ele>
        <time>2011-06-22T07:25:16.000Z</time>
      </trkpt>
      <trkpt lat="49.92514" lon="2.14318">
        <ele>70</ele>
        <time>2011-06-22T07:25:26.000Z</time>
      </trkpt>
      <trkpt lat="49.92513" lon="2.1431">
        <ele>70</ele>
        <time>2011-06-22T07:25:31.000Z</time>
      </trkpt>
      <trkpt lat="49.92504" lon="2.14278">
        <ele>67</ele>
        <time>2011-06-22T07:25:52.000Z</time>
      </trkpt>
      <trkpt lat="49.92499" lon="2.14263">
        <ele>67</ele>
        <time>2011-06-22T07:26:01.000Z</time>
      </trkpt>
      <trkpt lat="49.92496" lon="2.14255">
        <ele>67</ele>
        <time>2011-06-22T07:26:06.000Z</time>
      </trkpt>
      <trkpt lat="49.92492" lon="2.14236">
        <ele>65</ele>
        <time>2011-06-22T07:26:19.000Z</time>
      </trkpt>
      <trkpt lat="49.92488" lon="2.14214">
        <ele>66</ele>
        <time>2011-06-22T07:26:36.000Z</time>
      </trkpt>
      <trkpt lat="49.92476" lon="2.14174">
        <ele>63</ele>
        <time>2011-06-22T07:26:59.000Z</time>
      </trkpt>
      <trkpt lat="49.92473" lon="2.14165">
        <ele>63</ele>
        <time>2011-06-22T07:27:06.000Z</time>
      </trkpt>
      <trkpt lat="49.92462" lon="2.1413">
        <ele>66</ele>
        <time>2011-06-22T07:27:24.000Z</time>
      </trkpt>
      <trkpt lat="49.92443" lon="2.14065">
        <ele>62</ele>
        <time>2011-06-22T07:28:02.000Z</time>
      </trkpt>
      <trkpt lat="49.92443" lon="2.14063">
        <ele>62</ele>
        <time>2011-06-22T07:28:03.000Z</time>
      </trkpt>
      <trkpt lat="49.9244" lon="2.14045">
        <ele>56</ele>
        <time>2011-06-22T07:28:14.000Z</time>
      </trkpt>
      <trkpt lat="49.92435" lon="2.14015">
        <ele>57</ele>
        <time>2011-06-22T07:28:37.000Z</time>
      </trkpt>
      <trkpt lat="49.92433" lon="2.13993">
        <ele>59</ele>
        <time>2011-06-22T07:28:47.000Z</time>
      </trkpt>
      <trkpt lat="49.92433" lon="2.13975">
        <ele>60</ele>
        <time>2011-06-22T07:28:55.000Z</time>
      </trkpt>
      <trkpt lat="49.92436" lon="2.13963">
        <ele>61</ele>
        <time>2011-06-22T07:29:01.000Z</time>
      </trkpt>
      <trkpt lat="49.9244" lon="2.13949">
        <ele>62</ele>
        <time>2011-06-22T07:29:09.000Z</time>
      </trkpt>
      <trkpt lat="49.92455" lon="2.1393">
        <ele>62</ele>
        <time>2011-06-22T07:29:24.000Z</time>
      </trkpt>
      <trkpt lat="49.92473" lon="2.13921">
        <ele>62</ele>
        <time>2011-06-22T07:29:39.000Z</time>
      </trkpt>
      <trkpt lat="49.92489" lon="2.13922">
        <ele>62</ele>
        <time>2011-06-22T07:29:52.000Z</time>
      </trkpt>
      <trkpt lat="49.92494" lon="2.1392">
        <ele>61</ele>
        <time>2011-06-22T07:29:57.000Z</time>
      </trkpt>
      <trkpt lat="49.92503" lon="2.13924">
        <ele>61</ele>
        <time>2011-06-22T07:30:05.000Z</time>
      </trkpt>
      <trkpt lat="49.92514" lon="2.13927">
        <ele>61</ele>
        <time>2011-06-22T07:30:20.000Z</time>
      </trkpt>
      <trkpt lat="49.92559" lon="2.13935">
        <ele>59</ele>
        <time>2011-06-22T07:31:02.000Z</time>
      </trkpt>
      <trkpt lat="49.92561" lon="2.13935">
        <ele>59</ele>
        <time>2011-06-22T07:31:03.000Z</time>
      </trkpt>
      <trkpt lat="49.92569" lon="2.13935">
        <ele>59</ele>
        <time>2011-06-22T07:31:12.000Z</time>
      </trkpt>
      <trkpt lat="49.92614" lon="2.13925">
        <ele>57</ele>
        <time>2011-06-22T07:32:08.000Z</time>
      </trkpt>
      <trkpt lat="49.92616" lon="2.13925">
        <ele>57</ele>
        <time>2011-06-22T07:32:09.000Z</time>
      </trkpt>
      <trkpt lat="49.92629" lon="2.13926">
        <ele>57</ele>
        <time>2011-06-22T07:32:21.000Z</time>
      </trkpt>
      <trkpt lat="49.9265" lon="2.13932">
        <ele>63</ele>
        <time>2011-06-22T07:32:59.000Z</time>
      </trkpt>
      <trkpt lat="49.92692" lon="2.13949">
        <ele>64</ele>
        <time>2011-06-22T07:33:35.000Z</time>
      </trkpt>
      <trkpt lat="49.92698" lon="2.1395">
        <ele>64</ele>
        <time>2011-06-22T07:33:41.000Z</time>
      </trkpt>
      <trkpt lat="49.92743" lon="2.13948">
        <ele>68</ele>
        <time>2011-06-22T07:34:16.000Z</time>
      </trkpt>
      <trkpt lat="49.92745" lon="2.13948">
        <ele>68</ele>
        <time>2011-06-22T07:34:17.000Z</time>
      </trkpt>
      <trkpt lat="49.92755" lon="2.13946">
        <ele>69</ele>
        <time>2011-06-22T07:34:25.000Z</time>
      </trkpt>
      <trkpt lat="49.92801" lon="2.13939">
        <ele>71</ele>
        <time>2011-06-22T07:35:01.000Z</time>
      </trkpt>
      <trkpt lat="49.92802" lon="2.13939">
        <ele>71</ele>
        <time>2011-06-22T07:35:02.000Z</time>
      </trkpt>
      <trkpt lat="49.92847" lon="2.13932">
        <ele>71</ele>
        <time>2011-06-22T07:35:40.000Z</time>
      </trkpt>
      <trkpt lat="49.92848" lon="2.13931">
        <ele>71</ele>
        <time>2011-06-22T07:35:41.000Z</time>
      </trkpt>
      <trkpt lat="49.92882" lon="2.13925">
        <ele>72</ele>
        <time>2011-06-22T07:36:11.000Z</time>
      </trkpt>
      <trkpt lat="49.92928" lon="2.13914">
        <ele>73</ele>
        <time>2011-06-22T07:36:50.000Z</time>
      </trkpt>
      <trkpt lat="49.92929" lon="2.13913">
        <ele>73</ele>
        <time>2011-06-22T07:36:51.000Z</time>
      </trkpt>
      <trkpt lat="49.92973" lon="2.13904">
        <ele>75</ele>
        <time>2011-06-22T07:37:29.000Z</time>
      </trkpt>
      <trkpt lat="49.92975" lon="2.13904">
        <ele>75</ele>
        <time>2011-06-22T07:37:30.000Z</time>
      </trkpt>
      <trkpt lat="49.93021" lon="2.13896">
        <ele>76</ele>
        <time>2011-06-22T07:38:07.000Z</time>
      </trkpt>
      <trkpt lat="49.93022" lon="2.13896">
        <ele>75</ele>
        <time>2011-06-22T07:38:08.000Z</time>
      </trkpt>
      <trkpt lat="49.93066" lon="2.13887">
        <ele>74</ele>
        <time>2011-06-22T07:38:57.000Z</time>
      </trkpt>
      <trkpt lat="49.93068" lon="2.13886">
        <ele>74</ele>
        <time>2011-06-22T07:38:58.000Z</time>
      </trkpt>
      <trkpt lat="49.93092" lon="2.13875">
        <ele>77</ele>
        <time>2011-06-22T07:39:36.000Z</time>
      </trkpt>
      <trkpt lat="49.93097" lon="2.13879">
        <ele>78</ele>
        <time>2011-06-22T07:39:41.000Z</time>
      </trkpt>
      <trkpt lat="49.93137" lon="2.13912">
        <ele>76</ele>
        <time>2011-06-22T07:40:20.000Z</time>
      </trkpt>
      <trkpt lat="49.93138" lon="2.13913">
        <ele>76</ele>
        <time>2011-06-22T07:40:21.000Z</time>
      </trkpt>
      <trkpt lat="49.93177" lon="2.13946">
        <ele>75</ele>
        <time>2011-06-22T07:40:57.000Z</time>
      </trkpt>
      <trkpt lat="49.93179" lon="2.13947">
        <ele>75</ele>
        <time>2011-06-22T07:40:58.000Z</time>
      </trkpt>
      <trkpt lat="49.93219" lon="2.13982">
        <ele>74</ele>
        <time>2011-06-22T07:41:37.000Z</time>
      </trkpt>
      <trkpt lat="49.9322" lon="2.13983">
        <ele>74</ele>
        <time>2011-06-22T07:41:38.000Z</time>
      </trkpt>
      <trkpt lat="49.93261" lon="2.14017">
        <ele>74</ele>
        <time>2011-06-22T07:42:18.000Z</time>
      </trkpt>
      <trkpt lat="49.93262" lon="2.14018">
        <ele>74</ele>
        <time>2011-06-22T07:42:19.000Z</time>
      </trkpt>
      <trkpt lat="49.93283" lon="2.14033">
        <ele>74</ele>
        <time>2011-06-22T07:42:41.000Z</time>
      </trkpt>
      <trkpt lat="49.93325" lon="2.14049">
        <ele>72</ele>
        <time>2011-06-22T07:43:14.000Z</time>
      </trkpt>
      <trkpt lat="49.9337" lon="2.1406">
        <ele>76</ele>
        <time>2011-06-22T07:43:48.000Z</time>
      </trkpt>
      <trkpt lat="49.93371" lon="2.14061">
        <ele>76</ele>
        <time>2011-06-22T07:43:49.000Z</time>
      </trkpt>
      <trkpt lat="49.93404" lon="2.14072">
        <ele>78</ele>
        <time>2011-06-22T07:44:16.000Z</time>
      </trkpt>
      <trkpt lat="49.93422" lon="2.14083">
        <ele>76</ele>
        <time>2011-06-22T07:44:33.000Z</time>
      </trkpt>
      <trkpt lat="49.93461" lon="2.14117">
        <ele>71</ele>
        <time>2011-06-22T07:45:14.000Z</time>
      </trkpt>
      <trkpt lat="49.93462" lon="2.14118">
        <ele>71</ele>
        <time>2011-06-22T07:45:15.000Z</time>
      </trkpt>
      <trkpt lat="49.93465" lon="2.14119">
        <ele>71</ele>
        <time>2011-06-22T07:45:18.000Z</time>
      </trkpt>
      <trkpt lat="49.93487" lon="2.14134">
        <ele>74</ele>
        <time>2011-06-22T07:45:40.000Z</time>
      </trkpt>
      <trkpt lat="49.93495" lon="2.14141">
        <ele>73</ele>
        <time>2011-06-22T07:45:50.000Z</time>
      </trkpt>
      <trkpt lat="49.93506" lon="2.14154">
        <ele>70</ele>
        <time>2011-06-22T07:46:03.000Z</time>
      </trkpt>
      <trkpt lat="49.93517" lon="2.14163">
        <ele>70</ele>
        <time>2011-06-22T07:46:13.000Z</time>
      </trkpt>
      <trkpt lat="49.93525" lon="2.14171">
        <ele>70</ele>
        <time>2011-06-22T07:46:21.000Z</time>
      </trkpt>
      <trkpt lat="49.93531" lon="2.14179">
        <ele>68</ele>
        <time>2011-06-22T07:46:30.000Z</time>
      </trkpt>
      <trkpt lat="49.9357" lon="2.14218">
        <ele>69</ele>
        <time>2011-06-22T07:47:09.000Z</time>
      </trkpt>
      <trkpt lat="49.93571" lon="2.14219">
        <ele>69</ele>
        <time>2011-06-22T07:47:10.000Z</time>
      </trkpt>
      <trkpt lat="49.93574" lon="2.14221">
        <ele>69</ele>
        <time>2011-06-22T07:47:12.000Z</time>
      </trkpt>
      <trkpt lat="49.936" lon="2.14241">
        <ele>68</ele>
        <time>2011-06-22T07:47:36.000Z</time>
      </trkpt>
      <trkpt lat="49.93616" lon="2.14248">
        <ele>70</ele>
        <time>2011-06-22T07:47:48.000Z</time>
      </trkpt>
      <trkpt lat="49.9366" lon="2.14258">
        <ele>75</ele>
        <time>2011-06-22T07:48:21.000Z</time>
      </trkpt>
      <trkpt lat="49.93661" lon="2.14258">
        <ele>75</ele>
        <time>2011-06-22T07:48:22.000Z</time>
      </trkpt>
      <trkpt lat="49.93692" lon="2.14261">
        <ele>76</ele>
        <time>2011-06-22T07:48:45.000Z</time>
      </trkpt>
      <trkpt lat="49.93737" lon="2.14266">
        <ele>74</ele>
        <time>2011-06-22T07:49:23.000Z</time>
      </trkpt>
      <trkpt lat="49.93738" lon="2.14266">
        <ele>74</ele>
        <time>2011-06-22T07:49:24.000Z</time>
      </trkpt>
      <trkpt lat="49.93783" lon="2.14278">
        <ele>73</ele>
        <time>2011-06-22T07:50:03.000Z</time>
      </trkpt>
      <trkpt lat="49.93784" lon="2.14278">
        <ele>73</ele>
        <time>2011-06-22T07:50:04.000Z</time>
      </trkpt>
      <trkpt lat="49.93787" lon="2.1428">
        <ele>73</ele>
        <time>2011-06-22T07:50:07.000Z</time>
      </trkpt>
      <trkpt lat="49.9381" lon="2.14291">
        <ele>72</ele>
        <time>2011-06-22T07:50:32.000Z</time>
      </trkpt>
      <trkpt lat="49.93814" lon="2.14294">
        <ele>69</ele>
        <time>2011-06-22T07:50:40.000Z</time>
      </trkpt>
      <trkpt lat="49.93822" lon="2.14305">
        <ele>65</ele>
        <time>2011-06-22T07:50:52.000Z</time>
      </trkpt>
      <trkpt lat="49.93826" lon="2.14311">
        <ele>65</ele>
        <time>2011-06-22T07:50:57.000Z</time>
      </trkpt>
      <trkpt lat="49.93836" lon="2.14326">
        <ele>65</ele>
        <time>2011-06-22T07:51:08.000Z</time>
      </trkpt>
      <trkpt lat="49.93851" lon="2.14353">
        <ele>63</ele>
        <time>2011-06-22T07:51:27.000Z</time>
      </trkpt>
      <trkpt lat="49.93861" lon="2.14379">
        <ele>62</ele>
        <time>2011-06-22T07:51:43.000Z</time>
      </trkpt>
      <trkpt lat="49.93871" lon="2.14395">
        <ele>61</ele>
        <time>2011-06-22T07:51:54.000Z</time>
      </trkpt>
      <trkpt lat="49.93884" lon="2.14418">
        <ele>58</ele>
        <time>2011-06-22T07:52:11.000Z</time>
      </trkpt>
      <trkpt lat="49.93887" lon="2.14427">
        <ele>58</ele>
        <time>2011-06-22T07:52:17.000Z</time>
      </trkpt>
      <trkpt lat="49.93891" lon="2.14433">
        <ele>59</ele>
        <time>2011-06-22T07:52:21.000Z</time>
      </trkpt>
      <trkpt lat="49.93898" lon="2.14443">
        <ele>60</ele>
        <time>2011-06-22T07:52:31.000Z</time>
      </trkpt>
      <trkpt lat="49.93915" lon="2.14472">
        <ele>56</ele>
        <time>2011-06-22T07:52:51.000Z</time>
      </trkpt>
      <trkpt lat="49.93918" lon="2.14478">
        <ele>56</ele>
        <time>2011-06-22T07:52:55.000Z</time>
      </trkpt>
      <trkpt lat="49.93928" lon="2.14493">
        <ele>56</ele>
        <time>2011-06-22T07:53:06.000Z</time>
      </trkpt>
      <trkpt lat="49.93935" lon="2.14501">
        <ele>57</ele>
        <time>2011-06-22T07:53:13.000Z</time>
      </trkpt>
      <trkpt lat="49.93975" lon="2.14535">
        <ele>58</ele>
        <time>2011-06-22T07:53:48.000Z</time>
      </trkpt>
      <trkpt lat="49.93976" lon="2.14536">
        <ele>58</ele>
        <time>2011-06-22T07:53:49.000Z</time>
      </trkpt>
      <trkpt lat="49.93982" lon="2.14539">
        <ele>58</ele>
        <time>2011-06-22T07:53:53.000Z</time>
      </trkpt>
      <trkpt lat="49.94017" lon="2.14558">
        <ele>62</ele>
        <time>2011-06-22T07:54:26.000Z</time>
      </trkpt>
      <trkpt lat="49.94038" lon="2.14564">
        <ele>61</ele>
        <time>2011-06-22T07:54:47.000Z</time>
      </trkpt>
      <trkpt lat="49.94059" lon="2.14565">
        <ele>62</ele>
        <time>2011-06-22T07:55:05.000Z</time>
      </trkpt>
      <trkpt lat="49.94105" lon="2.14559">
        <ele>57</ele>
        <time>2011-06-22T07:55:43.000Z</time>
      </trkpt>
      <trkpt lat="49.94107" lon="2.14559">
        <ele>57</ele>
        <time>2011-06-22T07:55:44.000Z</time>
      </trkpt>
      <trkpt lat="49.94128" lon="2.14561">
        <ele>51</ele>
        <time>2011-06-22T07:56:01.000Z</time>
      </trkpt>
      <trkpt lat="49.94173" lon="2.14572">
        <ele>45</ele>
        <time>2011-06-22T07:56:38.000Z</time>
      </trkpt>
      <trkpt lat="49.94174" lon="2.14573">
        <ele>45</ele>
        <time>2011-06-22T07:56:39.000Z</time>
      </trkpt>
      <trkpt lat="49.9422" lon="2.14581">
        <ele>40</ele>
        <time>2011-06-22T07:57:18.000Z</time>
      </trkpt>
      <trkpt lat="49.9422" lon="2.14581">
        <ele>40</ele>
        <time>2011-06-22T07:57:19.000Z</time>
      </trkpt>
      <trkpt lat="49.94226" lon="2.14581">
        <ele>38</ele>
        <time>2011-06-22T07:57:23.000Z</time>
      </trkpt>
      <trkpt lat="49.9425" lon="2.14569">
        <ele>40</ele>
        <time>2011-06-22T07:57:46.000Z</time>
      </trkpt>
      <trkpt lat="49.94262" lon="2.14562">
        <ele>41</ele>
        <time>2011-06-22T07:57:55.000Z</time>
      </trkpt>
      <trkpt lat="49.94278" lon="2.14548">
        <ele>32</ele>
        <time>2011-06-22T07:58:10.000Z</time>
      </trkpt>
      <trkpt lat="49.94282" lon="2.14544">
        <ele>30</ele>
        <time>2011-06-22T07:58:15.000Z</time>
      </trkpt>
      <trkpt lat="49.94284" lon="2.14531">
        <ele>25</ele>
        <time>2011-06-22T07:58:23.000Z</time>
      </trkpt>
      <trkpt lat="49.94281" lon="2.14516">
        <ele>23</ele>
        <time>2011-06-22T07:58:31.000Z</time>
      </trkpt>
      <trkpt lat="49.94276" lon="2.14491">
        <ele>24</ele>
        <time>2011-06-22T07:58:43.000Z</time>
      </trkpt>
      <trkpt lat="49.94262" lon="2.14462">
        <ele>26</ele>
        <time>2011-06-22T07:59:01.000Z</time>
      </trkpt>
      <trkpt lat="49.94259" lon="2.14455">
        <ele>25</ele>
        <time>2011-06-22T07:59:06.000Z</time>
      </trkpt>
      <trkpt lat="49.94252" lon="2.1444">
        <ele>28</ele>
        <time>2011-06-22T07:59:15.000Z</time>
      </trkpt>
      <trkpt lat="49.94227" lon="2.14385">
        <ele>27</ele>
        <time>2011-06-22T07:59:52.000Z</time>
      </trkpt>
      <trkpt lat="49.94229" lon="2.1437">
        <ele>24</ele>
        <time>2011-06-22T08:00:01.000Z</time>
      </trkpt>
      <trkpt lat="49.94241" lon="2.14344">
        <ele>27</ele>
        <time>2011-06-22T08:00:21.000Z</time>
      </trkpt>
      <trkpt lat="49.94245" lon="2.14337">
        <ele>28</ele>
        <time>2011-06-22T08:00:26.000Z</time>
      </trkpt>
      <trkpt lat="49.9425" lon="2.1433">
        <ele>30</ele>
        <time>2011-06-22T08:00:41.000Z</time>
      </trkpt>
      <trkpt lat="49.94253" lon="2.14323">
        <ele>31</ele>
        <time>2011-06-22T08:00:50.000Z</time>
      </trkpt>
      <trkpt lat="49.94257" lon="2.1431">
        <ele>24</ele>
        <time>2011-06-22T08:01:21.000Z</time>
      </trkpt>
      <trkpt lat="49.94257" lon="2.14302">
        <ele>23</ele>
        <time>2011-06-22T08:01:33.000Z</time>
      </trkpt>
      <trkpt lat="49.94259" lon="2.14295">
        <ele>24</ele>
        <time>2011-06-22T08:01:40.000Z</time>
      </trkpt>
      <trkpt lat="49.94257" lon="2.14257">
        <ele>32</ele>
        <time>2011-06-22T08:03:09.000Z</time>
      </trkpt>
      <trkpt lat="49.94257" lon="2.1427">
        <ele>36</ele>
        <time>2011-06-22T08:03:12.000Z</time>
      </trkpt>
      <trkpt lat="49.94257" lon="2.14287">
        <ele>38</ele>
        <time>2011-06-22T08:03:15.000Z</time>
      </trkpt>
      <trkpt lat="49.94253" lon="2.14301">
        <ele>39</ele>
        <time>2011-06-22T08:03:19.000Z</time>
      </trkpt>
      <trkpt lat="49.94253" lon="2.14308">
        <ele>39</ele>
        <time>2011-06-22T08:03:24.000Z</time>
      </trkpt>
      <trkpt lat="49.94255" lon="2.1431">
        <ele>34</ele>
        <time>2011-06-22T08:03:33.000Z</time>
      </trkpt>
      <trkpt lat="49.94257" lon="2.14303">
        <ele>31</ele>
        <time>2011-06-22T08:03:47.000Z</time>
      </trkpt>
      <trkpt lat="49.94255" lon="2.14311">
        <ele>31</ele>
        <time>2011-06-22T08:03:56.000Z</time>
      </trkpt>
      <trkpt lat="49.94251" lon="2.14326">
        <ele>29</ele>
        <time>2011-06-22T08:04:11.000Z</time>
      </trkpt>
      <trkpt lat="49.94246" lon="2.14328">
        <ele>27</ele>
        <time>2011-06-22T08:04:18.000Z</time>
      </trkpt>
      <trkpt lat="49.94242" lon="2.14323">
        <ele>26</ele>
        <time>2011-06-22T08:04:24.000Z</time>
      </trkpt>
      <trkpt lat="49.94243" lon="2.1431">
        <ele>30</ele>
        <time>2011-06-22T08:04:35.000Z</time>
      </trkpt>
      <trkpt lat="49.94249" lon="2.14294">
        <ele>30</ele>
        <time>2011-06-22T08:04:47.000Z</time>
      </trkpt>
      <trkpt lat="49.94253" lon="2.14265">
        <ele>36</ele>
        <time>2011-06-22T08:05:13.000Z</time>
      </trkpt>
      <trkpt lat="49.94256" lon="2.14248">
        <ele>33</ele>
        <time>2011-06-22T08:05:26.000Z</time>
      </trkpt>
      <trkpt lat="49.94258" lon="2.14231">
        <ele>35</ele>
        <time>2011-06-22T08:05:39.000Z</time>
      </trkpt>
      <trkpt lat="49.94258" lon="2.14219">
        <ele>44</ele>
        <time>2011-06-22T08:06:03.000Z</time>
      </trkpt>
      <trkpt lat="49.94268" lon="2.14204">
        <ele>45</ele>
        <time>2011-06-22T08:06:18.000Z</time>
      </trkpt>
      <trkpt lat="49.94275" lon="2.1419">
        <ele>48</ele>
        <time>2011-06-22T08:06:31.000Z</time>
      </trkpt>
      <trkpt lat="49.94276" lon="2.14178">
        <ele>47</ele>
        <time>2011-06-22T08:06:44.000Z</time>
      </trkpt>
      <trkpt lat="49.94277" lon="2.1417">
        <ele>49</ele>
        <time>2011-06-22T08:06:51.000Z</time>
      </trkpt>
      <trkpt lat="49.94279" lon="2.14163">
        <ele>50</ele>
        <time>2011-06-22T08:07:00.000Z</time>
      </trkpt>
      <trkpt lat="49.94286" lon="2.14154">
        <ele>48</ele>
        <time>2011-06-22T08:07:14.000Z</time>
      </trkpt>
      <trkpt lat="49.94289" lon="2.14149">
        <ele>49</ele>
        <time>2011-06-22T08:07:20.000Z</time>
      </trkpt>
      <trkpt lat="49.94292" lon="2.14142">
        <ele>56</ele>
        <time>2011-06-22T08:07:27.000Z</time>
      </trkpt>
      <trkpt lat="49.94294" lon="2.14133">
        <ele>64</ele>
        <time>2011-06-22T08:07:34.000Z</time>
      </trkpt>
      <trkpt lat="49.94297" lon="2.14126">
        <ele>70</ele>
        <time>2011-06-22T08:07:44.000Z</time>
      </trkpt>
      <trkpt lat="49.94299" lon="2.14118">
        <ele>65</ele>
        <time>2011-06-22T08:07:51.000Z</time>
      </trkpt>
      <trkpt lat="49.94299" lon="2.14117">
        <ele>82</ele>
        <time>2011-06-22T08:08:49.000Z</time>
      </trkpt>
      <trkpt lat="49.94302" lon="2.1411">
        <ele>69</ele>
        <time>2011-06-22T08:08:54.000Z</time>
      </trkpt>
      <trkpt lat="49.94306" lon="2.14104">
        <ele>63</ele>
        <time>2011-06-22T08:08:58.000Z</time>
      </trkpt>
      <trkpt lat="49.94316" lon="2.14088">
        <ele>54</ele>
        <time>2011-06-22T08:09:08.000Z</time>
      </trkpt>
      <trkpt lat="49.9432" lon="2.14078">
        <ele>52</ele>
        <time>2011-06-22T08:09:17.000Z</time>
      </trkpt>
      <trkpt lat="49.94309" lon="2.14062">
        <ele>50</ele>
        <time>2011-06-22T08:09:29.000Z</time>
      </trkpt>
      <trkpt lat="49.94304" lon="2.14059">
        <ele>49</ele>
        <time>2011-06-22T08:09:33.000Z</time>
      </trkpt>
      <trkpt lat="49.94298" lon="2.14051">
        <ele>49</ele>
        <time>2011-06-22T08:09:39.000Z</time>
      </trkpt>
      <trkpt lat="49.94282" lon="2.14039">
        <ele>51</ele>
        <time>2011-06-22T08:09:54.000Z</time>
      </trkpt>
      <trkpt lat="49.94277" lon="2.14043">
        <ele>53</ele>
        <time>2011-06-22T08:10:01.000Z</time>
      </trkpt>
      <trkpt lat="49.94273" lon="2.14055">
        <ele>54</ele>
        <time>2011-06-22T08:10:10.000Z</time>
      </trkpt>
      <trkpt lat="49.94276" lon="2.14063">
        <ele>53</ele>
        <time>2011-06-22T08:10:15.000Z</time>
      </trkpt>
      <trkpt lat="49.94282" lon="2.14081">
        <ele>53</ele>
        <time>2011-06-22T08:10:26.000Z</time>
      </trkpt>
      <trkpt lat="49.94287" lon="2.14099">
        <ele>53</ele>
        <time>2011-06-22T08:10:37.000Z</time>
      </trkpt>
      <trkpt lat="49.9429" lon="2.14103">
        <ele>54</ele>
        <time>2011-06-22T08:10:59.000Z</time>
      </trkpt>
      <trkpt lat="49.94292" lon="2.14095">
        <ele>54</ele>
        <time>2011-06-22T08:11:11.000Z</time>
      </trkpt>
      <trkpt lat="49.94298" lon="2.14105">
        <ele>56</ele>
        <time>2011-06-22T08:11:33.000Z</time>
      </trkpt>
      <trkpt lat="49.94287" lon="2.14073">
        <ele>64</ele>
        <time>2011-06-22T08:12:11.000Z</time>
      </trkpt>
      <trkpt lat="49.94293" lon="2.14068">
        <ele>61</ele>
        <time>2011-06-22T08:12:17.000Z</time>
      </trkpt>
      <trkpt lat="49.94301" lon="2.14068">
        <ele>59</ele>
        <time>2011-06-22T08:12:27.000Z</time>
      </trkpt>
      <trkpt lat="49.94306" lon="2.14072">
        <ele>59</ele>
        <time>2011-06-22T08:12:33.000Z</time>
      </trkpt>
      <trkpt lat="49.94309" lon="2.1408">
        <ele>57</ele>
        <time>2011-06-22T08:12:39.000Z</time>
      </trkpt>
      <trkpt lat="49.94308" lon="2.14089">
        <ele>55</ele>
        <time>2011-06-22T08:12:45.000Z</time>
      </trkpt>
      <trkpt lat="49.94305" lon="2.14109">
        <ele>49</ele>
        <time>2011-06-22T08:13:08.000Z</time>
      </trkpt>
      <trkpt lat="49.94368" lon="2.14158">
        <ele>-13</ele>
        <time>2011-06-22T08:16:33.000Z</time>
      </trkpt>
      <trkpt lat="49.94364" lon="2.1415">
        <ele>-5</ele>
        <time>2011-06-22T08:16:34.000Z</time>
      </trkpt>
      <trkpt lat="49.94341" lon="2.14114">
        <ele>30</ele>
        <time>2011-06-22T08:16:41.000Z</time>
      </trkpt>
      <trkpt lat="49.94332" lon="2.14085">
        <ele>49</ele>
        <time>2011-06-22T08:16:50.000Z</time>
      </trkpt>
      <trkpt lat="49.94333" lon="2.14079">
        <ele>49</ele>
        <time>2011-06-22T08:16:59.000Z</time>
      </trkpt>
      <trkpt lat="49.94342" lon="2.14083">
        <ele>47</ele>
        <time>2011-06-22T08:17:09.000Z</time>
      </trkpt>
      <trkpt lat="49.94348" lon="2.14091">
        <ele>48</ele>
        <time>2011-06-22T08:17:19.000Z</time>
      </trkpt>
      <trkpt lat="49.94368" lon="2.14115">
        <ele>51</ele>
        <time>2011-06-22T08:17:43.000Z</time>
      </trkpt>
      <trkpt lat="49.9437" lon="2.14131">
        <ele>47</ele>
        <time>2011-06-22T08:18:14.000Z</time>
      </trkpt>
      <trkpt lat="49.94363" lon="2.14141">
        <ele>41</ele>
        <time>2011-06-22T08:19:01.000Z</time>
      </trkpt>
      <trkpt lat="49.94361" lon="2.14148">
        <ele>39</ele>
        <time>2011-06-22T08:19:10.000Z</time>
      </trkpt>
      <trkpt lat="49.94347" lon="2.1417">
        <ele>43</ele>
        <time>2011-06-22T08:19:39.000Z</time>
      </trkpt>
      <trkpt lat="49.94345" lon="2.14179">
        <ele>48</ele>
        <time>2011-06-22T08:19:47.000Z</time>
      </trkpt>
      <trkpt lat="49.94343" lon="2.14188">
        <ele>54</ele>
        <time>2011-06-22T08:19:56.000Z</time>
      </trkpt>
      <trkpt lat="49.94336" lon="2.14208">
        <ele>54</ele>
        <time>2011-06-22T08:20:38.000Z</time>
      </trkpt>
      <trkpt lat="49.94329" lon="2.14218">
        <ele>58</ele>
        <time>2011-06-22T08:20:56.000Z</time>
      </trkpt>
      <trkpt lat="49.94324" lon="2.14216">
        <ele>57</ele>
        <time>2011-06-22T08:21:02.000Z</time>
      </trkpt>
      <trkpt lat="49.94319" lon="2.14217">
        <ele>57</ele>
        <time>2011-06-22T08:21:08.000Z</time>
      </trkpt>
      <trkpt lat="49.94316" lon="2.14225">
        <ele>66</ele>
        <time>2011-06-22T08:21:24.000Z</time>
      </trkpt>
      <trkpt lat="49.94322" lon="2.1423">
        <ele>64</ele>
        <time>2011-06-22T08:21:35.000Z</time>
      </trkpt>
      <trkpt lat="49.94327" lon="2.14223">
        <ele>62</ele>
        <time>2011-06-22T08:21:39.000Z</time>
      </trkpt>
      <trkpt lat="49.94331" lon="2.14215">
        <ele>57</ele>
        <time>2011-06-22T08:21:44.000Z</time>
      </trkpt>
      <trkpt lat="49.94341" lon="2.14189">
        <ele>54</ele>
        <time>2011-06-22T08:22:15.000Z</time>
      </trkpt>
      <trkpt lat="49.94356" lon="2.1415">
        <ele>42</ele>
        <time>2011-06-22T08:22:58.000Z</time>
      </trkpt>
      <trkpt lat="49.94361" lon="2.14143">
        <ele>53</ele>
        <time>2011-06-22T08:23:09.000Z</time>
      </trkpt>
      <trkpt lat="49.94365" lon="2.14137">
        <ele>53</ele>
        <time>2011-06-22T08:23:14.000Z</time>
      </trkpt>
      <trkpt lat="49.94371" lon="2.1413">
        <ele>49</ele>
        <time>2011-06-22T08:23:44.000Z</time>
      </trkpt>
      <trkpt lat="49.94381" lon="2.14126">
        <ele>45</ele>
        <time>2011-06-22T08:23:53.000Z</time>
      </trkpt>
      <trkpt lat="49.9441" lon="2.14123">
        <ele>45</ele>
        <time>2011-06-22T08:24:19.000Z</time>
      </trkpt>
      <trkpt lat="49.94417" lon="2.14127">
        <ele>44</ele>
        <time>2011-06-22T08:24:36.000Z</time>
      </trkpt>
      <trkpt lat="49.94423" lon="2.14129">
        <ele>41</ele>
        <time>2011-06-22T08:24:43.000Z</time>
      </trkpt>
      <trkpt lat="49.94437" lon="2.14133">
        <ele>36</ele>
        <time>2011-06-22T08:24:59.000Z</time>
      </trkpt>
      <trkpt lat="49.94448" lon="2.14142">
        <ele>37</ele>
        <time>2011-06-22T08:25:12.000Z</time>
      </trkpt>
      <trkpt lat="49.9446" lon="2.14148">
        <ele>30</ele>
        <time>2011-06-22T08:25:33.000Z</time>
      </trkpt>
      <trkpt lat="49.94466" lon="2.14155">
        <ele>25</ele>
        <time>2011-06-22T08:25:43.000Z</time>
      </trkpt>
      <trkpt lat="49.94464" lon="2.14164">
        <ele>23</ele>
        <time>2011-06-22T08:25:52.000Z</time>
      </trkpt>
      <trkpt lat="49.94464" lon="2.14177">
        <ele>22</ele>
        <time>2011-06-22T08:26:01.000Z</time>
      </trkpt>
      <trkpt lat="49.94468" lon="2.14194">
        <ele>24</ele>
        <time>2011-06-22T08:26:09.000Z</time>
      </trkpt>
      <trkpt lat="49.94471" lon="2.14205">
        <ele>25</ele>
        <time>2011-06-22T08:26:16.000Z</time>
      </trkpt>
      <trkpt lat="49.94479" lon="2.14219">
        <ele>23</ele>
        <time>2011-06-22T08:26:26.000Z</time>
      </trkpt>
      <trkpt lat="49.94485" lon="2.14223">
        <ele>22</ele>
        <time>2011-06-22T08:26:32.000Z</time>
      </trkpt>
      <trkpt lat="49.9449" lon="2.14228">
        <ele>21</ele>
        <time>2011-06-22T08:26:37.000Z</time>
      </trkpt>
      <trkpt lat="49.94497" lon="2.14233">
        <ele>21</ele>
        <time>2011-06-22T08:26:44.000Z</time>
      </trkpt>
      <trkpt lat="49.94502" lon="2.14237">
        <ele>22</ele>
        <time>2011-06-22T08:26:49.000Z</time>
      </trkpt>
      <trkpt lat="49.94511" lon="2.14241">
        <ele>25</ele>
        <time>2011-06-22T08:26:56.000Z</time>
      </trkpt>
      <trkpt lat="49.94518" lon="2.14246">
        <ele>24</ele>
        <time>2011-06-22T08:27:04.000Z</time>
      </trkpt>
      <trkpt lat="49.94526" lon="2.1425">
        <ele>25</ele>
        <time>2011-06-22T08:27:12.000Z</time>
      </trkpt>
      <trkpt lat="49.94531" lon="2.14253">
        <ele>23</ele>
        <time>2011-06-22T08:27:16.000Z</time>
      </trkpt>
      <trkpt lat="49.94537" lon="2.14258">
        <ele>24</ele>
        <time>2011-06-22T08:27:23.000Z</time>
      </trkpt>
      <trkpt lat="49.94542" lon="2.14258">
        <ele>28</ele>
        <time>2011-06-22T08:27:28.000Z</time>
      </trkpt>
      <trkpt lat="49.9455" lon="2.14252">
        <ele>29</ele>
        <time>2011-06-22T08:27:38.000Z</time>
      </trkpt>
      <trkpt lat="49.94562" lon="2.14238">
        <ele>35</ele>
        <time>2011-06-22T08:27:48.000Z</time>
      </trkpt>
      <trkpt lat="49.94567" lon="2.14234">
        <ele>39</ele>
        <time>2011-06-22T08:27:52.000Z</time>
      </trkpt>
      <trkpt lat="49.94572" lon="2.14233">
        <ele>37</ele>
        <time>2011-06-22T08:28:01.000Z</time>
      </trkpt>
      <trkpt lat="49.94588" lon="2.14222">
        <ele>25</ele>
        <time>2011-06-22T08:28:12.000Z</time>
      </trkpt>
      <trkpt lat="49.94606" lon="2.14221">
        <ele>13</ele>
        <time>2011-06-22T08:28:26.000Z</time>
      </trkpt>
      <trkpt lat="49.94624" lon="2.14224">
        <ele>20</ele>
        <time>2011-06-22T08:28:43.000Z</time>
      </trkpt>
      <trkpt lat="49.94665" lon="2.14217">
        <ele>24</ele>
        <time>2011-06-22T08:29:18.000Z</time>
      </trkpt>
      <trkpt lat="49.94676" lon="2.14222">
        <ele>23</ele>
        <time>2011-06-22T08:29:30.000Z</time>
      </trkpt>
      <trkpt lat="49.94682" lon="2.14226">
        <ele>24</ele>
        <time>2011-06-22T08:29:38.000Z</time>
      </trkpt>
      <trkpt lat="49.94692" lon="2.14234">
        <ele>25</ele>
        <time>2011-06-22T08:29:48.000Z</time>
      </trkpt>
      <trkpt lat="49.94697" lon="2.14239">
        <ele>25</ele>
        <time>2011-06-22T08:29:55.000Z</time>
      </trkpt>
      <trkpt lat="49.94708" lon="2.14251">
        <ele>26</ele>
        <time>2011-06-22T08:30:09.000Z</time>
      </trkpt>
      <trkpt lat="49.94712" lon="2.14255">
        <ele>26</ele>
        <time>2011-06-22T08:30:16.000Z</time>
      </trkpt>
      <trkpt lat="49.94717" lon="2.1426">
        <ele>25</ele>
        <time>2011-06-22T08:30:23.000Z</time>
      </trkpt>
      <trkpt lat="49.94756" lon="2.14296">
        <ele>26</ele>
        <time>2011-06-22T08:31:00.000Z</time>
      </trkpt>
      <trkpt lat="49.94757" lon="2.14297">
        <ele>25</ele>
        <time>2011-06-22T08:31:01.000Z</time>
      </trkpt>
      <trkpt lat="49.9477" lon="2.14305">
        <ele>23</ele>
        <time>2011-06-22T08:31:11.000Z</time>
      </trkpt>
      <trkpt lat="49.94777" lon="2.14311">
        <ele>20</ele>
        <time>2011-06-22T08:31:19.000Z</time>
      </trkpt>
      <trkpt lat="49.94781" lon="2.14316">
        <ele>19</ele>
        <time>2011-06-22T08:31:24.000Z</time>
      </trkpt>
      <trkpt lat="49.94791" lon="2.14328">
        <ele>21</ele>
        <time>2011-06-22T08:31:34.000Z</time>
      </trkpt>
      <trkpt lat="49.94798" lon="2.14333">
        <ele>21</ele>
        <time>2011-06-22T08:31:41.000Z</time>
      </trkpt>
      <trkpt lat="49.94808" lon="2.14336">
        <ele>24</ele>
        <time>2011-06-22T08:31:49.000Z</time>
      </trkpt>
      <trkpt lat="49.94826" lon="2.14353">
        <ele>24</ele>
        <time>2011-06-22T08:32:04.000Z</time>
      </trkpt>
      <trkpt lat="49.94861" lon="2.14385">
        <ele>20</ele>
        <time>2011-06-22T08:32:39.000Z</time>
      </trkpt>
      <trkpt lat="49.94871" lon="2.14393">
        <ele>19</ele>
        <time>2011-06-22T08:32:47.000Z</time>
      </trkpt>
      <trkpt lat="49.94896" lon="2.14423">
        <ele>21</ele>
        <time>2011-06-22T08:33:14.000Z</time>
      </trkpt>
      <trkpt lat="49.94906" lon="2.14437">
        <ele>21</ele>
        <time>2011-06-22T08:33:26.000Z</time>
      </trkpt>
      <trkpt lat="49.9493" lon="2.14454">
        <ele>20</ele>
        <time>2011-06-22T08:33:44.000Z</time>
      </trkpt>
      <trkpt lat="49.94935" lon="2.14459">
        <ele>20</ele>
        <time>2011-06-22T08:33:49.000Z</time>
      </trkpt>
      <trkpt lat="49.94941" lon="2.14467">
        <ele>18</ele>
        <time>2011-06-22T08:33:56.000Z</time>
      </trkpt>
      <trkpt lat="49.94963" lon="2.14486">
        <ele>22</ele>
        <time>2011-06-22T08:34:16.000Z</time>
      </trkpt>
      <trkpt lat="49.94968" lon="2.14489">
        <ele>22</ele>
        <time>2011-06-22T08:34:20.000Z</time>
      </trkpt>
      <trkpt lat="49.94995" lon="2.14512">
        <ele>20</ele>
        <time>2011-06-22T08:34:45.000Z</time>
      </trkpt>
      <trkpt lat="49.95" lon="2.14515">
        <ele>20</ele>
        <time>2011-06-22T08:34:49.000Z</time>
      </trkpt>
      <trkpt lat="49.95005" lon="2.14519">
        <ele>18</ele>
        <time>2011-06-22T08:34:53.000Z</time>
      </trkpt>
      <trkpt lat="49.9501" lon="2.14523">
        <ele>18</ele>
        <time>2011-06-22T08:34:58.000Z</time>
      </trkpt>
      <trkpt lat="49.95049" lon="2.14559">
        <ele>16</ele>
        <time>2011-06-22T08:35:36.000Z</time>
      </trkpt>
      <trkpt lat="49.9505" lon="2.1456">
        <ele>16</ele>
        <time>2011-06-22T08:35:37.000Z</time>
      </trkpt>
      <trkpt lat="49.95056" lon="2.14564">
        <ele>16</ele>
        <time>2011-06-22T08:35:41.000Z</time>
      </trkpt>
      <trkpt lat="49.95098" lon="2.14595">
        <ele>19</ele>
        <time>2011-06-22T08:36:12.000Z</time>
      </trkpt>
      <trkpt lat="49.95098" lon="2.14597">
        <ele>19</ele>
        <time>2011-06-22T08:36:13.000Z</time>
      </trkpt>
      <trkpt lat="49.951" lon="2.14598">
        <ele>19</ele>
        <time>2011-06-22T08:36:15.000Z</time>
      </trkpt>
      <trkpt lat="49.95104" lon="2.14603">
        <ele>19</ele>
        <time>2011-06-22T08:36:20.000Z</time>
      </trkpt>
      <trkpt lat="49.95124" lon="2.14624">
        <ele>19</ele>
        <time>2011-06-22T08:36:41.000Z</time>
      </trkpt>
      <trkpt lat="49.95127" lon="2.14631">
        <ele>19</ele>
        <time>2011-06-22T08:36:47.000Z</time>
      </trkpt>
      <trkpt lat="49.95135" lon="2.14636">
        <ele>18</ele>
        <time>2011-06-22T08:36:53.000Z</time>
      </trkpt>
      <trkpt lat="49.95161" lon="2.1466">
        <ele>18</ele>
        <time>2011-06-22T08:37:17.000Z</time>
      </trkpt>
      <trkpt lat="49.95171" lon="2.14667">
        <ele>19</ele>
        <time>2011-06-22T08:37:25.000Z</time>
      </trkpt>
      <trkpt lat="49.9518" lon="2.14672">
        <ele>19</ele>
        <time>2011-06-22T08:37:32.000Z</time>
      </trkpt>
      <trkpt lat="49.95187" lon="2.14679">
        <ele>19</ele>
        <time>2011-06-22T08:37:38.000Z</time>
      </trkpt>
      <trkpt lat="49.95214" lon="2.14699">
        <ele>21</ele>
        <time>2011-06-22T08:38:06.000Z</time>
      </trkpt>
      <trkpt lat="49.95224" lon="2.14705">
        <ele>19</ele>
        <time>2011-06-22T08:38:15.000Z</time>
      </trkpt>
      <trkpt lat="49.95232" lon="2.14712">
        <ele>18</ele>
        <time>2011-06-22T08:38:22.000Z</time>
      </trkpt>
      <trkpt lat="49.95238" lon="2.14717">
        <ele>18</ele>
        <time>2011-06-22T08:38:27.000Z</time>
      </trkpt>
      <trkpt lat="49.95243" lon="2.14722">
        <ele>20</ele>
        <time>2011-06-22T08:38:31.000Z</time>
      </trkpt>
      <trkpt lat="49.95247" lon="2.14728">
        <ele>21</ele>
        <time>2011-06-22T08:38:36.000Z</time>
      </trkpt>
      <trkpt lat="49.95253" lon="2.14732">
        <ele>21</ele>
        <time>2011-06-22T08:38:41.000Z</time>
      </trkpt>
      <trkpt lat="49.95259" lon="2.14739">
        <ele>22</ele>
        <time>2011-06-22T08:38:47.000Z</time>
      </trkpt>
      <trkpt lat="49.95268" lon="2.14747">
        <ele>21</ele>
        <time>2011-06-22T08:38:56.000Z</time>
      </trkpt>
      <trkpt lat="49.95275" lon="2.14751">
        <ele>19</ele>
        <time>2011-06-22T08:39:02.000Z</time>
      </trkpt>
      <trkpt lat="49.95282" lon="2.14757">
        <ele>18</ele>
        <time>2011-06-22T08:39:09.000Z</time>
      </trkpt>
      <trkpt lat="49.95289" lon="2.14765">
        <ele>19</ele>
        <time>2011-06-22T08:39:17.000Z</time>
      </trkpt>
      <trkpt lat="49.95309" lon="2.14779">
        <ele>17</ele>
        <time>2011-06-22T08:39:39.000Z</time>
      </trkpt>
      <trkpt lat="49.95323" lon="2.14777">
        <ele>18</ele>
        <time>2011-06-22T08:39:54.000Z</time>
      </trkpt>
      <trkpt lat="49.95332" lon="2.14781">
        <ele>24</ele>
        <time>2011-06-22T08:40:03.000Z</time>
      </trkpt>
      <trkpt lat="49.95336" lon="2.1478">
        <ele>29</ele>
        <time>2011-06-22T08:40:23.000Z</time>
      </trkpt>
      <trkpt lat="49.95341" lon="2.14775">
        <ele>35</ele>
        <time>2011-06-22T08:40:32.000Z</time>
      </trkpt>
      <trkpt lat="49.95361" lon="2.14759">
        <ele>27</ele>
        <time>2011-06-22T08:40:50.000Z</time>
      </trkpt>
      <trkpt lat="49.95369" lon="2.14756">
        <ele>24</ele>
        <time>2011-06-22T08:40:58.000Z</time>
      </trkpt>
      <trkpt lat="49.95374" lon="2.14757">
        <ele>23</ele>
        <time>2011-06-22T08:41:02.000Z</time>
      </trkpt>
      <trkpt lat="49.95378" lon="2.14754">
        <ele>23</ele>
        <time>2011-06-22T08:41:07.000Z</time>
      </trkpt>
      <trkpt lat="49.95382" lon="2.14749">
        <ele>25</ele>
        <time>2011-06-22T08:41:19.000Z</time>
      </trkpt>
      <trkpt lat="49.95389" lon="2.1474">
        <ele>25</ele>
        <time>2011-06-22T08:41:31.000Z</time>
      </trkpt>
      <trkpt lat="49.95402" lon="2.14733">
        <ele>23</ele>
        <time>2011-06-22T08:41:44.000Z</time>
      </trkpt>
      <trkpt lat="49.9542" lon="2.14753">
        <ele>24</ele>
        <time>2011-06-22T08:42:01.000Z</time>
      </trkpt>
      <trkpt lat="49.95452" lon="2.14805">
        <ele>20</ele>
        <time>2011-06-22T08:42:42.000Z</time>
      </trkpt>
      <trkpt lat="49.95452" lon="2.14806">
        <ele>20</ele>
        <time>2011-06-22T08:42:43.000Z</time>
      </trkpt>
      <trkpt lat="49.95461" lon="2.14816">
        <ele>19</ele>
        <time>2011-06-22T08:42:52.000Z</time>
      </trkpt>
      <trkpt lat="49.95475" lon="2.1484">
        <ele>20</ele>
        <time>2011-06-22T08:43:13.000Z</time>
      </trkpt>
      <trkpt lat="49.95485" lon="2.14857">
        <ele>29</ele>
        <time>2011-06-22T08:43:36.000Z</time>
      </trkpt>
      <trkpt lat="49.95489" lon="2.1485">
        <ele>31</ele>
        <time>2011-06-22T08:43:42.000Z</time>
      </trkpt>
      <trkpt lat="49.95494" lon="2.1484">
        <ele>31</ele>
        <time>2011-06-22T08:43:51.000Z</time>
      </trkpt>
      <trkpt lat="49.95511" lon="2.14811">
        <ele>35</ele>
        <time>2011-06-22T08:44:14.000Z</time>
      </trkpt>
      <trkpt lat="49.95517" lon="2.14801">
        <ele>37</ele>
        <time>2011-06-22T08:44:22.000Z</time>
      </trkpt>
      <trkpt lat="49.95524" lon="2.14794">
        <ele>35</ele>
        <time>2011-06-22T08:44:42.000Z</time>
      </trkpt>
      <trkpt lat="49.9553" lon="2.14785">
        <ele>34</ele>
        <time>2011-06-22T08:44:51.000Z</time>
      </trkpt>
      <trkpt lat="49.95534" lon="2.14779">
        <ele>34</ele>
        <time>2011-06-22T08:44:57.000Z</time>
      </trkpt>
      <trkpt lat="49.95549" lon="2.14756">
        <ele>32</ele>
        <time>2011-06-22T08:45:17.000Z</time>
      </trkpt>
      <trkpt lat="49.95554" lon="2.14745">
        <ele>33</ele>
        <time>2011-06-22T08:45:26.000Z</time>
      </trkpt>
      <trkpt lat="49.95556" lon="2.14738">
        <ele>33</ele>
        <time>2011-06-22T08:45:33.000Z</time>
      </trkpt>
      <trkpt lat="49.95559" lon="2.14729">
        <ele>31</ele>
        <time>2011-06-22T08:45:43.000Z</time>
      </trkpt>
      <trkpt lat="49.95564" lon="2.14719">
        <ele>31</ele>
        <time>2011-06-22T08:45:50.000Z</time>
      </trkpt>
      <trkpt lat="49.95574" lon="2.14695">
        <ele>34</ele>
        <time>2011-06-22T08:46:05.000Z</time>
      </trkpt>
      <trkpt lat="49.95583" lon="2.14675">
        <ele>33</ele>
        <time>2011-06-22T08:46:20.000Z</time>
      </trkpt>
      <trkpt lat="49.95614" lon="2.14623">
        <ele>27</ele>
        <time>2011-06-22T08:47:00.000Z</time>
      </trkpt>
      <trkpt lat="49.95615" lon="2.14622">
        <ele>27</ele>
        <time>2011-06-22T08:47:01.000Z</time>
      </trkpt>
      <trkpt lat="49.95618" lon="2.14619">
        <ele>26</ele>
        <time>2011-06-22T08:47:04.000Z</time>
      </trkpt>
      <trkpt lat="49.95623" lon="2.14613">
        <ele>23</ele>
        <time>2011-06-22T08:47:09.000Z</time>
      </trkpt>
      <trkpt lat="49.95636" lon="2.14592">
        <ele>23</ele>
        <time>2011-06-22T08:47:27.000Z</time>
      </trkpt>
      <trkpt lat="49.9564" lon="2.14586">
        <ele>25</ele>
        <time>2011-06-22T08:47:32.000Z</time>
      </trkpt>
      <trkpt lat="49.95643" lon="2.1458">
        <ele>27</ele>
        <time>2011-06-22T08:47:37.000Z</time>
      </trkpt>
      <trkpt lat="49.95651" lon="2.14564">
        <ele>27</ele>
        <time>2011-06-22T08:47:48.000Z</time>
      </trkpt>
      <trkpt lat="49.95655" lon="2.14558">
        <ele>28</ele>
        <time>2011-06-22T08:47:53.000Z</time>
      </trkpt>
      <trkpt lat="49.95659" lon="2.14553">
        <ele>29</ele>
        <time>2011-06-22T08:47:58.000Z</time>
      </trkpt>
      <trkpt lat="49.95665" lon="2.14548">
        <ele>28</ele>
        <time>2011-06-22T08:48:21.000Z</time>
      </trkpt>
      <trkpt lat="49.95675" lon="2.1453">
        <ele>34</ele>
        <time>2011-06-22T08:48:37.000Z</time>
      </trkpt>
      <trkpt lat="49.95679" lon="2.14518">
        <ele>39</ele>
        <time>2011-06-22T08:48:58.000Z</time>
      </trkpt>
      <trkpt lat="49.95688" lon="2.14502">
        <ele>34</ele>
        <time>2011-06-22T08:49:11.000Z</time>
      </trkpt>
      <trkpt lat="49.95691" lon="2.14496">
        <ele>29</ele>
        <time>2011-06-22T08:49:20.000Z</time>
      </trkpt>
      <trkpt lat="49.95699" lon="2.14484">
        <ele>27</ele>
        <time>2011-06-22T08:49:29.000Z</time>
      </trkpt>
      <trkpt lat="49.9571" lon="2.14467">
        <ele>27</ele>
        <time>2011-06-22T08:49:43.000Z</time>
      </trkpt>
      <trkpt lat="49.95717" lon="2.14454">
        <ele>29</ele>
        <time>2011-06-22T08:49:53.000Z</time>
      </trkpt>
      <trkpt lat="49.9572" lon="2.14448">
        <ele>30</ele>
        <time>2011-06-22T08:49:57.000Z</time>
      </trkpt>
      <trkpt lat="49.95729" lon="2.14434">
        <ele>34</ele>
        <time>2011-06-22T08:50:07.000Z</time>
      </trkpt>
      <trkpt lat="49.95753" lon="2.14404">
        <ele>32</ele>
        <time>2011-06-22T08:50:32.000Z</time>
      </trkpt>
      <trkpt lat="49.95757" lon="2.14397">
        <ele>33</ele>
        <time>2011-06-22T08:50:37.000Z</time>
      </trkpt>
      <trkpt lat="49.95761" lon="2.14387">
        <ele>35</ele>
        <time>2011-06-22T08:50:44.000Z</time>
      </trkpt>
      <trkpt lat="49.95765" lon="2.14381">
        <ele>35</ele>
        <time>2011-06-22T08:50:48.000Z</time>
      </trkpt>
      <trkpt lat="49.95781" lon="2.14352">
        <ele>33</ele>
        <time>2011-06-22T08:51:09.000Z</time>
      </trkpt>
      <trkpt lat="49.95784" lon="2.14344">
        <ele>35</ele>
        <time>2011-06-22T08:51:15.000Z</time>
      </trkpt>
      <trkpt lat="49.95794" lon="2.14325">
        <ele>35</ele>
        <time>2011-06-22T08:51:29.000Z</time>
      </trkpt>
      <trkpt lat="49.95821" lon="2.14273">
        <ele>29</ele>
        <time>2011-06-22T08:52:00.000Z</time>
      </trkpt>
      <trkpt lat="49.95849" lon="2.14217">
        <ele>30</ele>
        <time>2011-06-22T08:52:39.000Z</time>
      </trkpt>
      <trkpt lat="49.9585" lon="2.14215">
        <ele>30</ele>
        <time>2011-06-22T08:52:40.000Z</time>
      </trkpt>
      <trkpt lat="49.95878" lon="2.1416">
        <ele>32</ele>
        <time>2011-06-22T08:53:12.000Z</time>
      </trkpt>
      <trkpt lat="49.95879" lon="2.14159">
        <ele>32</ele>
        <time>2011-06-22T08:53:13.000Z</time>
      </trkpt>
      <trkpt lat="49.95892" lon="2.14133">
        <ele>33</ele>
        <time>2011-06-22T08:53:30.000Z</time>
      </trkpt>
      <trkpt lat="49.95895" lon="2.14127">
        <ele>32</ele>
        <time>2011-06-22T08:53:34.000Z</time>
      </trkpt>
      <trkpt lat="49.95903" lon="2.14119">
        <ele>32</ele>
        <time>2011-06-22T08:53:43.000Z</time>
      </trkpt>
      <trkpt lat="49.95905" lon="2.14112">
        <ele>33</ele>
        <time>2011-06-22T08:53:47.000Z</time>
      </trkpt>
      <trkpt lat="49.95908" lon="2.14106">
        <ele>33</ele>
        <time>2011-06-22T08:53:51.000Z</time>
      </trkpt>
      <trkpt lat="49.95912" lon="2.14097">
        <ele>33</ele>
        <time>2011-06-22T08:53:57.000Z</time>
      </trkpt>
      <trkpt lat="49.95924" lon="2.14075">
        <ele>32</ele>
        <time>2011-06-22T08:54:13.000Z</time>
      </trkpt>
      <trkpt lat="49.95927" lon="2.14069">
        <ele>32</ele>
        <time>2011-06-22T08:54:17.000Z</time>
      </trkpt>
      <trkpt lat="49.95936" lon="2.14054">
        <ele>31</ele>
        <time>2011-06-22T08:54:27.000Z</time>
      </trkpt>
      <trkpt lat="49.95967" lon="2.14002">
        <ele>33</ele>
        <time>2011-06-22T08:55:05.000Z</time>
      </trkpt>
      <trkpt lat="49.95967" lon="2.14001">
        <ele>33</ele>
        <time>2011-06-22T08:55:06.000Z</time>
      </trkpt>
      <trkpt lat="49.9599" lon="2.13975">
        <ele>31</ele>
        <time>2011-06-22T08:55:28.000Z</time>
      </trkpt>
      <trkpt lat="49.96022" lon="2.13948">
        <ele>28</ele>
        <time>2011-06-22T08:56:28.000Z</time>
      </trkpt>
      <trkpt lat="49.96043" lon="2.13925">
        <ele>32</ele>
        <time>2011-06-22T08:56:48.000Z</time>
      </trkpt>
      <trkpt lat="49.96082" lon="2.13888">
        <ele>31</ele>
        <time>2011-06-22T08:57:25.000Z</time>
      </trkpt>
      <trkpt lat="49.96083" lon="2.13887">
        <ele>31</ele>
        <time>2011-06-22T08:57:26.000Z</time>
      </trkpt>
      <trkpt lat="49.96087" lon="2.13883">
        <ele>32</ele>
        <time>2011-06-22T08:57:30.000Z</time>
      </trkpt>
      <trkpt lat="49.96124" lon="2.13841">
        <ele>33</ele>
        <time>2011-06-22T08:58:08.000Z</time>
      </trkpt>
      <trkpt lat="49.96125" lon="2.1384">
        <ele>32</ele>
        <time>2011-06-22T08:58:09.000Z</time>
      </trkpt>
      <trkpt lat="49.96144" lon="2.13816">
        <ele>30</ele>
        <time>2011-06-22T08:58:29.000Z</time>
      </trkpt>
      <trkpt lat="49.96172" lon="2.13785">
        <ele>31</ele>
        <time>2011-06-22T08:58:58.000Z</time>
      </trkpt>
      <trkpt lat="49.96193" lon="2.13761">
        <ele>38</ele>
        <time>2011-06-22T08:59:21.000Z</time>
      </trkpt>
      <trkpt lat="49.96197" lon="2.13755">
        <ele>38</ele>
        <time>2011-06-22T08:59:26.000Z</time>
      </trkpt>
      <trkpt lat="49.96202" lon="2.13749">
        <ele>37</ele>
        <time>2011-06-22T08:59:30.000Z</time>
      </trkpt>
      <trkpt lat="49.96209" lon="2.13742">
        <ele>34</ele>
        <time>2011-06-22T08:59:36.000Z</time>
      </trkpt>
      <trkpt lat="49.96235" lon="2.13715">
        <ele>25</ele>
        <time>2011-06-22T08:59:59.000Z</time>
      </trkpt>
      <trkpt lat="49.96239" lon="2.13709">
        <ele>24</ele>
        <time>2011-06-22T09:00:04.000Z</time>
      </trkpt>
      <trkpt lat="49.96245" lon="2.13701">
        <ele>22</ele>
        <time>2011-06-22T09:00:11.000Z</time>
      </trkpt>
      <trkpt lat="49.96254" lon="2.13691">
        <ele>21</ele>
        <time>2011-06-22T09:00:21.000Z</time>
      </trkpt>
      <trkpt lat="49.96279" lon="2.13665">
        <ele>20</ele>
        <time>2011-06-22T09:00:45.000Z</time>
      </trkpt>
      <trkpt lat="49.96294" lon="2.13652">
        <ele>20</ele>
        <time>2011-06-22T09:00:59.000Z</time>
      </trkpt>
      <trkpt lat="49.96302" lon="2.13645">
        <ele>19</ele>
        <time>2011-06-22T09:01:07.000Z</time>
      </trkpt>
      <trkpt lat="49.96319" lon="2.13631">
        <ele>23</ele>
        <time>2011-06-22T09:01:45.000Z</time>
      </trkpt>
      <trkpt lat="49.96326" lon="2.13624">
        <ele>22</ele>
        <time>2011-06-22T09:01:59.000Z</time>
      </trkpt>
      <trkpt lat="49.96341" lon="2.13611">
        <ele>21</ele>
        <time>2011-06-22T09:02:15.000Z</time>
      </trkpt>
      <trkpt lat="49.96348" lon="2.13606">
        <ele>21</ele>
        <time>2011-06-22T09:02:21.000Z</time>
      </trkpt>
      <trkpt lat="49.96353" lon="2.13601">
        <ele>21</ele>
        <time>2011-06-22T09:02:26.000Z</time>
      </trkpt>
      <trkpt lat="49.96373" lon="2.13585">
        <ele>21</ele>
        <time>2011-06-22T09:02:47.000Z</time>
      </trkpt>
      <trkpt lat="49.96393" lon="2.13572">
        <ele>23</ele>
        <time>2011-06-22T09:03:07.000Z</time>
      </trkpt>
      <trkpt lat="49.96433" lon="2.13538">
        <ele>32</ele>
        <time>2011-06-22T09:03:50.000Z</time>
      </trkpt>
      <trkpt lat="49.96434" lon="2.13538">
        <ele>33</ele>
        <time>2011-06-22T09:03:51.000Z</time>
      </trkpt>
      <trkpt lat="49.9644" lon="2.13532">
        <ele>33</ele>
        <time>2011-06-22T09:03:59.000Z</time>
      </trkpt>
      <trkpt lat="49.9647" lon="2.13512">
        <ele>35</ele>
        <time>2011-06-22T09:04:34.000Z</time>
      </trkpt>
      <trkpt lat="49.96513" lon="2.13488">
        <ele>35</ele>
        <time>2011-06-22T09:05:24.000Z</time>
      </trkpt>
      <trkpt lat="49.96514" lon="2.13488">
        <ele>35</ele>
        <time>2011-06-22T09:05:25.000Z</time>
      </trkpt>
      <trkpt lat="49.9652" lon="2.13483">
        <ele>33</ele>
        <time>2011-06-22T09:05:32.000Z</time>
      </trkpt>
      <trkpt lat="49.96536" lon="2.1347">
        <ele>38</ele>
        <time>2011-06-22T09:05:49.000Z</time>
      </trkpt>
      <trkpt lat="49.96545" lon="2.13475">
        <ele>40</ele>
        <time>2011-06-22T09:05:57.000Z</time>
      </trkpt>
      <trkpt lat="49.96577" lon="2.13504">
        <ele>51</ele>
        <time>2011-06-22T09:06:28.000Z</time>
      </trkpt>
      <trkpt lat="49.96582" lon="2.13508">
        <ele>51</ele>
        <time>2011-06-22T09:06:34.000Z</time>
      </trkpt>
      <trkpt lat="49.9662" lon="2.1354">
        <ele>59</ele>
        <time>2011-06-22T09:07:19.000Z</time>
      </trkpt>
      <trkpt lat="49.96637" lon="2.13547">
        <ele>62</ele>
        <time>2011-06-22T09:07:35.000Z</time>
      </trkpt>
      <trkpt lat="49.96655" lon="2.1355">
        <ele>59</ele>
        <time>2011-06-22T09:07:54.000Z</time>
      </trkpt>
      <trkpt lat="49.96663" lon="2.13549">
        <ele>60</ele>
        <time>2011-06-22T09:08:02.000Z</time>
      </trkpt>
      <trkpt lat="49.96671" lon="2.1355">
        <ele>57</ele>
        <time>2011-06-22T09:08:09.000Z</time>
      </trkpt>
      <trkpt lat="49.96679" lon="2.13552">
        <ele>54</ele>
        <time>2011-06-22T09:08:15.000Z</time>
      </trkpt>
      <trkpt lat="49.96694" lon="2.13561">
        <ele>53</ele>
        <time>2011-06-22T09:08:27.000Z</time>
      </trkpt>
      <trkpt lat="49.96712" lon="2.13584">
        <ele>50</ele>
        <time>2011-06-22T09:08:48.000Z</time>
      </trkpt>
      <trkpt lat="49.96751" lon="2.13608">
        <ele>53</ele>
        <time>2011-06-22T09:09:21.000Z</time>
      </trkpt>
      <trkpt lat="49.96768" lon="2.1362">
        <ele>52</ele>
        <time>2011-06-22T09:09:39.000Z</time>
      </trkpt>
      <trkpt lat="49.96791" lon="2.13632">
        <ele>55</ele>
        <time>2011-06-22T09:10:02.000Z</time>
      </trkpt>
      <trkpt lat="49.96822" lon="2.13642">
        <ele>62</ele>
        <time>2011-06-22T09:10:26.000Z</time>
      </trkpt>
      <trkpt lat="49.9683" lon="2.13641">
        <ele>63</ele>
        <time>2011-06-22T09:10:33.000Z</time>
      </trkpt>
      <trkpt lat="49.96844" lon="2.13628">
        <ele>58</ele>
        <time>2011-06-22T09:10:48.000Z</time>
      </trkpt>
      <trkpt lat="49.96856" lon="2.13617">
        <ele>59</ele>
        <time>2011-06-22T09:10:59.000Z</time>
      </trkpt>
      <trkpt lat="49.9687" lon="2.136">
        <ele>57</ele>
        <time>2011-06-22T09:11:14.000Z</time>
      </trkpt>
      <trkpt lat="49.96878" lon="2.13593">
        <ele>54</ele>
        <time>2011-06-22T09:11:32.000Z</time>
      </trkpt>
      <trkpt lat="49.96886" lon="2.13583">
        <ele>52</ele>
        <time>2011-06-22T09:11:43.000Z</time>
      </trkpt>
      <trkpt lat="49.96894" lon="2.13575">
        <ele>51</ele>
        <time>2011-06-22T09:11:52.000Z</time>
      </trkpt>
      <trkpt lat="49.96898" lon="2.1357">
        <ele>51</ele>
        <time>2011-06-22T09:11:56.000Z</time>
      </trkpt>
      <trkpt lat="49.96914" lon="2.13556">
        <ele>52</ele>
        <time>2011-06-22T09:12:11.000Z</time>
      </trkpt>
      <trkpt lat="49.96922" lon="2.13551">
        <ele>53</ele>
        <time>2011-06-22T09:12:18.000Z</time>
      </trkpt>
      <trkpt lat="49.96934" lon="2.13538">
        <ele>54</ele>
        <time>2011-06-22T09:12:30.000Z</time>
      </trkpt>
      <trkpt lat="49.96951" lon="2.13526">
        <ele>55</ele>
        <time>2011-06-22T09:12:45.000Z</time>
      </trkpt>
      <trkpt lat="49.96956" lon="2.13521">
        <ele>58</ele>
        <time>2011-06-22T09:12:50.000Z</time>
      </trkpt>
      <trkpt lat="49.9697" lon="2.13505">
        <ele>61</ele>
        <time>2011-06-22T09:13:04.000Z</time>
      </trkpt>
      <trkpt lat="49.96976" lon="2.13496">
        <ele>61</ele>
        <time>2011-06-22T09:13:13.000Z</time>
      </trkpt>
      <trkpt lat="49.97008" lon="2.13467">
        <ele>58</ele>
        <time>2011-06-22T09:13:44.000Z</time>
      </trkpt>
      <trkpt lat="49.97015" lon="2.13461">
        <ele>57</ele>
        <time>2011-06-22T09:13:51.000Z</time>
      </trkpt>
      <trkpt lat="49.97028" lon="2.1345">
        <ele>58</ele>
        <time>2011-06-22T09:14:03.000Z</time>
      </trkpt>
      <trkpt lat="49.9705" lon="2.13434">
        <ele>56</ele>
        <time>2011-06-22T09:14:25.000Z</time>
      </trkpt>
      <trkpt lat="49.9706" lon="2.13429">
        <ele>57</ele>
        <time>2011-06-22T09:14:34.000Z</time>
      </trkpt>
      <trkpt lat="49.97069" lon="2.13426">
        <ele>56</ele>
        <time>2011-06-22T09:14:42.000Z</time>
      </trkpt>
      <trkpt lat="49.97076" lon="2.13429">
        <ele>54</ele>
        <time>2011-06-22T09:14:50.000Z</time>
      </trkpt>
      <trkpt lat="49.97075" lon="2.13433">
        <ele>46</ele>
        <time>2011-06-22T09:15:12.000Z</time>
      </trkpt>
      <trkpt lat="49.97076" lon="2.13432">
        <ele>46</ele>
        <time>2011-06-22T09:15:32.000Z</time>
      </trkpt>
      <trkpt lat="49.97085" lon="2.13426">
        <ele>49</ele>
        <time>2011-06-22T09:15:38.000Z</time>
      </trkpt>
      <trkpt lat="49.97106" lon="2.13423">
        <ele>54</ele>
        <time>2011-06-22T09:15:53.000Z</time>
      </trkpt>
      <trkpt lat="49.97132" lon="2.13426">
        <ele>55</ele>
        <time>2011-06-22T09:16:15.000Z</time>
      </trkpt>
      <trkpt lat="49.97177" lon="2.13428">
        <ele>54</ele>
        <time>2011-06-22T09:16:52.000Z</time>
      </trkpt>
      <trkpt lat="49.97179" lon="2.13428">
        <ele>54</ele>
        <time>2011-06-22T09:16:53.000Z</time>
      </trkpt>
      <trkpt lat="49.97197" lon="2.13432">
        <ele>52</ele>
        <time>2011-06-22T09:17:09.000Z</time>
      </trkpt>
      <trkpt lat="49.97242" lon="2.13442">
        <ele>55</ele>
        <time>2011-06-22T09:17:45.000Z</time>
      </trkpt>
      <trkpt lat="49.97243" lon="2.13443">
        <ele>54</ele>
        <time>2011-06-22T09:17:46.000Z</time>
      </trkpt>
      <trkpt lat="49.97289" lon="2.13453">
        <ele>52</ele>
        <time>2011-06-22T09:18:23.000Z</time>
      </trkpt>
      <trkpt lat="49.9729" lon="2.13453">
        <ele>52</ele>
        <time>2011-06-22T09:18:24.000Z</time>
      </trkpt>
      <trkpt lat="49.97335" lon="2.1346">
        <ele>58</ele>
        <time>2011-06-22T09:19:18.000Z</time>
      </trkpt>
      <trkpt lat="49.97336" lon="2.1346">
        <ele>58</ele>
        <time>2011-06-22T09:19:19.000Z</time>
      </trkpt>
      <trkpt lat="49.97365" lon="2.13461">
        <ele>57</ele>
        <time>2011-06-22T09:19:53.000Z</time>
      </trkpt>
      <trkpt lat="49.9741" lon="2.13457">
        <ele>61</ele>
        <time>2011-06-22T09:21:13.000Z</time>
      </trkpt>
      <trkpt lat="49.97411" lon="2.13457">
        <ele>61</ele>
        <time>2011-06-22T09:21:14.000Z</time>
      </trkpt>
      <trkpt lat="49.97425" lon="2.13452">
        <ele>60</ele>
        <time>2011-06-22T09:21:27.000Z</time>
      </trkpt>
      <trkpt lat="49.9743" lon="2.1345">
        <ele>62</ele>
        <time>2011-06-22T09:21:35.000Z</time>
      </trkpt>
      <trkpt lat="49.97435" lon="2.13449">
        <ele>63</ele>
        <time>2011-06-22T09:21:41.000Z</time>
      </trkpt>
      <trkpt lat="49.97441" lon="2.13447">
        <ele>63</ele>
        <time>2011-06-22T09:21:50.000Z</time>
      </trkpt>
      <trkpt lat="49.97486" lon="2.13439">
        <ele>58</ele>
        <time>2011-06-22T09:22:34.000Z</time>
      </trkpt>
      <trkpt lat="49.97487" lon="2.13439">
        <ele>58</ele>
        <time>2011-06-22T09:22:35.000Z</time>
      </trkpt>
      <trkpt lat="49.97495" lon="2.13436">
        <ele>59</ele>
        <time>2011-06-22T09:22:43.000Z</time>
      </trkpt>
      <trkpt lat="49.97513" lon="2.13428">
        <ele>59</ele>
        <time>2011-06-22T09:22:59.000Z</time>
      </trkpt>
      <trkpt lat="49.97558" lon="2.13416">
        <ele>65</ele>
        <time>2011-06-22T09:23:36.000Z</time>
      </trkpt>
      <trkpt lat="49.97559" lon="2.13416">
        <ele>65</ele>
        <time>2011-06-22T09:23:37.000Z</time>
      </trkpt>
      <trkpt lat="49.97562" lon="2.13416">
        <ele>65</ele>
        <time>2011-06-22T09:23:40.000Z</time>
      </trkpt>
      <trkpt lat="49.97586" lon="2.13417">
        <ele>64</ele>
        <time>2011-06-22T09:24:01.000Z</time>
      </trkpt>
      <trkpt lat="49.97596" lon="2.1342">
        <ele>63</ele>
        <time>2011-06-22T09:24:10.000Z</time>
      </trkpt>
      <trkpt lat="49.97641" lon="2.13433">
        <ele>58</ele>
        <time>2011-06-22T09:24:51.000Z</time>
      </trkpt>
      <trkpt lat="49.97642" lon="2.13433">
        <ele>58</ele>
        <time>2011-06-22T09:24:52.000Z</time>
      </trkpt>
      <trkpt lat="49.97649" lon="2.13434">
        <ele>59</ele>
        <time>2011-06-22T09:24:58.000Z</time>
      </trkpt>
      <trkpt lat="49.97694" lon="2.13431">
        <ele>64</ele>
        <time>2011-06-22T09:25:33.000Z</time>
      </trkpt>
      <trkpt lat="49.97695" lon="2.13431">
        <ele>64</ele>
        <time>2011-06-22T09:25:34.000Z</time>
      </trkpt>
      <trkpt lat="49.97715" lon="2.13427">
        <ele>66</ele>
        <time>2011-06-22T09:25:50.000Z</time>
      </trkpt>
      <trkpt lat="49.97761" lon="2.13423">
        <ele>69</ele>
        <time>2011-06-22T09:26:27.000Z</time>
      </trkpt>
      <trkpt lat="49.97763" lon="2.13423">
        <ele>69</ele>
        <time>2011-06-22T09:26:28.000Z</time>
      </trkpt>
      <trkpt lat="49.97781" lon="2.13424">
        <ele>71</ele>
        <time>2011-06-22T09:26:46.000Z</time>
      </trkpt>
      <trkpt lat="49.97827" lon="2.13419">
        <ele>72</ele>
        <time>2011-06-22T09:27:26.000Z</time>
      </trkpt>
      <trkpt lat="49.97828" lon="2.13419">
        <ele>72</ele>
        <time>2011-06-22T09:27:27.000Z</time>
      </trkpt>
      <trkpt lat="49.97833" lon="2.13418">
        <ele>72</ele>
        <time>2011-06-22T09:27:32.000Z</time>
      </trkpt>
      <trkpt lat="49.97838" lon="2.13415">
        <ele>72</ele>
        <time>2011-06-22T09:27:42.000Z</time>
      </trkpt>
      <trkpt lat="49.97846" lon="2.13411">
        <ele>73</ele>
        <time>2011-06-22T09:27:53.000Z</time>
      </trkpt>
      <trkpt lat="49.97855" lon="2.1341">
        <ele>72</ele>
        <time>2011-06-22T09:28:05.000Z</time>
      </trkpt>
      <trkpt lat="49.9786" lon="2.13409">
        <ele>72</ele>
        <time>2011-06-22T09:28:28.000Z</time>
      </trkpt>
      <trkpt lat="49.97868" lon="2.13407">
        <ele>71</ele>
        <time>2011-06-22T09:28:36.000Z</time>
      </trkpt>
      <trkpt lat="49.97891" lon="2.13405">
        <ele>71</ele>
        <time>2011-06-22T09:28:56.000Z</time>
      </trkpt>
      <trkpt lat="49.97937" lon="2.13402">
        <ele>76</ele>
        <time>2011-06-22T09:29:39.000Z</time>
      </trkpt>
      <trkpt lat="49.97937" lon="2.13402">
        <ele>76</ele>
        <time>2011-06-22T09:29:40.000Z</time>
      </trkpt>
      <trkpt lat="49.97951" lon="2.13403">
        <ele>78</ele>
        <time>2011-06-22T09:30:06.000Z</time>
      </trkpt>
      <trkpt lat="49.97946" lon="2.13399">
        <ele>77</ele>
        <time>2011-06-22T09:30:12.000Z</time>
      </trkpt>
      <trkpt lat="49.97948" lon="2.13396">
        <ele>75</ele>
        <time>2011-06-22T09:30:30.000Z</time>
      </trkpt>
      <trkpt lat="49.97953" lon="2.13398">
        <ele>75</ele>
        <time>2011-06-22T09:30:37.000Z</time>
      </trkpt>
      <trkpt lat="49.97962" lon="2.13399">
        <ele>76</ele>
        <time>2011-06-22T09:30:45.000Z</time>
      </trkpt>
      <trkpt lat="49.97998" lon="2.13401">
        <ele>73</ele>
        <time>2011-06-22T09:31:17.000Z</time>
      </trkpt>
      <trkpt lat="49.98043" lon="2.13402">
        <ele>72</ele>
        <time>2011-06-22T09:31:55.000Z</time>
      </trkpt>
      <trkpt lat="49.98045" lon="2.13402">
        <ele>72</ele>
        <time>2011-06-22T09:31:56.000Z</time>
      </trkpt>
      <trkpt lat="49.98049" lon="2.134">
        <ele>73</ele>
        <time>2011-06-22T09:32:00.000Z</time>
      </trkpt>
      <trkpt lat="49.98053" lon="2.134">
        <ele>75</ele>
        <time>2011-06-22T09:32:13.000Z</time>
      </trkpt>
      <trkpt lat="49.9809" lon="2.13401">
        <ele>74</ele>
        <time>2011-06-22T09:32:41.000Z</time>
      </trkpt>
      <trkpt lat="49.98137" lon="2.13394">
        <ele>75</ele>
        <time>2011-06-22T09:33:17.000Z</time>
      </trkpt>
      <trkpt lat="49.98138" lon="2.13393">
        <ele>75</ele>
        <time>2011-06-22T09:33:18.000Z</time>
      </trkpt>
      <trkpt lat="49.98183" lon="2.13391">
        <ele>75</ele>
        <time>2011-06-22T09:33:53.000Z</time>
      </trkpt>
      <trkpt lat="49.98184" lon="2.13391">
        <ele>75</ele>
        <time>2011-06-22T09:33:54.000Z</time>
      </trkpt>
      <trkpt lat="49.9823" lon="2.13386">
        <ele>75</ele>
        <time>2011-06-22T09:34:32.000Z</time>
      </trkpt>
      <trkpt lat="49.98231" lon="2.13386">
        <ele>76</ele>
        <time>2011-06-22T09:34:33.000Z</time>
      </trkpt>
      <trkpt lat="49.98277" lon="2.13379">
        <ele>78</ele>
        <time>2011-06-22T09:35:09.000Z</time>
      </trkpt>
      <trkpt lat="49.98278" lon="2.13378">
        <ele>78</ele>
        <time>2011-06-22T09:35:10.000Z</time>
      </trkpt>
      <trkpt lat="49.98323" lon="2.13368">
        <ele>82</ele>
        <time>2011-06-22T09:35:47.000Z</time>
      </trkpt>
      <trkpt lat="49.98324" lon="2.13368">
        <ele>83</ele>
        <time>2011-06-22T09:35:48.000Z</time>
      </trkpt>
      <trkpt lat="49.98335" lon="2.13364">
        <ele>83</ele>
        <time>2011-06-22T09:35:58.000Z</time>
      </trkpt>
      <trkpt lat="49.98344" lon="2.1336">
        <ele>82</ele>
        <time>2011-06-22T09:36:05.000Z</time>
      </trkpt>
      <trkpt lat="49.98379" lon="2.1334">
        <ele>78</ele>
        <time>2011-06-22T09:36:35.000Z</time>
      </trkpt>
      <trkpt lat="49.98419" lon="2.13306">
        <ele>79</ele>
        <time>2011-06-22T09:37:13.000Z</time>
      </trkpt>
      <trkpt lat="49.9842" lon="2.13305">
        <ele>79</ele>
        <time>2011-06-22T09:37:14.000Z</time>
      </trkpt>
      <trkpt lat="49.98421" lon="2.13303">
        <ele>79</ele>
        <time>2011-06-22T09:37:16.000Z</time>
      </trkpt>
      <trkpt lat="49.98462" lon="2.1327">
        <ele>81</ele>
        <time>2011-06-22T09:37:55.000Z</time>
      </trkpt>
      <trkpt lat="49.98463" lon="2.1327">
        <ele>81</ele>
        <time>2011-06-22T09:37:56.000Z</time>
      </trkpt>
      <trkpt lat="49.9848" lon="2.13256">
        <ele>82</ele>
        <time>2011-06-22T09:38:14.000Z</time>
      </trkpt>
      <trkpt lat="49.98515" lon="2.13211">
        <ele>85</ele>
        <time>2011-06-22T09:38:54.000Z</time>
      </trkpt>
      <trkpt lat="49.98516" lon="2.1321">
        <ele>85</ele>
        <time>2011-06-22T09:38:55.000Z</time>
      </trkpt>
      <trkpt lat="49.98552" lon="2.13164">
        <ele>89</ele>
        <time>2011-06-22T09:39:35.000Z</time>
      </trkpt>
      <trkpt lat="49.98552" lon="2.13163">
        <ele>89</ele>
        <time>2011-06-22T09:39:36.000Z</time>
      </trkpt>
      <trkpt lat="49.98586" lon="2.13115">
        <ele>91</ele>
        <time>2011-06-22T09:40:18.000Z</time>
      </trkpt>
      <trkpt lat="49.98586" lon="2.13114">
        <ele>90</ele>
        <time>2011-06-22T09:40:19.000Z</time>
      </trkpt>
      <trkpt lat="49.98588" lon="2.1311">
        <ele>90</ele>
        <time>2011-06-22T09:40:22.000Z</time>
      </trkpt>
      <trkpt lat="49.98595" lon="2.13099">
        <ele>90</ele>
        <time>2011-06-22T09:40:31.000Z</time>
      </trkpt>
      <trkpt lat="49.98601" lon="2.13089">
        <ele>91</ele>
        <time>2011-06-22T09:40:39.000Z</time>
      </trkpt>
      <trkpt lat="49.98616" lon="2.13058">
        <ele>90</ele>
        <time>2011-06-22T09:41:02.000Z</time>
      </trkpt>
      <trkpt lat="49.98629" lon="2.13038">
        <ele>90</ele>
        <time>2011-06-22T09:41:20.000Z</time>
      </trkpt>
      <trkpt lat="49.9865" lon="2.13011">
        <ele>91</ele>
        <time>2011-06-22T09:41:48.000Z</time>
      </trkpt>
      <trkpt lat="49.98669" lon="2.12989">
        <ele>101</ele>
        <time>2011-06-22T09:42:07.000Z</time>
      </trkpt>
      <trkpt lat="49.98676" lon="2.12973">
        <ele>101</ele>
        <time>2011-06-22T09:42:26.000Z</time>
      </trkpt>
      <trkpt lat="49.98684" lon="2.1297">
        <ele>107</ele>
        <time>2011-06-22T09:42:46.000Z</time>
      </trkpt>
      <trkpt lat="49.98666" lon="2.12971">
        <ele>97</ele>
        <time>2011-06-22T09:43:27.000Z</time>
      </trkpt>
      <trkpt lat="49.98658" lon="2.12971">
        <ele>91</ele>
        <time>2011-06-22T09:44:05.000Z</time>
      </trkpt>
      <trkpt lat="49.98662" lon="2.12974">
        <ele>101</ele>
        <time>2011-06-22T09:45:27.000Z</time>
      </trkpt>
      <trkpt lat="49.98656" lon="2.12969">
        <ele>97</ele>
        <time>2011-06-22T09:46:08.000Z</time>
      </trkpt>
      <trkpt lat="49.98652" lon="2.12965">
        <ele>84</ele>
        <time>2011-06-22T09:46:50.000Z</time>
      </trkpt>
      <trkpt lat="49.98674" lon="2.12982">
        <ele>89</ele>
        <time>2011-06-22T09:50:25.000Z</time>
      </trkpt>
      <trkpt lat="49.98664" lon="2.12965">
        <ele>126</ele>
        <time>2011-06-22T09:50:57.000Z</time>
      </trkpt>
      <trkpt lat="49.9866" lon="2.12966">
        <ele>102</ele>
        <time>2011-06-22T09:51:13.000Z</time>
      </trkpt>
      <trkpt lat="49.9865" lon="2.12979">
        <ele>61</ele>
        <time>2011-06-22T09:52:11.000Z</time>
      </trkpt>
      <trkpt lat="49.98646" lon="2.12977">
        <ele>35</ele>
        <time>2011-06-22T09:53:22.000Z</time>
      </trkpt>
      <trkpt lat="49.98652" lon="2.1297">
        <ele>80</ele>
        <time>2011-06-22T09:54:27.000Z</time>
      </trkpt>
      <trkpt lat="49.9866" lon="2.12975">
        <ele>85</ele>
        <time>2011-06-22T09:54:50.000Z</time>
      </trkpt>
      <trkpt lat="49.98661" lon="2.12974">
        <ele>87</ele>
        <time>2011-06-22T09:55:49.000Z</time>
      </trkpt>
      <trkpt lat="49.98666" lon="2.12983">
        <ele>79</ele>
        <time>2011-06-22T09:56:04.000Z</time>
      </trkpt>
      <trkpt lat="49.98664" lon="2.12968">
        <ele>83</ele>
        <time>2011-06-22T09:56:54.000Z</time>
      </trkpt>
      <trkpt lat="49.9866" lon="2.12957">
        <ele>84</ele>
        <time>2011-06-22T09:57:15.000Z</time>
      </trkpt>
      <trkpt lat="49.98635" lon="2.12955">
        <ele>67</ele>
        <time>2011-06-22T09:58:00.000Z</time>
      </trkpt>
      <trkpt lat="49.98642" lon="2.12957">
        <ele>96</ele>
        <time>2011-06-22T09:58:16.000Z</time>
      </trkpt>
      <trkpt lat="49.98652" lon="2.12966">
        <ele>90</ele>
        <time>2011-06-22T09:58:30.000Z</time>
      </trkpt>
      <trkpt lat="49.9866" lon="2.12973">
        <ele>91</ele>
        <time>2011-06-22T09:59:43.000Z</time>
      </trkpt>
      <trkpt lat="49.98661" lon="2.12972">
        <ele>99</ele>
        <time>2011-06-22T10:01:09.000Z</time>
      </trkpt>
      <trkpt lat="49.98659" lon="2.12976">
        <ele>93</ele>
        <time>2011-06-22T10:04:29.000Z</time>
      </trkpt>
      <trkpt lat="49.98665" lon="2.1298">
        <ele>93</ele>
        <time>2011-06-22T10:05:00.000Z</time>
      </trkpt>
      <trkpt lat="49.98671" lon="2.12977">
        <ele>94</ele>
        <time>2011-06-22T10:05:07.000Z</time>
      </trkpt>
      <trkpt lat="49.98678" lon="2.12971">
        <ele>96</ele>
        <time>2011-06-22T10:05:15.000Z</time>
      </trkpt>
      <trkpt lat="49.98703" lon="2.1294">
        <ele>99</ele>
        <time>2011-06-22T10:05:44.000Z</time>
      </trkpt>
      <trkpt lat="49.98706" lon="2.12934">
        <ele>99</ele>
        <time>2011-06-22T10:05:49.000Z</time>
      </trkpt>
      <trkpt lat="49.98716" lon="2.12918">
        <ele>96</ele>
        <time>2011-06-22T10:06:02.000Z</time>
      </trkpt>
      <trkpt lat="49.98727" lon="2.12908">
        <ele>97</ele>
        <time>2011-06-22T10:06:12.000Z</time>
      </trkpt>
      <trkpt lat="49.98753" lon="2.12885">
        <ele>98</ele>
        <time>2011-06-22T10:06:40.000Z</time>
      </trkpt>
      <trkpt lat="49.98768" lon="2.12874">
        <ele>96</ele>
        <time>2011-06-22T10:06:57.000Z</time>
      </trkpt>
      <trkpt lat="49.98806" lon="2.12843">
        <ele>93</ele>
        <time>2011-06-22T10:07:34.000Z</time>
      </trkpt>
      <trkpt lat="49.98831" lon="2.12828">
        <ele>97</ele>
        <time>2011-06-22T10:08:00.000Z</time>
      </trkpt>
      <trkpt lat="49.98855" lon="2.12804">
        <ele>97</ele>
        <time>2011-06-22T10:08:27.000Z</time>
      </trkpt>
      <trkpt lat="49.98866" lon="2.12793">
        <ele>96</ele>
        <time>2011-06-22T10:08:38.000Z</time>
      </trkpt>
      <trkpt lat="49.98897" lon="2.1276">
        <ele>92</ele>
        <time>2011-06-22T10:09:13.000Z</time>
      </trkpt>
      <trkpt lat="49.98905" lon="2.12753">
        <ele>88</ele>
        <time>2011-06-22T10:09:22.000Z</time>
      </trkpt>
      <trkpt lat="49.98912" lon="2.12742">
        <ele>85</ele>
        <time>2011-06-22T10:09:31.000Z</time>
      </trkpt>
      <trkpt lat="49.98949" lon="2.12701">
        <ele>82</ele>
        <time>2011-06-22T10:10:07.000Z</time>
      </trkpt>
      <trkpt lat="49.9895" lon="2.12701">
        <ele>82</ele>
        <time>2011-06-22T10:10:08.000Z</time>
      </trkpt>
      <trkpt lat="49.98951" lon="2.127">
        <ele>82</ele>
        <time>2011-06-22T10:10:09.000Z</time>
      </trkpt>
      <trkpt lat="49.98977" lon="2.12666">
        <ele>80</ele>
        <time>2011-06-22T10:10:38.000Z</time>
      </trkpt>
      <trkpt lat="49.98984" lon="2.12655">
        <ele>81</ele>
        <time>2011-06-22T10:10:47.000Z</time>
      </trkpt>
      <trkpt lat="49.98988" lon="2.12649">
        <ele>81</ele>
        <time>2011-06-22T10:10:52.000Z</time>
      </trkpt>
      <trkpt lat="49.98995" lon="2.12638">
        <ele>81</ele>
        <time>2011-06-22T10:11:00.000Z</time>
      </trkpt>
      <trkpt lat="49.99001" lon="2.12629">
        <ele>80</ele>
        <time>2011-06-22T10:11:07.000Z</time>
      </trkpt>
      <trkpt lat="49.99023" lon="2.12591">
        <ele>78</ele>
        <time>2011-06-22T10:11:36.000Z</time>
      </trkpt>
      <trkpt lat="49.99047" lon="2.12539">
        <ele>73</ele>
        <time>2011-06-22T10:12:25.000Z</time>
      </trkpt>
      <trkpt lat="49.99051" lon="2.1253">
        <ele>73</ele>
        <time>2011-06-22T10:12:32.000Z</time>
      </trkpt>
      <trkpt lat="49.99067" lon="2.12502">
        <ele>71</ele>
        <time>2011-06-22T10:12:54.000Z</time>
      </trkpt>
      <trkpt lat="49.99081" lon="2.12476">
        <ele>73</ele>
        <time>2011-06-22T10:13:12.000Z</time>
      </trkpt>
      <trkpt lat="49.99086" lon="2.12466">
        <ele>73</ele>
        <time>2011-06-22T10:13:20.000Z</time>
      </trkpt>
      <trkpt lat="49.991" lon="2.12446">
        <ele>69</ele>
        <time>2011-06-22T10:13:35.000Z</time>
      </trkpt>
      <trkpt lat="49.99105" lon="2.12441">
        <ele>68</ele>
        <time>2011-06-22T10:13:39.000Z</time>
      </trkpt>
      <trkpt lat="49.9911" lon="2.12435">
        <ele>67</ele>
        <time>2011-06-22T10:13:44.000Z</time>
      </trkpt>
      <trkpt lat="49.9912" lon="2.12415">
        <ele>64</ele>
        <time>2011-06-22T10:14:23.000Z</time>
      </trkpt>
      <trkpt lat="49.99127" lon="2.12417">
        <ele>77</ele>
        <time>2011-06-22T10:14:44.000Z</time>
      </trkpt>
      <trkpt lat="49.99131" lon="2.1241">
        <ele>74</ele>
        <time>2011-06-22T10:14:51.000Z</time>
      </trkpt>
      <trkpt lat="49.9913" lon="2.12402">
        <ele>70</ele>
        <time>2011-06-22T10:15:01.000Z</time>
      </trkpt>
      <trkpt lat="49.99137" lon="2.12399">
        <ele>77</ele>
        <time>2011-06-22T10:15:42.000Z</time>
      </trkpt>
      <trkpt lat="49.99136" lon="2.12395">
        <ele>69</ele>
        <time>2011-06-22T10:18:25.000Z</time>
      </trkpt>
      <trkpt lat="49.99139" lon="2.12389">
        <ele>68</ele>
        <time>2011-06-22T10:18:30.000Z</time>
      </trkpt>
      <trkpt lat="49.9915" lon="2.12377">
        <ele>68</ele>
        <time>2011-06-22T10:18:47.000Z</time>
      </trkpt>
      <trkpt lat="49.99154" lon="2.12372">
        <ele>68</ele>
        <time>2011-06-22T10:18:53.000Z</time>
      </trkpt>
      <trkpt lat="49.99182" lon="2.1233">
        <ele>66</ele>
        <time>2011-06-22T10:19:29.000Z</time>
      </trkpt>
      <trkpt lat="49.99198" lon="2.12308">
        <ele>69</ele>
        <time>2011-06-22T10:19:54.000Z</time>
      </trkpt>
      <trkpt lat="49.99232" lon="2.12262">
        <ele>66</ele>
        <time>2011-06-22T10:20:31.000Z</time>
      </trkpt>
      <trkpt lat="49.99233" lon="2.12261">
        <ele>66</ele>
        <time>2011-06-22T10:20:32.000Z</time>
      </trkpt>
      <trkpt lat="49.99268" lon="2.12215">
        <ele>63</ele>
        <time>2011-06-22T10:21:10.000Z</time>
      </trkpt>
      <trkpt lat="49.99269" lon="2.12214">
        <ele>63</ele>
        <time>2011-06-22T10:21:11.000Z</time>
      </trkpt>
      <trkpt lat="49.99292" lon="2.12182">
        <ele>62</ele>
        <time>2011-06-22T10:21:38.000Z</time>
      </trkpt>
      <trkpt lat="49.99317" lon="2.12147">
        <ele>63</ele>
        <time>2011-06-22T10:22:05.000Z</time>
      </trkpt>
      <trkpt lat="49.99347" lon="2.12103">
        <ele>62</ele>
        <time>2011-06-22T10:22:40.000Z</time>
      </trkpt>
      <trkpt lat="49.99352" lon="2.12097">
        <ele>62</ele>
        <time>2011-06-22T10:22:45.000Z</time>
      </trkpt>
      <trkpt lat="49.9936" lon="2.12086">
        <ele>62</ele>
        <time>2011-06-22T10:22:54.000Z</time>
      </trkpt>
      <trkpt lat="49.99368" lon="2.1208">
        <ele>62</ele>
        <time>2011-06-22T10:23:07.000Z</time>
      </trkpt>
      <trkpt lat="49.99373" lon="2.1207">
        <ele>63</ele>
        <time>2011-06-22T10:23:16.000Z</time>
      </trkpt>
      <trkpt lat="49.99377" lon="2.12063">
        <ele>63</ele>
        <time>2011-06-22T10:23:21.000Z</time>
      </trkpt>
      <trkpt lat="49.99381" lon="2.12055">
        <ele>64</ele>
        <time>2011-06-22T10:23:31.000Z</time>
      </trkpt>
      <trkpt lat="49.99387" lon="2.12045">
        <ele>65</ele>
        <time>2011-06-22T10:23:38.000Z</time>
      </trkpt>
      <trkpt lat="49.99391" lon="2.1204">
        <ele>65</ele>
        <time>2011-06-22T10:23:42.000Z</time>
      </trkpt>
      <trkpt lat="49.99395" lon="2.12032">
        <ele>65</ele>
        <time>2011-06-22T10:23:48.000Z</time>
      </trkpt>
      <trkpt lat="49.99405" lon="2.12014">
        <ele>64</ele>
        <time>2011-06-22T10:24:00.000Z</time>
      </trkpt>
      <trkpt lat="49.99437" lon="2.11964">
        <ele>65</ele>
        <time>2011-06-22T10:24:39.000Z</time>
      </trkpt>
      <trkpt lat="49.99438" lon="2.11963">
        <ele>65</ele>
        <time>2011-06-22T10:24:40.000Z</time>
      </trkpt>
      <trkpt lat="49.9947" lon="2.11921">
        <ele>67</ele>
        <time>2011-06-22T10:25:13.000Z</time>
      </trkpt>
      <trkpt lat="49.99505" lon="2.11877">
        <ele>67</ele>
        <time>2011-06-22T10:25:49.000Z</time>
      </trkpt>
      <trkpt lat="49.99506" lon="2.11876">
        <ele>67</ele>
        <time>2011-06-22T10:25:50.000Z</time>
      </trkpt>
      <trkpt lat="49.99514" lon="2.1186">
        <ele>66</ele>
        <time>2011-06-22T10:27:25.000Z</time>
      </trkpt>
      <trkpt lat="49.99531" lon="2.11839">
        <ele>67</ele>
        <time>2011-06-22T10:27:43.000Z</time>
      </trkpt>
      <trkpt lat="49.99569" lon="2.11798">
        <ele>69</ele>
        <time>2011-06-22T10:28:19.000Z</time>
      </trkpt>
      <trkpt lat="49.99569" lon="2.11797">
        <ele>68</ele>
        <time>2011-06-22T10:28:20.000Z</time>
      </trkpt>
      <trkpt lat="49.99606" lon="2.11754">
        <ele>66</ele>
        <time>2011-06-22T10:28:59.000Z</time>
      </trkpt>
      <trkpt lat="49.99607" lon="2.11753">
        <ele>66</ele>
        <time>2011-06-22T10:29:00.000Z</time>
      </trkpt>
      <trkpt lat="49.99643" lon="2.1171">
        <ele>66</ele>
        <time>2011-06-22T10:29:37.000Z</time>
      </trkpt>
      <trkpt lat="49.99644" lon="2.11709">
        <ele>66</ele>
        <time>2011-06-22T10:29:38.000Z</time>
      </trkpt>
      <trkpt lat="49.99646" lon="2.11707">
        <ele>66</ele>
        <time>2011-06-22T10:29:40.000Z</time>
      </trkpt>
      <trkpt lat="49.99655" lon="2.11699">
        <ele>65</ele>
        <time>2011-06-22T10:29:49.000Z</time>
      </trkpt>
      <trkpt lat="49.99674" lon="2.11674">
        <ele>66</ele>
        <time>2011-06-22T10:30:13.000Z</time>
      </trkpt>
      <trkpt lat="49.9968" lon="2.11664">
        <ele>68</ele>
        <time>2011-06-22T10:30:24.000Z</time>
      </trkpt>
      <trkpt lat="49.99691" lon="2.11649">
        <ele>68</ele>
        <time>2011-06-22T10:30:37.000Z</time>
      </trkpt>
      <trkpt lat="49.99696" lon="2.11641">
        <ele>69</ele>
        <time>2011-06-22T10:30:43.000Z</time>
      </trkpt>
      <trkpt lat="49.99733" lon="2.116">
        <ele>68</ele>
        <time>2011-06-22T10:31:20.000Z</time>
      </trkpt>
      <trkpt lat="49.99734" lon="2.11599">
        <ele>68</ele>
        <time>2011-06-22T10:31:21.000Z</time>
      </trkpt>
      <trkpt lat="49.9974" lon="2.11592">
        <ele>68</ele>
        <time>2011-06-22T10:31:28.000Z</time>
      </trkpt>
      <trkpt lat="49.99744" lon="2.11585">
        <ele>68</ele>
        <time>2011-06-22T10:31:33.000Z</time>
      </trkpt>
      <trkpt lat="49.9978" lon="2.11542">
        <ele>67</ele>
        <time>2011-06-22T10:32:09.000Z</time>
      </trkpt>
      <trkpt lat="49.9978" lon="2.11541">
        <ele>67</ele>
        <time>2011-06-22T10:32:10.000Z</time>
      </trkpt>
      <trkpt lat="49.9979" lon="2.11526">
        <ele>68</ele>
        <time>2011-06-22T10:32:31.000Z</time>
      </trkpt>
      <trkpt lat="49.99795" lon="2.1152">
        <ele>69</ele>
        <time>2011-06-22T10:32:42.000Z</time>
      </trkpt>
      <trkpt lat="49.9982" lon="2.11489">
        <ele>70</ele>
        <time>2011-06-22T10:33:10.000Z</time>
      </trkpt>
      <trkpt lat="49.99841" lon="2.11466">
        <ele>69</ele>
        <time>2011-06-22T10:33:44.000Z</time>
      </trkpt>
      <trkpt lat="49.99877" lon="2.11422">
        <ele>69</ele>
        <time>2011-06-22T10:34:25.000Z</time>
      </trkpt>
      <trkpt lat="49.99878" lon="2.11421">
        <ele>69</ele>
        <time>2011-06-22T10:34:26.000Z</time>
      </trkpt>
      <trkpt lat="49.99913" lon="2.11376">
        <ele>71</ele>
        <time>2011-06-22T10:35:04.000Z</time>
      </trkpt>
      <trkpt lat="49.99914" lon="2.11375">
        <ele>71</ele>
        <time>2011-06-22T10:35:05.000Z</time>
      </trkpt>
      <trkpt lat="49.99925" lon="2.1136">
        <ele>72</ele>
        <time>2011-06-22T10:35:17.000Z</time>
      </trkpt>
      <trkpt lat="49.9996" lon="2.11315">
        <ele>70</ele>
        <time>2011-06-22T10:35:56.000Z</time>
      </trkpt>
      <trkpt lat="49.99961" lon="2.11314">
        <ele>70</ele>
        <time>2011-06-22T10:35:57.000Z</time>
      </trkpt>
      <trkpt lat="49.99979" lon="2.11291">
        <ele>71</ele>
        <time>2011-06-22T10:36:18.000Z</time>
      </trkpt>
      <trkpt lat="50.00014" lon="2.11247">
        <ele>77</ele>
        <time>2011-06-22T10:36:54.000Z</time>
      </trkpt>
      <trkpt lat="50.00015" lon="2.11246">
        <ele>77</ele>
        <time>2011-06-22T10:36:55.000Z</time>
      </trkpt>
      <trkpt lat="50.00042" lon="2.11212">
        <ele>77</ele>
        <time>2011-06-22T10:37:24.000Z</time>
      </trkpt>
      <trkpt lat="50.00068" lon="2.11178">
        <ele>74</ele>
        <time>2011-06-22T10:37:53.000Z</time>
      </trkpt>
      <trkpt lat="50.00094" lon="2.11144">
        <ele>74</ele>
        <time>2011-06-22T10:38:55.000Z</time>
      </trkpt>
      <trkpt lat="50.00101" lon="2.11137">
        <ele>73</ele>
        <time>2011-06-22T10:39:04.000Z</time>
      </trkpt>
      <trkpt lat="50.00137" lon="2.11095">
        <ele>73</ele>
        <time>2011-06-22T10:39:46.000Z</time>
      </trkpt>
      <trkpt lat="50.00138" lon="2.11094">
        <ele>73</ele>
        <time>2011-06-22T10:39:47.000Z</time>
      </trkpt>
      <trkpt lat="50.00139" lon="2.11093">
        <ele>73</ele>
        <time>2011-06-22T10:39:48.000Z</time>
      </trkpt>
      <trkpt lat="50.00143" lon="2.11082">
        <ele>74</ele>
        <time>2011-06-22T10:39:58.000Z</time>
      </trkpt>
      <trkpt lat="50.00148" lon="2.11085">
        <ele>74</ele>
        <time>2011-06-22T10:40:07.000Z</time>
      </trkpt>
      <trkpt lat="50.00141" lon="2.1108">
        <ele>80</ele>
        <time>2011-06-22T10:40:39.000Z</time>
      </trkpt>
      <trkpt lat="50.00137" lon="2.11078">
        <ele>78</ele>
        <time>2011-06-22T10:41:07.000Z</time>
      </trkpt>
      <trkpt lat="50.0013" lon="2.11064">
        <ele>77</ele>
        <time>2011-06-22T10:41:17.000Z</time>
      </trkpt>
      <trkpt lat="50.00124" lon="2.11037">
        <ele>75</ele>
        <time>2011-06-22T10:41:33.000Z</time>
      </trkpt>
      <trkpt lat="50.00113" lon="2.10967">
        <ele>77</ele>
        <time>2011-06-22T10:42:11.000Z</time>
      </trkpt>
      <trkpt lat="50.00112" lon="2.10966">
        <ele>76</ele>
        <time>2011-06-22T10:42:12.000Z</time>
      </trkpt>
      <trkpt lat="50.001" lon="2.10897">
        <ele>75</ele>
        <time>2011-06-22T10:42:58.000Z</time>
      </trkpt>
      <trkpt lat="50.001" lon="2.10895">
        <ele>74</ele>
        <time>2011-06-22T10:42:59.000Z</time>
      </trkpt>
      <trkpt lat="50.001" lon="2.10892">
        <ele>74</ele>
        <time>2011-06-22T10:43:01.000Z</time>
      </trkpt>
      <trkpt lat="50.00089" lon="2.10823">
        <ele>74</ele>
        <time>2011-06-22T10:43:38.000Z</time>
      </trkpt>
      <trkpt lat="50.00088" lon="2.10822">
        <ele>74</ele>
        <time>2011-06-22T10:43:39.000Z</time>
      </trkpt>
      <trkpt lat="50.00077" lon="2.10754">
        <ele>75</ele>
        <time>2011-06-22T10:44:15.000Z</time>
      </trkpt>
      <trkpt lat="50.00077" lon="2.10752">
        <ele>75</ele>
        <time>2011-06-22T10:44:16.000Z</time>
      </trkpt>
      <trkpt lat="50.00073" lon="2.10723">
        <ele>76</ele>
        <time>2011-06-22T10:44:31.000Z</time>
      </trkpt>
      <trkpt lat="50.00071" lon="2.10704">
        <ele>75</ele>
        <time>2011-06-22T10:44:41.000Z</time>
      </trkpt>
      <trkpt lat="50.00069" lon="2.10687">
        <ele>75</ele>
        <time>2011-06-22T10:44:49.000Z</time>
      </trkpt>
      <trkpt lat="50.00063" lon="2.10618">
        <ele>75</ele>
        <time>2011-06-22T10:45:24.000Z</time>
      </trkpt>
      <trkpt lat="50.00063" lon="2.10616">
        <ele>75</ele>
        <time>2011-06-22T10:45:25.000Z</time>
      </trkpt>
      <trkpt lat="50.00059" lon="2.10546">
        <ele>74</ele>
        <time>2011-06-22T10:46:01.000Z</time>
      </trkpt>
      <trkpt lat="50.00059" lon="2.10544">
        <ele>74</ele>
        <time>2011-06-22T10:46:02.000Z</time>
      </trkpt>
      <trkpt lat="50.00053" lon="2.10473">
        <ele>74</ele>
        <time>2011-06-22T10:46:37.000Z</time>
      </trkpt>
      <trkpt lat="50.00053" lon="2.10472">
        <ele>74</ele>
        <time>2011-06-22T10:46:38.000Z</time>
      </trkpt>
      <trkpt lat="50.00047" lon="2.10402">
        <ele>74</ele>
        <time>2011-06-22T10:47:15.000Z</time>
      </trkpt>
      <trkpt lat="50.00046" lon="2.104">
        <ele>74</ele>
        <time>2011-06-22T10:47:16.000Z</time>
      </trkpt>
      <trkpt lat="50.00037" lon="2.1033">
        <ele>76</ele>
        <time>2011-06-22T10:47:54.000Z</time>
      </trkpt>
      <trkpt lat="50.00036" lon="2.10329">
        <ele>76</ele>
        <time>2011-06-22T10:47:55.000Z</time>
      </trkpt>
      <trkpt lat="50.00035" lon="2.10321">
        <ele>76</ele>
        <time>2011-06-22T10:47:59.000Z</time>
      </trkpt>
      <trkpt lat="50.0003" lon="2.10298">
        <ele>75</ele>
        <time>2011-06-22T10:48:12.000Z</time>
      </trkpt>
      <trkpt lat="50.00028" lon="2.1029">
        <ele>75</ele>
        <time>2011-06-22T10:48:16.000Z</time>
      </trkpt>
      <trkpt lat="50.00013" lon="2.10222">
        <ele>76</ele>
        <time>2011-06-22T10:48:50.000Z</time>
      </trkpt>
      <trkpt lat="50.00013" lon="2.1022">
        <ele>76</ele>
        <time>2011-06-22T10:48:51.000Z</time>
      </trkpt>
      <trkpt lat="49.99998" lon="2.10153">
        <ele>74</ele>
        <time>2011-06-22T10:49:29.000Z</time>
      </trkpt>
      <trkpt lat="49.99997" lon="2.10152">
        <ele>74</ele>
        <time>2011-06-22T10:49:30.000Z</time>
      </trkpt>
      <trkpt lat="49.99981" lon="2.10085">
        <ele>74</ele>
        <time>2011-06-22T10:50:06.000Z</time>
      </trkpt>
      <trkpt lat="49.9998" lon="2.10083">
        <ele>75</ele>
        <time>2011-06-22T10:50:07.000Z</time>
      </trkpt>
      <trkpt lat="49.99965" lon="2.10015">
        <ele>76</ele>
        <time>2011-06-22T10:50:43.000Z</time>
      </trkpt>
      <trkpt lat="49.99963" lon="2.10014">
        <ele>76</ele>
        <time>2011-06-22T10:50:44.000Z</time>
      </trkpt>
      <trkpt lat="49.99961" lon="2.09998">
        <ele>76</ele>
        <time>2011-06-22T10:50:52.000Z</time>
      </trkpt>
      <trkpt lat="49.99949" lon="2.09928">
        <ele>72</ele>
        <time>2011-06-22T10:51:29.000Z</time>
      </trkpt>
      <trkpt lat="49.99949" lon="2.09927">
        <ele>72</ele>
        <time>2011-06-22T10:51:30.000Z</time>
      </trkpt>
      <trkpt lat="49.99938" lon="2.09857">
        <ele>71</ele>
        <time>2011-06-22T10:52:07.000Z</time>
      </trkpt>
      <trkpt lat="49.99938" lon="2.09855">
        <ele>71</ele>
        <time>2011-06-22T10:52:08.000Z</time>
      </trkpt>
      <trkpt lat="49.99931" lon="2.09816">
        <ele>71</ele>
        <time>2011-06-22T10:52:28.000Z</time>
      </trkpt>
      <trkpt lat="49.99923" lon="2.09765">
        <ele>71</ele>
        <time>2011-06-22T10:52:54.000Z</time>
      </trkpt>
      <trkpt lat="49.99914" lon="2.09699">
        <ele>72</ele>
        <time>2011-06-22T10:53:31.000Z</time>
      </trkpt>
      <trkpt lat="49.99905" lon="2.0963">
        <ele>69</ele>
        <time>2011-06-22T10:54:07.000Z</time>
      </trkpt>
      <trkpt lat="49.99905" lon="2.09628">
        <ele>69</ele>
        <time>2011-06-22T10:54:08.000Z</time>
      </trkpt>
      <trkpt lat="49.99896" lon="2.09557">
        <ele>69</ele>
        <time>2011-06-22T10:54:44.000Z</time>
      </trkpt>
      <trkpt lat="49.99895" lon="2.09555">
        <ele>69</ele>
        <time>2011-06-22T10:54:45.000Z</time>
      </trkpt>
      <trkpt lat="49.99886" lon="2.09486">
        <ele>70</ele>
        <time>2011-06-22T10:55:21.000Z</time>
      </trkpt>
      <trkpt lat="49.99886" lon="2.09484">
        <ele>69</ele>
        <time>2011-06-22T10:55:22.000Z</time>
      </trkpt>
      <trkpt lat="49.99882" lon="2.09454">
        <ele>69</ele>
        <time>2011-06-22T10:55:37.000Z</time>
      </trkpt>
      <trkpt lat="49.99873" lon="2.09384">
        <ele>70</ele>
        <time>2011-06-22T10:56:13.000Z</time>
      </trkpt>
      <trkpt lat="49.99873" lon="2.09383">
        <ele>70</ele>
        <time>2011-06-22T10:56:14.000Z</time>
      </trkpt>
      <trkpt lat="49.99864" lon="2.09312">
        <ele>69</ele>
        <time>2011-06-22T10:56:51.000Z</time>
      </trkpt>
      <trkpt lat="49.99864" lon="2.0931">
        <ele>69</ele>
        <time>2011-06-22T10:56:52.000Z</time>
      </trkpt>
      <trkpt lat="49.99863" lon="2.09288">
        <ele>67</ele>
        <time>2011-06-22T10:57:25.000Z</time>
      </trkpt>
      <trkpt lat="49.99862" lon="2.0928">
        <ele>68</ele>
        <time>2011-06-22T10:57:37.000Z</time>
      </trkpt>
      <trkpt lat="49.99857" lon="2.09271">
        <ele>67</ele>
        <time>2011-06-22T10:57:56.000Z</time>
      </trkpt>
      <trkpt lat="49.99856" lon="2.09259">
        <ele>70</ele>
        <time>2011-06-22T10:58:17.000Z</time>
      </trkpt>
      <trkpt lat="49.99851" lon="2.09219">
        <ele>72</ele>
        <time>2011-06-22T10:59:05.000Z</time>
      </trkpt>
      <trkpt lat="49.99846" lon="2.09197">
        <ele>72</ele>
        <time>2011-06-22T10:59:19.000Z</time>
      </trkpt>
      <trkpt lat="49.99839" lon="2.0917">
        <ele>73</ele>
        <time>2011-06-22T10:59:36.000Z</time>
      </trkpt>
      <trkpt lat="49.99836" lon="2.09153">
        <ele>73</ele>
        <time>2011-06-22T10:59:49.000Z</time>
      </trkpt>
      <trkpt lat="49.99833" lon="2.0914">
        <ele>72</ele>
        <time>2011-06-22T10:59:57.000Z</time>
      </trkpt>
      <trkpt lat="49.99819" lon="2.09073">
        <ele>70</ele>
        <time>2011-06-22T11:00:35.000Z</time>
      </trkpt>
      <trkpt lat="49.99819" lon="2.09071">
        <ele>70</ele>
        <time>2011-06-22T11:00:36.000Z</time>
      </trkpt>
      <trkpt lat="49.9981" lon="2.09031">
        <ele>68</ele>
        <time>2011-06-22T11:01:31.000Z</time>
      </trkpt>
      <trkpt lat="49.99805" lon="2.08962">
        <ele>71</ele>
        <time>2011-06-22T11:02:09.000Z</time>
      </trkpt>
      <trkpt lat="49.99805" lon="2.0896">
        <ele>71</ele>
        <time>2011-06-22T11:02:10.000Z</time>
      </trkpt>
      <trkpt lat="49.99799" lon="2.08889">
        <ele>70</ele>
        <time>2011-06-22T11:02:47.000Z</time>
      </trkpt>
      <trkpt lat="49.99799" lon="2.08887">
        <ele>70</ele>
        <time>2011-06-22T11:02:48.000Z</time>
      </trkpt>
      <trkpt lat="49.99791" lon="2.08817">
        <ele>69</ele>
        <time>2011-06-22T11:03:23.000Z</time>
      </trkpt>
      <trkpt lat="49.99791" lon="2.08815">
        <ele>69</ele>
        <time>2011-06-22T11:03:24.000Z</time>
      </trkpt>
      <trkpt lat="49.99782" lon="2.08746">
        <ele>71</ele>
        <time>2011-06-22T11:04:01.000Z</time>
      </trkpt>
      <trkpt lat="49.99782" lon="2.08744">
        <ele>71</ele>
        <time>2011-06-22T11:04:02.000Z</time>
      </trkpt>
      <trkpt lat="49.99781" lon="2.08742">
        <ele>71</ele>
        <time>2011-06-22T11:04:03.000Z</time>
      </trkpt>
      <trkpt lat="49.99771" lon="2.08709">
        <ele>68</ele>
        <time>2011-06-22T11:04:22.000Z</time>
      </trkpt>
      <trkpt lat="49.99762" lon="2.08689">
        <ele>66</ele>
        <time>2011-06-22T11:04:34.000Z</time>
      </trkpt>
      <trkpt lat="49.9975" lon="2.08669">
        <ele>64</ele>
        <time>2011-06-22T11:04:48.000Z</time>
      </trkpt>
      <trkpt lat="49.99723" lon="2.08634">
        <ele>62</ele>
        <time>2011-06-22T11:05:14.000Z</time>
      </trkpt>
      <trkpt lat="49.99687" lon="2.08591">
        <ele>58</ele>
        <time>2011-06-22T11:05:50.000Z</time>
      </trkpt>
      <trkpt lat="49.99686" lon="2.0859">
        <ele>58</ele>
        <time>2011-06-22T11:05:51.000Z</time>
      </trkpt>
      <trkpt lat="49.99648" lon="2.08551">
        <ele>60</ele>
        <time>2011-06-22T11:06:27.000Z</time>
      </trkpt>
      <trkpt lat="49.99647" lon="2.0855">
        <ele>60</ele>
        <time>2011-06-22T11:06:28.000Z</time>
      </trkpt>
      <trkpt lat="49.99611" lon="2.08506">
        <ele>56</ele>
        <time>2011-06-22T11:07:04.000Z</time>
      </trkpt>
      <trkpt lat="49.9961" lon="2.08505">
        <ele>56</ele>
        <time>2011-06-22T11:07:05.000Z</time>
      </trkpt>
      <trkpt lat="49.99575" lon="2.08457">
        <ele>58</ele>
        <time>2011-06-22T11:07:40.000Z</time>
      </trkpt>
      <trkpt lat="49.99574" lon="2.08456">
        <ele>58</ele>
        <time>2011-06-22T11:07:41.000Z</time>
      </trkpt>
      <trkpt lat="49.99566" lon="2.08445">
        <ele>58</ele>
        <time>2011-06-22T11:07:49.000Z</time>
      </trkpt>
      <trkpt lat="49.99533" lon="2.08395">
        <ele>55</ele>
        <time>2011-06-22T11:08:25.000Z</time>
      </trkpt>
      <trkpt lat="49.99532" lon="2.08394">
        <ele>55</ele>
        <time>2011-06-22T11:08:26.000Z</time>
      </trkpt>
      <trkpt lat="49.99497" lon="2.08348">
        <ele>56</ele>
        <time>2011-06-22T11:09:00.000Z</time>
      </trkpt>
      <trkpt lat="49.99496" lon="2.08347">
        <ele>56</ele>
        <time>2011-06-22T11:09:01.000Z</time>
      </trkpt>
      <trkpt lat="49.99481" lon="2.08334">
        <ele>57</ele>
        <time>2011-06-22T11:09:13.000Z</time>
      </trkpt>
      <trkpt lat="49.99442" lon="2.08296">
        <ele>56</ele>
        <time>2011-06-22T11:09:49.000Z</time>
      </trkpt>
      <trkpt lat="49.99441" lon="2.08295">
        <ele>56</ele>
        <time>2011-06-22T11:09:50.000Z</time>
      </trkpt>
      <trkpt lat="49.99403" lon="2.08258">
        <ele>53</ele>
        <time>2011-06-22T11:10:25.000Z</time>
      </trkpt>
      <trkpt lat="49.99401" lon="2.08257">
        <ele>53</ele>
        <time>2011-06-22T11:10:26.000Z</time>
      </trkpt>
      <trkpt lat="49.99364" lon="2.08217">
        <ele>49</ele>
        <time>2011-06-22T11:11:01.000Z</time>
      </trkpt>
      <trkpt lat="49.99363" lon="2.08216">
        <ele>49</ele>
        <time>2011-06-22T11:11:02.000Z</time>
      </trkpt>
      <trkpt lat="49.99324" lon="2.08179">
        <ele>49</ele>
        <time>2011-06-22T11:11:36.000Z</time>
      </trkpt>
      <trkpt lat="49.99323" lon="2.08178">
        <ele>49</ele>
        <time>2011-06-22T11:11:37.000Z</time>
      </trkpt>
      <trkpt lat="49.99284" lon="2.08144">
        <ele>48</ele>
        <time>2011-06-22T11:12:13.000Z</time>
      </trkpt>
      <trkpt lat="49.99282" lon="2.08143">
        <ele>48</ele>
        <time>2011-06-22T11:12:14.000Z</time>
      </trkpt>
      <trkpt lat="49.99242" lon="2.08107">
        <ele>45</ele>
        <time>2011-06-22T11:12:50.000Z</time>
      </trkpt>
      <trkpt lat="49.99242" lon="2.08106">
        <ele>45</ele>
        <time>2011-06-22T11:12:51.000Z</time>
      </trkpt>
      <trkpt lat="49.99206" lon="2.08072">
        <ele>38</ele>
        <time>2011-06-22T11:13:26.000Z</time>
      </trkpt>
      <trkpt lat="49.99163" lon="2.08049">
        <ele>41</ele>
        <time>2011-06-22T11:14:00.000Z</time>
      </trkpt>
      <trkpt lat="49.99162" lon="2.08049">
        <ele>41</ele>
        <time>2011-06-22T11:14:01.000Z</time>
      </trkpt>
      <trkpt lat="49.9915" lon="2.08039">
        <ele>38</ele>
        <time>2011-06-22T11:14:16.000Z</time>
      </trkpt>
      <trkpt lat="49.99128" lon="2.08014">
        <ele>35</ele>
        <time>2011-06-22T11:14:39.000Z</time>
      </trkpt>
      <trkpt lat="49.99124" lon="2.08008">
        <ele>33</ele>
        <time>2011-06-22T11:14:44.000Z</time>
      </trkpt>
      <trkpt lat="49.99118" lon="2.07995">
        <ele>30</ele>
        <time>2011-06-22T11:14:53.000Z</time>
      </trkpt>
      <trkpt lat="49.99115" lon="2.07981">
        <ele>29</ele>
        <time>2011-06-22T11:15:01.000Z</time>
      </trkpt>
      <trkpt lat="49.99112" lon="2.07957">
        <ele>26</ele>
        <time>2011-06-22T11:15:48.000Z</time>
      </trkpt>
      <trkpt lat="49.99112" lon="2.07935">
        <ele>23</ele>
        <time>2011-06-22T11:16:01.000Z</time>
      </trkpt>
      <trkpt lat="49.99112" lon="2.07905">
        <ele>21</ele>
        <time>2011-06-22T11:16:17.000Z</time>
      </trkpt>
      <trkpt lat="49.99106" lon="2.07851">
        <ele>21</ele>
        <time>2011-06-22T11:16:49.000Z</time>
      </trkpt>
      <trkpt lat="49.99099" lon="2.07824">
        <ele>18</ele>
        <time>2011-06-22T11:17:14.000Z</time>
      </trkpt>
      <trkpt lat="49.9909" lon="2.07799">
        <ele>18</ele>
        <time>2011-06-22T11:17:29.000Z</time>
      </trkpt>
      <trkpt lat="49.99081" lon="2.07783">
        <ele>18</ele>
        <time>2011-06-22T11:17:39.000Z</time>
      </trkpt>
      <trkpt lat="49.99076" lon="2.07774">
        <ele>19</ele>
        <time>2011-06-22T11:17:45.000Z</time>
      </trkpt>
      <trkpt lat="49.99058" lon="2.07741">
        <ele>19</ele>
        <time>2011-06-22T11:18:08.000Z</time>
      </trkpt>
      <trkpt lat="49.99049" lon="2.07728">
        <ele>20</ele>
        <time>2011-06-22T11:18:18.000Z</time>
      </trkpt>
      <trkpt lat="49.99037" lon="2.07713">
        <ele>22</ele>
        <time>2011-06-22T11:18:32.000Z</time>
      </trkpt>
      <trkpt lat="49.98998" lon="2.07677">
        <ele>26</ele>
        <time>2011-06-22T11:19:13.000Z</time>
      </trkpt>
      <trkpt lat="49.98997" lon="2.07676">
        <ele>26</ele>
        <time>2011-06-22T11:19:14.000Z</time>
      </trkpt>
      <trkpt lat="49.9899" lon="2.07667">
        <ele>26</ele>
        <time>2011-06-22T11:19:23.000Z</time>
      </trkpt>
      <trkpt lat="49.9898" lon="2.0765">
        <ele>26</ele>
        <time>2011-06-22T11:19:38.000Z</time>
      </trkpt>
      <trkpt lat="49.98977" lon="2.07645">
        <ele>26</ele>
        <time>2011-06-22T11:19:44.000Z</time>
      </trkpt>
      <trkpt lat="49.9897" lon="2.07639">
        <ele>24</ele>
        <time>2011-06-22T11:19:56.000Z</time>
      </trkpt>
      <trkpt lat="49.98957" lon="2.07632">
        <ele>24</ele>
        <time>2011-06-22T11:20:15.000Z</time>
      </trkpt>
      <trkpt lat="49.98933" lon="2.07623">
        <ele>24</ele>
        <time>2011-06-22T11:20:42.000Z</time>
      </trkpt>
      <trkpt lat="49.98902" lon="2.07611">
        <ele>28</ele>
        <time>2011-06-22T11:21:08.000Z</time>
      </trkpt>
      <trkpt lat="49.98872" lon="2.07601">
        <ele>31</ele>
        <time>2011-06-22T11:21:32.000Z</time>
      </trkpt>
      <trkpt lat="49.98856" lon="2.07597">
        <ele>28</ele>
        <time>2011-06-22T11:21:51.000Z</time>
      </trkpt>
      <trkpt lat="49.98843" lon="2.07592">
        <ele>22</ele>
        <time>2011-06-22T11:22:09.000Z</time>
      </trkpt>
      <trkpt lat="49.98833" lon="2.07591">
        <ele>20</ele>
        <time>2011-06-22T11:22:19.000Z</time>
      </trkpt>
      <trkpt lat="49.98809" lon="2.07583">
        <ele>22</ele>
        <time>2011-06-22T11:22:41.000Z</time>
      </trkpt>
      <trkpt lat="49.98765" lon="2.07575">
        <ele>23</ele>
        <time>2011-06-22T11:23:18.000Z</time>
      </trkpt>
      <trkpt lat="49.98759" lon="2.07573">
        <ele>22</ele>
        <time>2011-06-22T11:23:23.000Z</time>
      </trkpt>
      <trkpt lat="49.98745" lon="2.07569">
        <ele>21</ele>
        <time>2011-06-22T11:23:36.000Z</time>
      </trkpt>
      <trkpt lat="49.98732" lon="2.07565">
        <ele>21</ele>
        <time>2011-06-22T11:24:07.000Z</time>
      </trkpt>
      <trkpt lat="49.98723" lon="2.07566">
        <ele>18</ele>
        <time>2011-06-22T11:24:16.000Z</time>
      </trkpt>
      <trkpt lat="49.9872" lon="2.07559">
        <ele>19</ele>
        <time>2011-06-22T11:24:26.000Z</time>
      </trkpt>
      <trkpt lat="49.98706" lon="2.07549">
        <ele>22</ele>
        <time>2011-06-22T11:24:52.000Z</time>
      </trkpt>
      <trkpt lat="49.98702" lon="2.07536">
        <ele>16</ele>
        <time>2011-06-22T11:25:01.000Z</time>
      </trkpt>
      <trkpt lat="49.98695" lon="2.07532">
        <ele>17</ele>
        <time>2011-06-22T11:25:15.000Z</time>
      </trkpt>
      <trkpt lat="49.98681" lon="2.07524">
        <ele>22</ele>
        <time>2011-06-22T11:25:27.000Z</time>
      </trkpt>
      <trkpt lat="49.98669" lon="2.07518">
        <ele>24</ele>
        <time>2011-06-22T11:25:37.000Z</time>
      </trkpt>
      <trkpt lat="49.98664" lon="2.07516">
        <ele>20</ele>
        <time>2011-06-22T11:25:52.000Z</time>
      </trkpt>
      <trkpt lat="49.98641" lon="2.07491">
        <ele>18</ele>
        <time>2011-06-22T11:26:57.000Z</time>
      </trkpt>
      <trkpt lat="49.98635" lon="2.07479">
        <ele>18</ele>
        <time>2011-06-22T11:28:08.000Z</time>
      </trkpt>
      <trkpt lat="49.98623" lon="2.07466">
        <ele>13</ele>
        <time>2011-06-22T11:28:23.000Z</time>
      </trkpt>
      <trkpt lat="49.986" lon="2.07446">
        <ele>13</ele>
        <time>2011-06-22T11:28:46.000Z</time>
      </trkpt>
      <trkpt lat="49.9858" lon="2.0743">
        <ele>20</ele>
        <time>2011-06-22T11:29:03.000Z</time>
      </trkpt>
      <trkpt lat="49.98576" lon="2.07424">
        <ele>20</ele>
        <time>2011-06-22T11:29:08.000Z</time>
      </trkpt>
      <trkpt lat="49.98568" lon="2.07417">
        <ele>19</ele>
        <time>2011-06-22T11:29:16.000Z</time>
      </trkpt>
      <trkpt lat="49.98554" lon="2.07409">
        <ele>23</ele>
        <time>2011-06-22T11:29:28.000Z</time>
      </trkpt>
      <trkpt lat="49.98541" lon="2.0739">
        <ele>13</ele>
        <time>2011-06-22T11:30:00.000Z</time>
      </trkpt>
      <trkpt lat="49.98534" lon="2.07384">
        <ele>14</ele>
        <time>2011-06-22T11:30:08.000Z</time>
      </trkpt>
      <trkpt lat="49.98531" lon="2.07379">
        <ele>16</ele>
        <time>2011-06-22T11:30:14.000Z</time>
      </trkpt>
      <trkpt lat="49.9851" lon="2.0735">
        <ele>13</ele>
        <time>2011-06-22T11:30:44.000Z</time>
      </trkpt>
      <trkpt lat="49.98492" lon="2.0733">
        <ele>11</ele>
        <time>2011-06-22T11:31:00.000Z</time>
      </trkpt>
      <trkpt lat="49.98474" lon="2.07311">
        <ele>10</ele>
        <time>2011-06-22T11:31:17.000Z</time>
      </trkpt>
      <trkpt lat="49.98437" lon="2.0727">
        <ele>7</ele>
        <time>2011-06-22T11:31:57.000Z</time>
      </trkpt>
      <trkpt lat="49.98436" lon="2.07269">
        <ele>7</ele>
        <time>2011-06-22T11:31:58.000Z</time>
      </trkpt>
      <trkpt lat="49.98398" lon="2.07229">
        <ele>6</ele>
        <time>2011-06-22T11:32:37.000Z</time>
      </trkpt>
      <trkpt lat="49.98397" lon="2.07228">
        <ele>7</ele>
        <time>2011-06-22T11:32:38.000Z</time>
      </trkpt>
      <trkpt lat="49.98389" lon="2.07216">
        <ele>12</ele>
        <time>2011-06-22T11:32:47.000Z</time>
      </trkpt>
      <trkpt lat="49.9838" lon="2.07205">
        <ele>14</ele>
        <time>2011-06-22T11:32:55.000Z</time>
      </trkpt>
      <trkpt lat="49.98363" lon="2.07182">
        <ele>14</ele>
        <time>2011-06-22T11:33:13.000Z</time>
      </trkpt>
      <trkpt lat="49.98355" lon="2.0717">
        <ele>14</ele>
        <time>2011-06-22T11:33:21.000Z</time>
      </trkpt>
      <trkpt lat="49.98344" lon="2.07147">
        <ele>13</ele>
        <time>2011-06-22T11:33:37.000Z</time>
      </trkpt>
      <trkpt lat="49.98341" lon="2.07139">
        <ele>14</ele>
        <time>2011-06-22T11:33:43.000Z</time>
      </trkpt>
      <trkpt lat="49.98336" lon="2.07128">
        <ele>16</ele>
        <time>2011-06-22T11:33:52.000Z</time>
      </trkpt>
      <trkpt lat="49.98331" lon="2.07117">
        <ele>20</ele>
        <time>2011-06-22T11:33:57.000Z</time>
      </trkpt>
      <trkpt lat="49.98319" lon="2.07095">
        <ele>20</ele>
        <time>2011-06-22T11:34:09.000Z</time>
      </trkpt>
      <trkpt lat="49.98315" lon="2.07079">
        <ele>15</ele>
        <time>2011-06-22T11:34:18.000Z</time>
      </trkpt>
      <trkpt lat="49.98312" lon="2.07062">
        <ele>12</ele>
        <time>2011-06-22T11:34:27.000Z</time>
      </trkpt>
      <trkpt lat="49.98314" lon="2.07055">
        <ele>12</ele>
        <time>2011-06-22T11:34:31.000Z</time>
      </trkpt>
      <trkpt lat="49.98322" lon="2.07046">
        <ele>14</ele>
        <time>2011-06-22T11:34:38.000Z</time>
      </trkpt>
      <trkpt lat="49.98328" lon="2.0704">
        <ele>15</ele>
        <time>2011-06-22T11:34:44.000Z</time>
      </trkpt>
      <trkpt lat="49.98343" lon="2.07023">
        <ele>15</ele>
        <time>2011-06-22T11:35:00.000Z</time>
      </trkpt>
      <trkpt lat="49.98384" lon="2.06991">
        <ele>13</ele>
        <time>2011-06-22T11:35:36.000Z</time>
      </trkpt>
      <trkpt lat="49.98385" lon="2.0699">
        <ele>13</ele>
        <time>2011-06-22T11:35:37.000Z</time>
      </trkpt>
      <trkpt lat="49.98386" lon="2.06988">
        <ele>12</ele>
        <time>2011-06-22T11:35:39.000Z</time>
      </trkpt>
      <trkpt lat="49.98391" lon="2.06983">
        <ele>11</ele>
        <time>2011-06-22T11:35:44.000Z</time>
      </trkpt>
      <trkpt lat="49.98394" lon="2.06976">
        <ele>10</ele>
        <time>2011-06-22T11:35:50.000Z</time>
      </trkpt>
      <trkpt lat="49.98407" lon="2.06959">
        <ele>14</ele>
        <time>2011-06-22T11:36:03.000Z</time>
      </trkpt>
      <trkpt lat="49.98424" lon="2.06943">
        <ele>17</ele>
        <time>2011-06-22T11:36:19.000Z</time>
      </trkpt>
      <trkpt lat="49.98429" lon="2.06939">
        <ele>17</ele>
        <time>2011-06-22T11:36:23.000Z</time>
      </trkpt>
      <trkpt lat="49.98452" lon="2.06922">
        <ele>19</ele>
        <time>2011-06-22T11:36:44.000Z</time>
      </trkpt>
      <trkpt lat="49.98458" lon="2.06912">
        <ele>18</ele>
        <time>2011-06-22T11:36:53.000Z</time>
      </trkpt>
      <trkpt lat="49.98481" lon="2.06891">
        <ele>26</ele>
        <time>2011-06-22T11:37:12.000Z</time>
      </trkpt>
      <trkpt lat="49.985" lon="2.06877">
        <ele>28</ele>
        <time>2011-06-22T11:37:29.000Z</time>
      </trkpt>
      <trkpt lat="49.98511" lon="2.06869">
        <ele>31</ele>
        <time>2011-06-22T11:37:38.000Z</time>
      </trkpt>
      <trkpt lat="49.98515" lon="2.06864">
        <ele>31</ele>
        <time>2011-06-22T11:37:52.000Z</time>
      </trkpt>
      <trkpt lat="49.98526" lon="2.06852">
        <ele>23</ele>
        <time>2011-06-22T11:38:22.000Z</time>
      </trkpt>
      <trkpt lat="49.98533" lon="2.06848">
        <ele>22</ele>
        <time>2011-06-22T11:38:30.000Z</time>
      </trkpt>
      <trkpt lat="49.98571" lon="2.06808">
        <ele>20</ele>
        <time>2011-06-22T11:39:13.000Z</time>
      </trkpt>
      <trkpt lat="49.98572" lon="2.06808">
        <ele>21</ele>
        <time>2011-06-22T11:39:14.000Z</time>
      </trkpt>
      <trkpt lat="49.98586" lon="2.06795">
        <ele>19</ele>
        <time>2011-06-22T11:39:27.000Z</time>
      </trkpt>
      <trkpt lat="49.9859" lon="2.06791">
        <ele>16</ele>
        <time>2011-06-22T11:39:32.000Z</time>
      </trkpt>
      <trkpt lat="49.98619" lon="2.06767">
        <ele>13</ele>
        <time>2011-06-22T11:39:57.000Z</time>
      </trkpt>
      <trkpt lat="49.98628" lon="2.06759">
        <ele>12</ele>
        <time>2011-06-22T11:40:06.000Z</time>
      </trkpt>
      <trkpt lat="49.98636" lon="2.06751">
        <ele>13</ele>
        <time>2011-06-22T11:40:14.000Z</time>
      </trkpt>
      <trkpt lat="49.98647" lon="2.06743">
        <ele>15</ele>
        <time>2011-06-22T11:40:22.000Z</time>
      </trkpt>
      <trkpt lat="49.98655" lon="2.06736">
        <ele>16</ele>
        <time>2011-06-22T11:40:29.000Z</time>
      </trkpt>
      <trkpt lat="49.98663" lon="2.06728">
        <ele>14</ele>
        <time>2011-06-22T11:40:37.000Z</time>
      </trkpt>
      <trkpt lat="49.98677" lon="2.06713">
        <ele>13</ele>
        <time>2011-06-22T11:40:52.000Z</time>
      </trkpt>
      <trkpt lat="49.98691" lon="2.06701">
        <ele>10</ele>
        <time>2011-06-22T11:41:04.000Z</time>
      </trkpt>
      <trkpt lat="49.98711" lon="2.06682">
        <ele>10</ele>
        <time>2011-06-22T11:41:23.000Z</time>
      </trkpt>
      <trkpt lat="49.98716" lon="2.06676">
        <ele>12</ele>
        <time>2011-06-22T11:41:28.000Z</time>
      </trkpt>
      <trkpt lat="49.98756" lon="2.06641">
        <ele>15</ele>
        <time>2011-06-22T11:42:01.000Z</time>
      </trkpt>
      <trkpt lat="49.98756" lon="2.06639">
        <ele>15</ele>
        <time>2011-06-22T11:42:02.000Z</time>
      </trkpt>
      <trkpt lat="49.98761" lon="2.06634">
        <ele>14</ele>
        <time>2011-06-22T11:42:07.000Z</time>
      </trkpt>
      <trkpt lat="49.98765" lon="2.06629">
        <ele>14</ele>
        <time>2011-06-22T11:42:12.000Z</time>
      </trkpt>
      <trkpt lat="49.98798" lon="2.06591">
        <ele>11</ele>
        <time>2011-06-22T11:42:49.000Z</time>
      </trkpt>
      <trkpt lat="49.9881" lon="2.06581">
        <ele>10</ele>
        <time>2011-06-22T11:43:01.000Z</time>
      </trkpt>
      <trkpt lat="49.98815" lon="2.06577">
        <ele>11</ele>
        <time>2011-06-22T11:43:05.000Z</time>
      </trkpt>
      <trkpt lat="49.98823" lon="2.0657">
        <ele>13</ele>
        <time>2011-06-22T11:43:11.000Z</time>
      </trkpt>
      <trkpt lat="49.98831" lon="2.06561">
        <ele>14</ele>
        <time>2011-06-22T11:43:18.000Z</time>
      </trkpt>
      <trkpt lat="49.98871" lon="2.06525">
        <ele>14</ele>
        <time>2011-06-22T11:43:54.000Z</time>
      </trkpt>
      <trkpt lat="49.98873" lon="2.06523">
        <ele>14</ele>
        <time>2011-06-22T11:43:55.000Z</time>
      </trkpt>
      <trkpt lat="49.98885" lon="2.06513">
        <ele>16</ele>
        <time>2011-06-22T11:44:06.000Z</time>
      </trkpt>
      <trkpt lat="49.98922" lon="2.06475">
        <ele>15</ele>
        <time>2011-06-22T11:44:44.000Z</time>
      </trkpt>
      <trkpt lat="49.98923" lon="2.06474">
        <ele>15</ele>
        <time>2011-06-22T11:44:45.000Z</time>
      </trkpt>
      <trkpt lat="49.98926" lon="2.0647">
        <ele>14</ele>
        <time>2011-06-22T11:44:49.000Z</time>
      </trkpt>
      <trkpt lat="49.98932" lon="2.06464">
        <ele>11</ele>
        <time>2011-06-22T11:45:16.000Z</time>
      </trkpt>
      <trkpt lat="49.98942" lon="2.06454">
        <ele>17</ele>
        <time>2011-06-22T11:45:30.000Z</time>
      </trkpt>
      <trkpt lat="49.9898" lon="2.06414">
        <ele>9</ele>
        <time>2011-06-22T11:46:12.000Z</time>
      </trkpt>
      <trkpt lat="49.98981" lon="2.06413">
        <ele>9</ele>
        <time>2011-06-22T11:46:13.000Z</time>
      </trkpt>
      <trkpt lat="49.9902" lon="2.06377">
        <ele>13</ele>
        <time>2011-06-22T11:46:46.000Z</time>
      </trkpt>
      <trkpt lat="49.99021" lon="2.06376">
        <ele>13</ele>
        <time>2011-06-22T11:46:47.000Z</time>
      </trkpt>
      <trkpt lat="49.99044" lon="2.06356">
        <ele>15</ele>
        <time>2011-06-22T11:47:08.000Z</time>
      </trkpt>
      <trkpt lat="49.99051" lon="2.06348">
        <ele>16</ele>
        <time>2011-06-22T11:47:15.000Z</time>
      </trkpt>
      <trkpt lat="49.99081" lon="2.06318">
        <ele>16</ele>
        <time>2011-06-22T11:47:42.000Z</time>
      </trkpt>
      <trkpt lat="49.9912" lon="2.06281">
        <ele>15</ele>
        <time>2011-06-22T11:48:18.000Z</time>
      </trkpt>
      <trkpt lat="49.99121" lon="2.0628">
        <ele>15</ele>
        <time>2011-06-22T11:48:19.000Z</time>
      </trkpt>
      <trkpt lat="49.99136" lon="2.06265">
        <ele>10</ele>
        <time>2011-06-22T11:48:36.000Z</time>
      </trkpt>
      <trkpt lat="49.99174" lon="2.0623">
        <ele>11</ele>
        <time>2011-06-22T11:49:10.000Z</time>
      </trkpt>
      <trkpt lat="49.99176" lon="2.06229">
        <ele>10</ele>
        <time>2011-06-22T11:49:11.000Z</time>
      </trkpt>
      <trkpt lat="49.99178" lon="2.06225">
        <ele>9</ele>
        <time>2011-06-22T11:49:15.000Z</time>
      </trkpt>
      <trkpt lat="49.99183" lon="2.0622">
        <ele>9</ele>
        <time>2011-06-22T11:49:20.000Z</time>
      </trkpt>
      <trkpt lat="49.9919" lon="2.06213">
        <ele>8</ele>
        <time>2011-06-22T11:49:28.000Z</time>
      </trkpt>
      <trkpt lat="49.99194" lon="2.06207">
        <ele>3</ele>
        <time>2011-06-22T11:49:35.000Z</time>
      </trkpt>
      <trkpt lat="49.99207" lon="2.06192">
        <ele>-1</ele>
        <time>2011-06-22T11:49:49.000Z</time>
      </trkpt>
      <trkpt lat="49.99236" lon="2.06171">
        <ele>7</ele>
        <time>2011-06-22T11:50:10.000Z</time>
      </trkpt>
      <trkpt lat="49.99244" lon="2.06161">
        <ele>7</ele>
        <time>2011-06-22T11:50:19.000Z</time>
      </trkpt>
      <trkpt lat="49.9928" lon="2.06129">
        <ele>8</ele>
        <time>2011-06-22T11:50:52.000Z</time>
      </trkpt>
      <trkpt lat="49.99318" lon="2.06089">
        <ele>9</ele>
        <time>2011-06-22T11:51:26.000Z</time>
      </trkpt>
      <trkpt lat="49.99319" lon="2.06088">
        <ele>10</ele>
        <time>2011-06-22T11:51:27.000Z</time>
      </trkpt>
      <trkpt lat="49.99338" lon="2.06072">
        <ele>11</ele>
        <time>2011-06-22T11:51:44.000Z</time>
      </trkpt>
      <trkpt lat="49.99378" lon="2.06037">
        <ele>12</ele>
        <time>2011-06-22T11:52:20.000Z</time>
      </trkpt>
      <trkpt lat="49.99379" lon="2.06036">
        <ele>12</ele>
        <time>2011-06-22T11:52:21.000Z</time>
      </trkpt>
      <trkpt lat="49.99416" lon="2.05997">
        <ele>12</ele>
        <time>2011-06-22T11:53:00.000Z</time>
      </trkpt>
      <trkpt lat="49.99417" lon="2.05996">
        <ele>12</ele>
        <time>2011-06-22T11:53:01.000Z</time>
      </trkpt>
      <trkpt lat="49.99439" lon="2.05977">
        <ele>10</ele>
        <time>2011-06-22T11:53:22.000Z</time>
      </trkpt>
      <trkpt lat="49.99461" lon="2.05954">
        <ele>11</ele>
        <time>2011-06-22T11:53:48.000Z</time>
      </trkpt>
      <trkpt lat="49.99465" lon="2.05953">
        <ele>13</ele>
        <time>2011-06-22T11:54:05.000Z</time>
      </trkpt>
      <trkpt lat="49.99472" lon="2.05952">
        <ele>17</ele>
        <time>2011-06-22T11:54:40.000Z</time>
      </trkpt>
      <trkpt lat="49.99473" lon="2.05945">
        <ele>18</ele>
        <time>2011-06-22T11:54:49.000Z</time>
      </trkpt>
      <trkpt lat="49.9948" lon="2.05934">
        <ele>11</ele>
        <time>2011-06-22T11:55:03.000Z</time>
      </trkpt>
      <trkpt lat="49.99504" lon="2.05913">
        <ele>3</ele>
        <time>2011-06-22T11:55:41.000Z</time>
      </trkpt>
      <trkpt lat="49.99516" lon="2.05901">
        <ele>6</ele>
        <time>2011-06-22T11:55:59.000Z</time>
      </trkpt>
      <trkpt lat="49.99554" lon="2.05864">
        <ele>6</ele>
        <time>2011-06-22T11:56:39.000Z</time>
      </trkpt>
      <trkpt lat="49.99555" lon="2.05862">
        <ele>7</ele>
        <time>2011-06-22T11:56:40.000Z</time>
      </trkpt>
      <trkpt lat="49.99593" lon="2.05824">
        <ele>4</ele>
        <time>2011-06-22T11:57:18.000Z</time>
      </trkpt>
      <trkpt lat="49.99594" lon="2.05824">
        <ele>4</ele>
        <time>2011-06-22T11:57:19.000Z</time>
      </trkpt>
      <trkpt lat="49.99596" lon="2.05823">
        <ele>5</ele>
        <time>2011-06-22T11:57:28.000Z</time>
      </trkpt>
      <trkpt lat="49.99624" lon="2.0579">
        <ele>2</ele>
        <time>2011-06-22T11:58:27.000Z</time>
      </trkpt>
      <trkpt lat="49.99632" lon="2.05784">
        <ele>1</ele>
        <time>2011-06-22T11:58:39.000Z</time>
      </trkpt>
      <trkpt lat="49.99648" lon="2.05778">
        <ele>7</ele>
        <time>2011-06-22T11:59:02.000Z</time>
      </trkpt>
      <trkpt lat="49.99652" lon="2.05773">
        <ele>6</ele>
        <time>2011-06-22T11:59:08.000Z</time>
      </trkpt>
      <trkpt lat="49.99656" lon="2.05767">
        <ele>4</ele>
        <time>2011-06-22T11:59:14.000Z</time>
      </trkpt>
      <trkpt lat="49.9966" lon="2.0576">
        <ele>2</ele>
        <time>2011-06-22T11:59:20.000Z</time>
      </trkpt>
      <trkpt lat="49.99672" lon="2.05738">
        <ele>-3</ele>
        <time>2011-06-22T11:59:41.000Z</time>
      </trkpt>
      <trkpt lat="49.99703" lon="2.05709">
        <ele>-1</ele>
        <time>2011-06-22T12:00:11.000Z</time>
      </trkpt>
      <trkpt lat="49.99708" lon="2.05706">
        <ele>11.6</ele>
        <time>2011-06-22T12:00:15.000Z</time>
      </trkpt>
      <trkpt lat="49.99736" lon="2.05685">
        <ele>7</ele>
        <time>2011-06-22T12:00:37.000Z</time>
      </trkpt>
      <trkpt lat="49.99742" lon="2.05677">
        <ele>8</ele>
        <time>2011-06-22T12:00:43.000Z</time>
      </trkpt>
      <trkpt lat="49.99761" lon="2.05651">
        <ele>2</ele>
        <time>2011-06-22T12:01:06.000Z</time>
      </trkpt>
      <trkpt lat="49.998" lon="2.05617">
        <ele>3</ele>
        <time>2011-06-22T12:01:41.000Z</time>
      </trkpt>
      <trkpt lat="49.99801" lon="2.05616">
        <ele>3</ele>
        <time>2011-06-22T12:01:42.000Z</time>
      </trkpt>
      <trkpt lat="49.99841" lon="2.05583">
        <ele>3</ele>
        <time>2011-06-22T12:02:17.000Z</time>
      </trkpt>
      <trkpt lat="49.99842" lon="2.05582">
        <ele>3</ele>
        <time>2011-06-22T12:02:18.000Z</time>
      </trkpt>
      <trkpt lat="49.99851" lon="2.05572">
        <ele>4</ele>
        <time>2011-06-22T12:02:26.000Z</time>
      </trkpt>
      <trkpt lat="49.99883" lon="2.05539">
        <ele>10</ele>
        <time>2011-06-22T12:02:54.000Z</time>
      </trkpt>
      <trkpt lat="49.999" lon="2.05528">
        <ele>11</ele>
        <time>2011-06-22T12:03:14.000Z</time>
      </trkpt>
      <trkpt lat="49.99923" lon="2.05515">
        <ele>6</ele>
        <time>2011-06-22T12:03:36.000Z</time>
      </trkpt>
      <trkpt lat="49.99929" lon="2.0551">
        <ele>6</ele>
        <time>2011-06-22T12:03:42.000Z</time>
      </trkpt>
      <trkpt lat="49.99938" lon="2.055">
        <ele>7</ele>
        <time>2011-06-22T12:03:52.000Z</time>
      </trkpt>
      <trkpt lat="49.99961" lon="2.0548">
        <ele>5</ele>
        <time>2011-06-22T12:04:16.000Z</time>
      </trkpt>
      <trkpt lat="49.99971" lon="2.0547">
        <ele>3</ele>
        <time>2011-06-22T12:04:27.000Z</time>
      </trkpt>
      <trkpt lat="49.99981" lon="2.0546">
        <ele>-1</ele>
        <time>2011-06-22T12:04:39.000Z</time>
      </trkpt>
      <trkpt lat="49.99989" lon="2.05452">
        <ele>-2</ele>
        <time>2011-06-22T12:04:48.000Z</time>
      </trkpt>
      <trkpt lat="49.99995" lon="2.05448">
        <ele>-3</ele>
        <time>2011-06-22T12:04:53.000Z</time>
      </trkpt>
      <trkpt lat="50.00012" lon="2.05428">
        <ele>2</ele>
        <time>2011-06-22T12:05:09.000Z</time>
      </trkpt>
      <trkpt lat="50.00046" lon="2.05388">
        <ele>8</ele>
        <time>2011-06-22T12:05:55.000Z</time>
      </trkpt>
      <trkpt lat="50.00053" lon="2.05374">
        <ele>4</ele>
        <time>2011-06-22T12:06:08.000Z</time>
      </trkpt>
      <trkpt lat="50.00063" lon="2.05364">
        <ele>3</ele>
        <time>2011-06-22T12:06:21.000Z</time>
      </trkpt>
      <trkpt lat="50.00076" lon="2.05352">
        <ele>1</ele>
        <time>2011-06-22T12:06:37.000Z</time>
      </trkpt>
      <trkpt lat="50.00093" lon="2.05341">
        <ele>3</ele>
        <time>2011-06-22T12:06:52.000Z</time>
      </trkpt>
      <trkpt lat="50.00102" lon="2.0533">
        <ele>7</ele>
        <time>2011-06-22T12:07:03.000Z</time>
      </trkpt>
      <trkpt lat="50.00114" lon="2.05318">
        <ele>11</ele>
        <time>2011-06-22T12:07:15.000Z</time>
      </trkpt>
      <trkpt lat="50.00153" lon="2.05281">
        <ele>11</ele>
        <time>2011-06-22T12:07:53.000Z</time>
      </trkpt>
      <trkpt lat="50.00154" lon="2.0528">
        <ele>11</ele>
        <time>2011-06-22T12:07:54.000Z</time>
      </trkpt>
      <trkpt lat="50.00157" lon="2.05274">
        <ele>11</ele>
        <time>2011-06-22T12:07:58.000Z</time>
      </trkpt>
      <trkpt lat="50.00164" lon="2.05267">
        <ele>12</ele>
        <time>2011-06-22T12:08:07.000Z</time>
      </trkpt>
      <trkpt lat="50.00168" lon="2.0526">
        <ele>12</ele>
        <time>2011-06-22T12:08:16.000Z</time>
      </trkpt>
      <trkpt lat="50.00172" lon="2.0525">
        <ele>15</ele>
        <time>2011-06-22T12:08:34.000Z</time>
      </trkpt>
      <trkpt lat="50.00176" lon="2.05246">
        <ele>16</ele>
        <time>2011-06-22T12:08:40.000Z</time>
      </trkpt>
      <trkpt lat="50.00188" lon="2.05242">
        <ele>14</ele>
        <time>2011-06-22T12:09:00.000Z</time>
      </trkpt>
      <trkpt lat="50.00202" lon="2.05235">
        <ele>10</ele>
        <time>2011-06-22T12:09:26.000Z</time>
      </trkpt>
      <trkpt lat="50.00206" lon="2.05232">
        <ele>11</ele>
        <time>2011-06-22T12:09:48.000Z</time>
      </trkpt>
      <trkpt lat="50.00218" lon="2.05228">
        <ele>8</ele>
        <time>2011-06-22T12:10:00.000Z</time>
      </trkpt>
      <trkpt lat="50.00244" lon="2.05216">
        <ele>1</ele>
        <time>2011-06-22T12:10:26.000Z</time>
      </trkpt>
      <trkpt lat="50.0028" lon="2.05184">
        <ele>1</ele>
        <time>2011-06-22T12:10:59.000Z</time>
      </trkpt>
      <trkpt lat="50.00316" lon="2.05146">
        <ele>5</ele>
        <time>2011-06-22T12:11:34.000Z</time>
      </trkpt>
      <trkpt lat="50.00317" lon="2.05145">
        <ele>5</ele>
        <time>2011-06-22T12:11:35.000Z</time>
      </trkpt>
      <trkpt lat="50.00327" lon="2.05133">
        <ele>7</ele>
        <time>2011-06-22T12:11:44.000Z</time>
      </trkpt>
      <trkpt lat="50.00341" lon="2.05115">
        <ele>6</ele>
        <time>2011-06-22T12:11:59.000Z</time>
      </trkpt>
      <trkpt lat="50.00354" lon="2.05098">
        <ele>7</ele>
        <time>2011-06-22T12:12:11.000Z</time>
      </trkpt>
      <trkpt lat="50.00368" lon="2.05083">
        <ele>8</ele>
        <time>2011-06-22T12:12:26.000Z</time>
      </trkpt>
      <trkpt lat="50.00408" lon="2.0505">
        <ele>9</ele>
        <time>2011-06-22T12:13:05.000Z</time>
      </trkpt>
      <trkpt lat="50.00409" lon="2.05049">
        <ele>9</ele>
        <time>2011-06-22T12:13:06.000Z</time>
      </trkpt>
      <trkpt lat="50.0041" lon="2.05049">
        <ele>9</ele>
        <time>2011-06-22T12:13:07.000Z</time>
      </trkpt>
      <trkpt lat="50.00418" lon="2.05043">
        <ele>9</ele>
        <time>2011-06-22T12:13:17.000Z</time>
      </trkpt>
      <trkpt lat="50.00423" lon="2.05038">
        <ele>9</ele>
        <time>2011-06-22T12:13:22.000Z</time>
      </trkpt>
      <trkpt lat="50.00449" lon="2.05017">
        <ele>6</ele>
        <time>2011-06-22T12:13:50.000Z</time>
      </trkpt>
      <trkpt lat="50.00485" lon="2.04993">
        <ele>10</ele>
        <time>2011-06-22T12:14:19.000Z</time>
      </trkpt>
      <trkpt lat="50.00494" lon="2.04992">
        <ele>11</ele>
        <time>2011-06-22T12:14:25.000Z</time>
      </trkpt>
      <trkpt lat="50.00508" lon="2.04997">
        <ele>9</ele>
        <time>2011-06-22T12:14:36.000Z</time>
      </trkpt>
      <trkpt lat="50.00513" lon="2.04998">
        <ele>9</ele>
        <time>2011-06-22T12:14:40.000Z</time>
      </trkpt>
      <trkpt lat="50.00519" lon="2.04997">
        <ele>9</ele>
        <time>2011-06-22T12:14:45.000Z</time>
      </trkpt>
      <trkpt lat="50.00525" lon="2.04998">
        <ele>8</ele>
        <time>2011-06-22T12:14:50.000Z</time>
      </trkpt>
      <trkpt lat="50.00537" lon="2.04993">
        <ele>11</ele>
        <time>2011-06-22T12:15:01.000Z</time>
      </trkpt>
      <trkpt lat="50.00551" lon="2.04982">
        <ele>16</ele>
        <time>2011-06-22T12:15:14.000Z</time>
      </trkpt>
      <trkpt lat="50.00558" lon="2.04979">
        <ele>17</ele>
        <time>2011-06-22T12:15:20.000Z</time>
      </trkpt>
      <trkpt lat="50.00566" lon="2.04981">
        <ele>15</ele>
        <time>2011-06-22T12:15:27.000Z</time>
      </trkpt>
      <trkpt lat="50.00576" lon="2.04985">
        <ele>12</ele>
        <time>2011-06-22T12:15:35.000Z</time>
      </trkpt>
      <trkpt lat="50.00585" lon="2.04986">
        <ele>11</ele>
        <time>2011-06-22T12:15:43.000Z</time>
      </trkpt>
      <trkpt lat="50.00596" lon="2.04984">
        <ele>12</ele>
        <time>2011-06-22T12:15:51.000Z</time>
      </trkpt>
      <trkpt lat="50.0061" lon="2.04978">
        <ele>12</ele>
        <time>2011-06-22T12:16:03.000Z</time>
      </trkpt>
      <trkpt lat="50.00655" lon="2.04961">
        <ele>12</ele>
        <time>2011-06-22T12:16:40.000Z</time>
      </trkpt>
      <trkpt lat="50.00656" lon="2.0496">
        <ele>12</ele>
        <time>2011-06-22T12:16:41.000Z</time>
      </trkpt>
      <trkpt lat="50.00701" lon="2.04942">
        <ele>13</ele>
        <time>2011-06-22T12:17:18.000Z</time>
      </trkpt>
      <trkpt lat="50.00702" lon="2.04942">
        <ele>13</ele>
        <time>2011-06-22T12:17:19.000Z</time>
      </trkpt>
      <trkpt lat="50.00748" lon="2.04932">
        <ele>12</ele>
        <time>2011-06-22T12:17:55.000Z</time>
      </trkpt>
      <trkpt lat="50.00749" lon="2.04932">
        <ele>11</ele>
        <time>2011-06-22T12:17:56.000Z</time>
      </trkpt>
      <trkpt lat="50.00794" lon="2.04921">
        <ele>13</ele>
        <time>2011-06-22T12:18:35.000Z</time>
      </trkpt>
      <trkpt lat="50.00795" lon="2.0492">
        <ele>13</ele>
        <time>2011-06-22T12:18:36.000Z</time>
      </trkpt>
      <trkpt lat="50.00802" lon="2.04919">
        <ele>13</ele>
        <time>2011-06-22T12:18:42.000Z</time>
      </trkpt>
      <trkpt lat="50.00843" lon="2.04911">
        <ele>17</ele>
        <time>2011-06-22T12:19:15.000Z</time>
      </trkpt>
      <trkpt lat="50.0086" lon="2.049">
        <ele>15</ele>
        <time>2011-06-22T12:19:30.000Z</time>
      </trkpt>
      <trkpt lat="50.0089" lon="2.04872">
        <ele>12</ele>
        <time>2011-06-22T12:19:58.000Z</time>
      </trkpt>
      <trkpt lat="50.00923" lon="2.04835">
        <ele>9</ele>
        <time>2011-06-22T12:20:32.000Z</time>
      </trkpt>
      <trkpt lat="50.00929" lon="2.04825">
        <ele>11</ele>
        <time>2011-06-22T12:20:38.000Z</time>
      </trkpt>
      <trkpt lat="50.00939" lon="2.04817">
        <ele>12</ele>
        <time>2011-06-22T12:20:47.000Z</time>
      </trkpt>
      <trkpt lat="50.00946" lon="2.04812">
        <ele>11</ele>
        <time>2011-06-22T12:20:53.000Z</time>
      </trkpt>
      <trkpt lat="50.00959" lon="2.04801">
        <ele>4</ele>
        <time>2011-06-22T12:21:06.000Z</time>
      </trkpt>
      <trkpt lat="50.00977" lon="2.04783">
        <ele>-1</ele>
        <time>2011-06-22T12:21:23.000Z</time>
      </trkpt>
      <trkpt lat="50.00988" lon="2.04771">
        <ele>-2</ele>
        <time>2011-06-22T12:21:33.000Z</time>
      </trkpt>
      <trkpt lat="50.00998" lon="2.04763">
        <ele>11.4</ele>
        <time>2011-06-22T12:21:41.000Z</time>
      </trkpt>
      <trkpt lat="50.01008" lon="2.04755">
        <ele>2</ele>
        <time>2011-06-22T12:21:49.000Z</time>
      </trkpt>
      <trkpt lat="50.01012" lon="2.04751">
        <ele>3</ele>
        <time>2011-06-22T12:21:53.000Z</time>
      </trkpt>
      <trkpt lat="50.01038" lon="2.04739">
        <ele>4</ele>
        <time>2011-06-22T12:22:14.000Z</time>
      </trkpt>
      <trkpt lat="50.01059" lon="2.0472">
        <ele>10</ele>
        <time>2011-06-22T12:23:09.000Z</time>
      </trkpt>
      <trkpt lat="50.01062" lon="2.0471">
        <ele>15</ele>
        <time>2011-06-22T12:23:32.000Z</time>
      </trkpt>
      <trkpt lat="50.01067" lon="2.04706">
        <ele>15</ele>
        <time>2011-06-22T12:23:44.000Z</time>
      </trkpt>
      <trkpt lat="50.01081" lon="2.04699">
        <ele>13</ele>
        <time>2011-06-22T12:23:58.000Z</time>
      </trkpt>
      <trkpt lat="50.01107" lon="2.0469">
        <ele>10</ele>
        <time>2011-06-22T12:24:20.000Z</time>
      </trkpt>
      <trkpt lat="50.01138" lon="2.04673">
        <ele>10</ele>
        <time>2011-06-22T12:24:44.000Z</time>
      </trkpt>
      <trkpt lat="50.01178" lon="2.0464">
        <ele>6</ele>
        <time>2011-06-22T12:25:19.000Z</time>
      </trkpt>
      <trkpt lat="50.01179" lon="2.04639">
        <ele>6</ele>
        <time>2011-06-22T12:25:20.000Z</time>
      </trkpt>
      <trkpt lat="50.01218" lon="2.04601">
        <ele>5</ele>
        <time>2011-06-22T12:26:01.000Z</time>
      </trkpt>
      <trkpt lat="50.01219" lon="2.04601">
        <ele>5</ele>
        <time>2011-06-22T12:26:02.000Z</time>
      </trkpt>
      <trkpt lat="50.01258" lon="2.04565">
        <ele>5</ele>
        <time>2011-06-22T12:26:36.000Z</time>
      </trkpt>
      <trkpt lat="50.0126" lon="2.04563">
        <ele>5</ele>
        <time>2011-06-22T12:26:37.000Z</time>
      </trkpt>
      <trkpt lat="50.01266" lon="2.04557">
        <ele>5</ele>
        <time>2011-06-22T12:26:43.000Z</time>
      </trkpt>
      <trkpt lat="50.01276" lon="2.04546">
        <ele>5</ele>
        <time>2011-06-22T12:26:52.000Z</time>
      </trkpt>
      <trkpt lat="50.01288" lon="2.04526">
        <ele>5</ele>
        <time>2011-06-22T12:27:07.000Z</time>
      </trkpt>
      <trkpt lat="50.01307" lon="2.04492">
        <ele>7</ele>
        <time>2011-06-22T12:27:32.000Z</time>
      </trkpt>
      <trkpt lat="50.01313" lon="2.04483">
        <ele>8</ele>
        <time>2011-06-22T12:27:38.000Z</time>
      </trkpt>
      <trkpt lat="50.01337" lon="2.04441">
        <ele>9</ele>
        <time>2011-06-22T12:28:05.000Z</time>
      </trkpt>
      <trkpt lat="50.01345" lon="2.04421">
        <ele>9</ele>
        <time>2011-06-22T12:28:18.000Z</time>
      </trkpt>
      <trkpt lat="50.01353" lon="2.04399">
        <ele>8</ele>
        <time>2011-06-22T12:28:30.000Z</time>
      </trkpt>
      <trkpt lat="50.01355" lon="2.04392">
        <ele>8</ele>
        <time>2011-06-22T12:28:34.000Z</time>
      </trkpt>
      <trkpt lat="50.01357" lon="2.04385">
        <ele>8</ele>
        <time>2011-06-22T12:28:38.000Z</time>
      </trkpt>
      <trkpt lat="50.0136" lon="2.04373">
        <ele>9</ele>
        <time>2011-06-22T12:28:44.000Z</time>
      </trkpt>
      <trkpt lat="50.01362" lon="2.04362">
        <ele>10</ele>
        <time>2011-06-22T12:28:50.000Z</time>
      </trkpt>
      <trkpt lat="50.0137" lon="2.04336">
        <ele>13</ele>
        <time>2011-06-22T12:29:04.000Z</time>
      </trkpt>
      <trkpt lat="50.01373" lon="2.04328">
        <ele>13</ele>
        <time>2011-06-22T12:29:08.000Z</time>
      </trkpt>
      <trkpt lat="50.01385" lon="2.04303">
        <ele>11</ele>
        <time>2011-06-22T12:29:24.000Z</time>
      </trkpt>
      <trkpt lat="50.01391" lon="2.04287">
        <ele>10</ele>
        <time>2011-06-22T12:29:33.000Z</time>
      </trkpt>
      <trkpt lat="50.01415" lon="2.04226">
        <ele>8</ele>
        <time>2011-06-22T12:30:08.000Z</time>
      </trkpt>
      <trkpt lat="50.01416" lon="2.04225">
        <ele>9</ele>
        <time>2011-06-22T12:30:09.000Z</time>
      </trkpt>
      <trkpt lat="50.0142" lon="2.04213">
        <ele>8</ele>
        <time>2011-06-22T12:30:16.000Z</time>
      </trkpt>
      <trkpt lat="50.01434" lon="2.04152">
        <ele>7</ele>
        <time>2011-06-22T12:30:49.000Z</time>
      </trkpt>
      <trkpt lat="50.01444" lon="2.04104">
        <ele>8</ele>
        <time>2011-06-22T12:31:16.000Z</time>
      </trkpt>
      <trkpt lat="50.01446" lon="2.04095">
        <ele>9</ele>
        <time>2011-06-22T12:31:21.000Z</time>
      </trkpt>
      <trkpt lat="50.01449" lon="2.04083">
        <ele>10</ele>
        <time>2011-06-22T12:31:27.000Z</time>
      </trkpt>
      <trkpt lat="50.0145" lon="2.04076">
        <ele>11</ele>
        <time>2011-06-22T12:31:31.000Z</time>
      </trkpt>
      <trkpt lat="50.01455" lon="2.04064">
        <ele>10</ele>
        <time>2011-06-22T12:31:38.000Z</time>
      </trkpt>
      <trkpt lat="50.01461" lon="2.04061">
        <ele>9</ele>
        <time>2011-06-22T12:31:45.000Z</time>
      </trkpt>
      <trkpt lat="50.01472" lon="2.04064">
        <ele>9</ele>
        <time>2011-06-22T12:31:53.000Z</time>
      </trkpt>
      <trkpt lat="50.01511" lon="2.04082">
        <ele>14</ele>
        <time>2011-06-22T12:32:23.000Z</time>
      </trkpt>
      <trkpt lat="50.01551" lon="2.04085">
        <ele>19</ele>
        <time>2011-06-22T12:32:54.000Z</time>
      </trkpt>
      <trkpt lat="50.01579" lon="2.04092">
        <ele>20</ele>
        <time>2011-06-22T12:33:16.000Z</time>
      </trkpt>
      <trkpt lat="50.01608" lon="2.04103">
        <ele>19</ele>
        <time>2011-06-22T12:33:39.000Z</time>
      </trkpt>
      <trkpt lat="50.01618" lon="2.04115">
        <ele>14</ele>
        <time>2011-06-22T12:33:49.000Z</time>
      </trkpt>
      <trkpt lat="50.01648" lon="2.04146">
        <ele>11</ele>
        <time>2011-06-22T12:34:16.000Z</time>
      </trkpt>
      <trkpt lat="50.01681" lon="2.04175">
        <ele>13</ele>
        <time>2011-06-22T12:34:45.000Z</time>
      </trkpt>
      <trkpt lat="50.01689" lon="2.04181">
        <ele>13</ele>
        <time>2011-06-22T12:34:52.000Z</time>
      </trkpt>
      <trkpt lat="50.01711" lon="2.0419">
        <ele>14</ele>
        <time>2011-06-22T12:35:08.000Z</time>
      </trkpt>
      <trkpt lat="50.01717" lon="2.04195">
        <ele>14</ele>
        <time>2011-06-22T12:35:14.000Z</time>
      </trkpt>
      <trkpt lat="50.01736" lon="2.04203">
        <ele>15</ele>
        <time>2011-06-22T12:35:30.000Z</time>
      </trkpt>
      <trkpt lat="50.0178" lon="2.04212">
        <ele>7</ele>
        <time>2011-06-22T12:36:06.000Z</time>
      </trkpt>
      <trkpt lat="50.01782" lon="2.04212">
        <ele>6</ele>
        <time>2011-06-22T12:36:07.000Z</time>
      </trkpt>
      <trkpt lat="50.01792" lon="2.0421">
        <ele>6</ele>
        <time>2011-06-22T12:36:14.000Z</time>
      </trkpt>
      <trkpt lat="50.01815" lon="2.04202">
        <ele>6</ele>
        <time>2011-06-22T12:36:31.000Z</time>
      </trkpt>
      <trkpt lat="50.01846" lon="2.04189">
        <ele>5</ele>
        <time>2011-06-22T12:36:58.000Z</time>
      </trkpt>
      <trkpt lat="50.01852" lon="2.04186">
        <ele>3</ele>
        <time>2011-06-22T12:37:03.000Z</time>
      </trkpt>
      <trkpt lat="50.01887" lon="2.04163">
        <ele>4</ele>
        <time>2011-06-22T12:37:30.000Z</time>
      </trkpt>
      <trkpt lat="50.01894" lon="2.04156">
        <ele>5</ele>
        <time>2011-06-22T12:37:36.000Z</time>
      </trkpt>
      <trkpt lat="50.0193" lon="2.04122">
        <ele>8</ele>
        <time>2011-06-22T12:38:06.000Z</time>
      </trkpt>
      <trkpt lat="50.01934" lon="2.04117">
        <ele>9</ele>
        <time>2011-06-22T12:38:10.000Z</time>
      </trkpt>
      <trkpt lat="50.01943" lon="2.04104">
        <ele>10</ele>
        <time>2011-06-22T12:38:21.000Z</time>
      </trkpt>
      <trkpt lat="50.01954" lon="2.04084">
        <ele>10</ele>
        <time>2011-06-22T12:38:35.000Z</time>
      </trkpt>
      <trkpt lat="50.01966" lon="2.04053">
        <ele>6</ele>
        <time>2011-06-22T12:38:56.000Z</time>
      </trkpt>
      <trkpt lat="50.01977" lon="2.04044">
        <ele>5</ele>
        <time>2011-06-22T12:39:07.000Z</time>
      </trkpt>
      <trkpt lat="50.02003" lon="2.04043">
        <ele>7</ele>
        <time>2011-06-22T12:39:28.000Z</time>
      </trkpt>
      <trkpt lat="50.02033" lon="2.04033">
        <ele>10</ele>
        <time>2011-06-22T12:39:56.000Z</time>
      </trkpt>
      <trkpt lat="50.02073" lon="2.04067">
        <ele>13</ele>
        <time>2011-06-22T12:40:39.000Z</time>
      </trkpt>
      <trkpt lat="50.02074" lon="2.04067">
        <ele>13</ele>
        <time>2011-06-22T12:40:40.000Z</time>
      </trkpt>
      <trkpt lat="50.02079" lon="2.04074">
        <ele>14</ele>
        <time>2011-06-22T12:40:46.000Z</time>
      </trkpt>
      <trkpt lat="50.02089" lon="2.04088">
        <ele>16</ele>
        <time>2011-06-22T12:40:59.000Z</time>
      </trkpt>
      <trkpt lat="50.02094" lon="2.04091">
        <ele>17</ele>
        <time>2011-06-22T12:41:08.000Z</time>
      </trkpt>
      <trkpt lat="50.021" lon="2.04087">
        <ele>17</ele>
        <time>2011-06-22T12:41:20.000Z</time>
      </trkpt>
      <trkpt lat="50.02111" lon="2.04092">
        <ele>19</ele>
        <time>2011-06-22T12:41:51.000Z</time>
      </trkpt>
      <trkpt lat="50.02111" lon="2.04098">
        <ele>10</ele>
        <time>2011-06-22T12:42:40.000Z</time>
      </trkpt>
      <trkpt lat="50.02116" lon="2.04092">
        <ele>14</ele>
        <time>2011-06-22T12:43:00.000Z</time>
      </trkpt>
      <trkpt lat="50.0212" lon="2.04098">
        <ele>17</ele>
        <time>2011-06-22T12:43:33.000Z</time>
      </trkpt>
    </trkseg>
  </trk>
</gpx>